PWSweather.com
Personal Weather Stations
Station Observations
KKYCRABO2
Cedar Creek Lake 840 Ky. Hwy. 39 N, Crab Orchard, KY 40419

Cedar Creek Lake 840 Ky. Hwy. 39 NCrab Orchard, KY 40419

Lat: 37.4736234544238, Lon: -84.5120286941528

Elevation: 952

Station Type: TYCON Power TP1080WC Pro

http://kbweather.net/

Latest ConditionsUpdated 2:53:00 PM EST Sunday, Nov 19, 2017
Currently Today's Max Today's Min Today's Average
Temperature 38.8°F3.8°C 40.8°F4.9°C 37.8°F3.2°C 39.4°F4.1°C
Dew Point 26.6°F-3.0°C 35.6°F2.0°C 26.6°F-3.0°C 29.6°F-1.3°C
Winds 4.9 mph W7.9 kmh W 9.4 mph W15.1 kmh W - 4.9 mph 7.9 kmh
Wind Gusts 6.5 mph10.5 kmh 17.2 mph27.7 kmh - -
Humidity 61% 84% 57% 68%
Pressure 30.06 in1017.9 mb 30.09 in1019.0 mb 29.79 in1008.8 mb -
Hour Temp Dew Point Humidity Winds Wind Gusts Pressure Precip Precip Rate Daily Precip Total
02:53 PM 38.8°F3.8°C 26.6°F-3.0°C 61% 4.9 mph W7.9 kmh W 6.5 mph10.5 kmh 30.06 in1017.9 mb 0.00 in0.0 mm 0.00 in0.0 mm 0.00 in0.0 mm
02:52 PM 38.8°F3.8°C 26.6°F-3.0°C 61% 4.5 mph W7.2 kmh W 6.0 mph9.7 kmh 30.06 in1017.9 mb 0.00 in0.0 mm 0.00 in0.0 mm 0.00 in0.0 mm
02:51 PM 38.8°F3.8°C 26.6°F-3.0°C 61% 3.8 mph W6.1 kmh W 6.0 mph9.7 kmh 30.06 in1017.9 mb 0.00 in0.0 mm 0.00 in0.0 mm 0.00 in0.0 mm
02:50 PM 38.8°F3.8°C 26.6°F-3.0°C 61% 3.8 mph W6.1 kmh W 6.5 mph10.5 kmh 30.06 in1017.9 mb 0.00 in0.0 mm 0.00 in0.0 mm 0.00 in0.0 mm
02:49 PM 38.8°F3.8°C 26.6°F-3.0°C 61% 3.4 mph W5.5 kmh W 7.8 mph12.6 kmh 30.06 in1017.9 mb 0.00 in0.0 mm 0.00 in0.0 mm 0.00 in0.0 mm
02:48 PM 38.8°F3.8°C 26.6°F-3.0°C 61% 4.9 mph W7.9 kmh W 7.8 mph12.6 kmh 30.06 in1017.9 mb 0.00 in0.0 mm 0.00 in0.0 mm 0.00 in0.0 mm
02:47 PM 38.8°F3.8°C 26.6°F-3.0°C 61% 3.6 mph W5.8 kmh W 7.8 mph12.6 kmh 30.06 in1017.9 mb 0.00 in0.0 mm 0.00 in0.0 mm 0.00 in0.0 mm
02:46 PM 38.8°F3.8°C 26.6°F-3.0°C 61% 3.8 mph W6.1 kmh W 7.8 mph12.6 kmh 30.06 in1017.9 mb 0.00 in0.0 mm 0.00 in0.0 mm 0.00 in0.0 mm
02:45 PM 38.8°F3.8°C 26.6°F-3.0°C 61% 4.7 mph W7.6 kmh W 7.8 mph12.6 kmh 30.06 in1017.9 mb 0.00 in0.0 mm 0.00 in0.0 mm 0.00 in0.0 mm
02:44 PM 38.8°F3.8°C 26.6°F-3.0°C 61% 4.0 mph W6.4 kmh W 7.8 mph12.6 kmh 30.06 in1017.9 mb 0.00 in0.0 mm 0.00 in0.0 mm 0.00 in0.0 mm
02:43 PM 38.8°F3.8°C 26.6°F-3.0°C 61% 4.0 mph W6.4 kmh W 7.8 mph12.6 kmh 30.06 in1017.9 mb 0.00 in0.0 mm 0.00 in0.0 mm 0.00 in0.0 mm
02:42 PM 38.7°F3.7°C 26.6°F-3.0°C 61% 4.7 mph WSW7.6 kmh WSW 7.8 mph12.6 kmh 30.06 in1017.9 mb 0.00 in0.0 mm 0.00 in0.0 mm 0.00 in0.0 mm
02:41 PM 38.7°F3.7°C 26.6°F-3.0°C 61% 5.4 mph WSW8.7 kmh WSW 7.8 mph12.6 kmh 30.06 in1017.9 mb 0.00 in0.0 mm 0.00 in0.0 mm 0.00 in0.0 mm
02:40 PM 38.7°F3.7°C 26.6°F-3.0°C 61% 5.4 mph W8.7 kmh W 7.8 mph12.6 kmh 30.06 in1017.9 mb 0.00 in0.0 mm 0.00 in0.0 mm 0.00 in0.0 mm
02:39 PM 38.7°F3.7°C 26.6°F-3.0°C 62% 3.1 mph W5.0 kmh W 5.8 mph9.3 kmh 30.06 in1017.9 mb 0.00 in0.0 mm 0.00 in0.0 mm 0.00 in0.0 mm
02:38 PM 38.7°F3.7°C 26.6°F-3.0°C 62% 2.2 mph W3.5 kmh W 6.5 mph10.5 kmh 30.06 in1017.9 mb 0.00 in0.0 mm 0.00 in0.0 mm 0.00 in0.0 mm
02:37 PM 38.7°F3.7°C 26.6°F-3.0°C 61% 2.7 mph W4.3 kmh W 6.5 mph10.5 kmh 30.06 in1017.9 mb 0.00 in0.0 mm 0.00 in0.0 mm 0.00 in0.0 mm
02:36 PM 38.7°F3.7°C 26.6°F-3.0°C 61% 3.1 mph W5.0 kmh W 6.5 mph10.5 kmh 30.06 in1017.9 mb 0.00 in0.0 mm 0.00 in0.0 mm 0.00 in0.0 mm
02:35 PM 38.5°F3.6°C 26.6°F-3.0°C 61% 2.7 mph W4.3 kmh W 6.5 mph10.5 kmh 30.06 in1017.9 mb 0.00 in0.0 mm 0.00 in0.0 mm 0.00 in0.0 mm
02:34 PM 38.5°F3.6°C 26.6°F-3.0°C 61% 2.2 mph W3.5 kmh W 6.5 mph10.5 kmh 30.06 in1017.9 mb 0.00 in0.0 mm 0.00 in0.0 mm 0.00 in0.0 mm
02:33 PM 38.5°F3.6°C 26.6°F-3.0°C 61% 4.0 mph W6.4 kmh W 8.7 mph14.0 kmh 30.06 in1017.9 mb 0.00 in0.0 mm 0.00 in0.0 mm 0.00 in0.0 mm
02:32 PM 38.5°F3.6°C 26.6°F-3.0°C 61% 4.0 mph W6.4 kmh W 8.7 mph14.0 kmh 30.06 in1017.9 mb 0.00 in0.0 mm 0.00 in0.0 mm 0.00 in0.0 mm
02:31 PM 38.5°F3.6°C 26.6°F-3.0°C 61% 4.5 mph W7.2 kmh W 8.7 mph14.0 kmh 30.06 in1017.9 mb 0.00 in0.0 mm 0.00 in0.0 mm 0.00 in0.0 mm
02:30 PM 38.5°F3.6°C 26.6°F-3.0°C 61% 2.7 mph W4.3 kmh W 8.7 mph14.0 kmh 30.06 in1017.9 mb 0.00 in0.0 mm 0.00 in0.0 mm 0.00 in0.0 mm
02:29 PM 38.5°F3.6°C 26.6°F-3.0°C 61% 3.6 mph W5.8 kmh W 8.7 mph14.0 kmh 30.06 in1017.9 mb 0.00 in0.0 mm 0.00 in0.0 mm 0.00 in0.0 mm
02:28 PM 38.5°F3.6°C 26.6°F-3.0°C 61% 3.6 mph W5.8 kmh W 8.7 mph14.0 kmh 30.06 in1017.9 mb 0.00 in0.0 mm 0.00 in0.0 mm 0.00 in0.0 mm
02:27 PM 38.3°F3.5°C 26.6°F-3.0°C 61% 3.1 mph W5.0 kmh W 8.7 mph14.0 kmh 30.06 in1017.9 mb 0.00 in0.0 mm 0.00 in0.0 mm 0.00 in0.0 mm
02:26 PM 38.3°F3.5°C 26.6°F-3.0°C 61% 4.3 mph W6.9 kmh W 8.7 mph14.0 kmh 30.06 in1017.9 mb 0.00 in0.0 mm 0.00 in0.0 mm 0.00 in0.0 mm
02:25 PM 38.3°F3.5°C 26.6°F-3.0°C 61% 5.4 mph W8.7 kmh W 8.7 mph14.0 kmh 30.06 in1017.9 mb 0.00 in0.0 mm 0.00 in0.0 mm 0.00 in0.0 mm
02:24 PM 38.3°F3.5°C 26.6°F-3.0°C 61% 7.2 mph W11.6 kmh W 8.7 mph14.0 kmh 30.06 in1017.9 mb 0.00 in0.0 mm 0.00 in0.0 mm 0.00 in0.0 mm
02:23 PM 38.3°F3.5°C 26.6°F-3.0°C 61% 6.0 mph W9.7 kmh W 6.9 mph11.1 kmh 30.06 in1017.9 mb 0.00 in0.0 mm 0.00 in0.0 mm 0.00 in0.0 mm
02:22 PM 38.3°F3.5°C 26.6°F-3.0°C 61% 4.0 mph W6.4 kmh W 6.5 mph10.5 kmh 30.06 in1017.9 mb 0.00 in0.0 mm 0.00 in0.0 mm 0.00 in0.0 mm
02:21 PM 38.5°F3.6°C 26.6°F-3.0°C 61% 3.8 mph W6.1 kmh W 6.5 mph10.5 kmh 30.06 in1017.9 mb 0.00 in0.0 mm 0.00 in0.0 mm 0.00 in0.0 mm
02:20 PM 38.5°F3.6°C 26.6°F-3.0°C 61% 4.0 mph W6.4 kmh W 6.5 mph10.5 kmh 30.06 in1017.9 mb 0.00 in0.0 mm 0.00 in0.0 mm 0.00 in0.0 mm
02:19 PM 38.5°F3.6°C 26.6°F-3.0°C 61% 6.5 mph W10.5 kmh W 8.7 mph14.0 kmh 30.06 in1017.9 mb 0.00 in0.0 mm 0.00 in0.0 mm 0.00 in0.0 mm
02:18 PM 38.5°F3.6°C 26.6°F-3.0°C 61% 3.8 mph W6.1 kmh W 8.7 mph14.0 kmh 30.06 in1017.9 mb 0.00 in0.0 mm 0.00 in0.0 mm 0.00 in0.0 mm
02:17 PM 38.5°F3.6°C 26.6°F-3.0°C 61% 4.3 mph W6.9 kmh W 8.7 mph14.0 kmh 30.06 in1017.9 mb 0.00 in0.0 mm 0.00 in0.0 mm 0.00 in0.0 mm
02:16 PM 38.5°F3.6°C 26.6°F-3.0°C 60% 3.6 mph W5.8 kmh W 8.7 mph14.0 kmh 30.03 in1016.9 mb 0.00 in0.0 mm 0.00 in0.0 mm 0.00 in0.0 mm
02:15 PM 38.5°F3.6°C 26.6°F-3.0°C 60% 4.5 mph W7.2 kmh W 8.7 mph14.0 kmh 30.03 in1016.9 mb 0.00 in0.0 mm 0.00 in0.0 mm 0.00 in0.0 mm
02:14 PM 38.5°F3.6°C 26.6°F-3.0°C 60% 5.8 mph W9.3 kmh W 8.7 mph14.0 kmh 30.03 in1016.9 mb 0.00 in0.0 mm 0.00 in0.0 mm 0.00 in0.0 mm
02:13 PM 38.5°F3.6°C 26.6°F-3.0°C 60% 4.9 mph W7.9 kmh W 8.7 mph14.0 kmh 30.03 in1016.9 mb 0.00 in0.0 mm 0.00 in0.0 mm 0.00 in0.0 mm
02:12 PM 38.5°F3.6°C 26.6°F-3.0°C 60% 4.3 mph W6.9 kmh W 8.7 mph14.0 kmh 30.03 in1016.9 mb 0.00 in0.0 mm 0.00 in0.0 mm 0.00 in0.0 mm
02:11 PM 38.5°F3.6°C 26.6°F-3.0°C 60% 3.4 mph W5.5 kmh W 8.7 mph14.0 kmh 30.03 in1016.9 mb 0.00 in0.0 mm 0.00 in0.0 mm 0.00 in0.0 mm
02:10 PM 38.5°F3.6°C 26.6°F-3.0°C 60% 6.5 mph W10.5 kmh W 8.7 mph14.0 kmh 30.03 in1016.9 mb 0.00 in0.0 mm 0.00 in0.0 mm 0.00 in0.0 mm
02:09 PM 38.5°F3.6°C 26.6°F-3.0°C 60% 6.5 mph W10.5 kmh W 8.7 mph14.0 kmh 30.03 in1016.9 mb 0.00 in0.0 mm 0.00 in0.0 mm 0.00 in0.0 mm
02:08 PM 38.5°F3.6°C 26.6°F-3.0°C 60% 4.7 mph W7.6 kmh W 8.7 mph14.0 kmh 30.03 in1016.9 mb 0.00 in0.0 mm 0.00 in0.0 mm 0.00 in0.0 mm
02:07 PM 38.5°F3.6°C 26.6°F-3.0°C 60% 5.6 mph W9.0 kmh W 8.7 mph14.0 kmh 30.03 in1016.9 mb 0.00 in0.0 mm 0.00 in0.0 mm 0.00 in0.0 mm
02:06 PM 38.5°F3.6°C 26.6°F-3.0°C 60% 6.5 mph W10.5 kmh W 8.7 mph14.0 kmh 30.03 in1016.9 mb 0.00 in0.0 mm 0.00 in0.0 mm 0.00 in0.0 mm
02:05 PM 38.7°F3.7°C 26.6°F-3.0°C 60% 6.3 mph W10.1 kmh W 8.7 mph14.0 kmh 30.03 in1016.9 mb 0.00 in0.0 mm 0.00 in0.0 mm 0.00 in0.0 mm
02:04 PM 38.7°F3.7°C 26.6°F-3.0°C 60% 4.7 mph W7.6 kmh W 8.7 mph14.0 kmh 30.03 in1016.9 mb 0.00 in0.0 mm 0.00 in0.0 mm 0.00 in0.0 mm
02:03 PM 38.7°F3.7°C 26.6°F-3.0°C 60% 5.8 mph W9.3 kmh W 8.7 mph14.0 kmh 30.03 in1016.9 mb 0.00 in0.0 mm 0.00 in0.0 mm 0.00 in0.0 mm
02:02 PM 38.7°F3.7°C 26.6°F-3.0°C 60% 5.4 mph W8.7 kmh W 8.7 mph14.0 kmh 30.03 in1016.9 mb 0.00 in0.0 mm 0.00 in0.0 mm 0.00 in0.0 mm
02:01 PM 38.7°F3.7°C 26.6°F-3.0°C 60% 4.3 mph W6.9 kmh W 8.7 mph14.0 kmh 30.06 in1017.9 mb 0.00 in0.0 mm 0.00 in0.0 mm 0.00 in0.0 mm
02:00 PM 38.7°F3.7°C 26.6°F-3.0°C 60% 6.7 mph W10.8 kmh W 9.8 mph15.8 kmh 30.06 in1017.9 mb 0.00 in0.0 mm 0.00 in0.0 mm 0.00 in0.0 mm
01:59 PM 38.7°F3.7°C 26.6°F-3.0°C 60% 5.6 mph W9.0 kmh W 9.8 mph15.8 kmh 30.06 in1017.9 mb 0.00 in0.0 mm 0.00 in0.0 mm 0.00 in0.0 mm
01:58 PM 38.7°F3.7°C 26.6°F-3.0°C 60% 5.8 mph W9.3 kmh W 9.8 mph15.8 kmh 30.06 in1017.9 mb 0.00 in0.0 mm 0.00 in0.0 mm 0.00 in0.0 mm
01:57 PM 38.7°F3.7°C 26.6°F-3.0°C 60% 5.8 mph W9.3 kmh W 9.8 mph15.8 kmh 30.06 in1017.9 mb 0.00 in0.0 mm 0.00 in0.0 mm 0.00 in0.0 mm
01:56 PM 38.7°F3.7°C 26.6°F-3.0°C 60% 5.4 mph W8.7 kmh W 9.8 mph15.8 kmh 30.06 in1017.9 mb 0.00 in0.0 mm 0.00 in0.0 mm 0.00 in0.0 mm
01:55 PM 38.7°F3.7°C 26.6°F-3.0°C 60% 5.4 mph W8.7 kmh W 9.8 mph15.8 kmh 30.06 in1017.9 mb 0.00 in0.0 mm 0.00 in0.0 mm 0.00 in0.0 mm
01:54 PM 38.7°F3.7°C 26.6°F-3.0°C 60% 5.6 mph W9.0 kmh W 9.8 mph15.8 kmh 30.06 in1017.9 mb 0.00 in0.0 mm 0.00 in0.0 mm 0.00 in0.0 mm
01:53 PM 38.8°F3.8°C 26.6°F-3.0°C 60% 4.3 mph W6.9 kmh W 9.8 mph15.8 kmh 30.06 in1017.9 mb 0.00 in0.0 mm 0.00 in0.0 mm 0.00 in0.0 mm
01:52 PM 38.8°F3.8°C 26.6°F-3.0°C 60% 6.3 mph W10.1 kmh W 10.7 mph17.2 kmh 30.06 in1017.9 mb 0.00 in0.0 mm 0.00 in0.0 mm 0.00 in0.0 mm
01:51 PM 38.8°F3.8°C 26.6°F-3.0°C 60% 7.4 mph WSW11.9 kmh WSW 10.7 mph17.2 kmh 30.06 in1017.9 mb 0.00 in0.0 mm 0.00 in0.0 mm 0.00 in0.0 mm
01:50 PM 38.8°F3.8°C 26.6°F-3.0°C 60% 4.5 mph WSW7.2 kmh WSW 10.7 mph17.2 kmh 30.06 in1017.9 mb 0.00 in0.0 mm 0.00 in0.0 mm 0.00 in0.0 mm
01:49 PM 38.8°F3.8°C 26.6°F-3.0°C 60% 5.4 mph W8.7 kmh W 10.7 mph17.2 kmh 30.06 in1017.9 mb 0.00 in0.0 mm 0.00 in0.0 mm 0.00 in0.0 mm
01:48 PM 38.8°F3.8°C 26.6°F-3.0°C 60% 4.3 mph W6.9 kmh W 10.7 mph17.2 kmh 30.06 in1017.9 mb 0.00 in0.0 mm 0.00 in0.0 mm 0.00 in0.0 mm
01:47 PM 38.8°F3.8°C 26.6°F-3.0°C 60% 4.7 mph WSW7.6 kmh WSW 10.7 mph17.2 kmh 30.06 in1017.9 mb 0.00 in0.0 mm 0.00 in0.0 mm 0.00 in0.0 mm
01:46 PM 38.7°F3.7°C 26.6°F-3.0°C 59% 5.6 mph WSW9.0 kmh WSW 10.7 mph17.2 kmh 30.06 in1017.9 mb 0.00 in0.0 mm 0.00 in0.0 mm 0.00 in0.0 mm
01:45 PM 38.8°F3.8°C 26.6°F-3.0°C 59% 6.0 mph WSW9.7 kmh WSW 10.7 mph17.2 kmh 30.06 in1017.9 mb 0.00 in0.0 mm 0.00 in0.0 mm 0.00 in0.0 mm
01:44 PM 38.8°F3.8°C 26.6°F-3.0°C 60% 6.7 mph WSW10.8 kmh WSW 10.7 mph17.2 kmh 30.06 in1017.9 mb 0.00 in0.0 mm 0.00 in0.0 mm 0.00 in0.0 mm
01:43 PM 38.8°F3.8°C 26.6°F-3.0°C 60% 8.1 mph WSW13.0 kmh WSW 10.7 mph17.2 kmh 30.06 in1017.9 mb 0.00 in0.0 mm 0.00 in0.0 mm 0.00 in0.0 mm
01:42 PM 38.8°F3.8°C 26.6°F-3.0°C 60% 6.5 mph WSW10.5 kmh WSW 10.7 mph17.2 kmh 30.06 in1017.9 mb 0.00 in0.0 mm 0.00 in0.0 mm 0.00 in0.0 mm
01:41 PM 38.8°F3.8°C 26.6°F-3.0°C 60% 7.2 mph WSW11.6 kmh WSW 10.5 mph16.9 kmh 30.06 in1017.9 mb 0.00 in0.0 mm 0.00 in0.0 mm 0.00 in0.0 mm
01:40 PM 38.8°F3.8°C 26.6°F-3.0°C 60% 7.6 mph WSW12.2 kmh WSW 10.5 mph16.9 kmh 30.06 in1017.9 mb 0.00 in0.0 mm 0.00 in0.0 mm 0.00 in0.0 mm
01:39 PM 38.8°F3.8°C 26.6°F-3.0°C 60% 5.8 mph WSW9.3 kmh WSW 10.5 mph16.9 kmh 30.06 in1017.9 mb 0.00 in0.0 mm 0.00 in0.0 mm 0.00 in0.0 mm
01:38 PM 38.8°F3.8°C 26.6°F-3.0°C 60% 6.7 mph WSW10.8 kmh WSW 10.5 mph16.9 kmh 30.06 in1017.9 mb 0.00 in0.0 mm 0.00 in0.0 mm 0.00 in0.0 mm
01:37 PM 38.8°F3.8°C 26.6°F-3.0°C 60% 5.6 mph WSW9.0 kmh WSW 10.5 mph16.9 kmh 30.06 in1017.9 mb 0.00 in0.0 mm 0.00 in0.0 mm 0.00 in0.0 mm
01:36 PM 39.0°F3.9°C 26.6°F-3.0°C 60% 7.2 mph WSW11.6 kmh WSW 11.0 mph17.7 kmh 30.06 in1017.9 mb 0.00 in0.0 mm 0.00 in0.0 mm 0.00 in0.0 mm
01:35 PM 39.0°F3.9°C 26.6°F-3.0°C 60% 6.5 mph WSW10.5 kmh WSW 11.0 mph17.7 kmh 30.06 in1017.9 mb 0.00 in0.0 mm 0.00 in0.0 mm 0.00 in0.0 mm
01:34 PM 39.0°F3.9°C 26.6°F-3.0°C 60% 6.0 mph WSW9.7 kmh WSW 11.0 mph17.7 kmh 30.06 in1017.9 mb 0.00 in0.0 mm 0.00 in0.0 mm 0.00 in0.0 mm
01:33 PM 39.0°F3.9°C 26.6°F-3.0°C 60% 8.1 mph WSW13.0 kmh WSW 11.0 mph17.7 kmh 30.06 in1017.9 mb 0.00 in0.0 mm 0.00 in0.0 mm 0.00 in0.0 mm
01:32 PM 39.2°F4.0°C 26.6°F-3.0°C 60% 7.4 mph WSW11.9 kmh WSW 11.0 mph17.7 kmh 30.06 in1017.9 mb 0.00 in0.0 mm 0.00 in0.0 mm 0.00 in0.0 mm
01:31 PM 39.2°F4.0°C 26.6°F-3.0°C 60% 5.8 mph WSW9.3 kmh WSW 11.0 mph17.7 kmh 30.06 in1017.9 mb 0.00 in0.0 mm 0.00 in0.0 mm 0.00 in0.0 mm
01:30 PM 39.2°F4.0°C 26.6°F-3.0°C 60% 7.6 mph WSW12.2 kmh WSW 11.0 mph17.7 kmh 30.06 in1017.9 mb 0.00 in0.0 mm 0.00 in0.0 mm 0.00 in0.0 mm
01:29 PM 39.2°F4.0°C 26.6°F-3.0°C 60% 6.3 mph WSW10.1 kmh WSW 11.0 mph17.7 kmh 30.06 in1017.9 mb 0.00 in0.0 mm 0.00 in0.0 mm 0.00 in0.0 mm
01:28 PM 39.2°F4.0°C 26.6°F-3.0°C 60% 7.6 mph WSW12.2 kmh WSW 11.0 mph17.7 kmh 30.06 in1017.9 mb 0.00 in0.0 mm 0.00 in0.0 mm 0.00 in0.0 mm
01:27 PM 39.2°F4.0°C 26.6°F-3.0°C 59% 9.2 mph WSW14.8 kmh WSW 11.0 mph17.7 kmh 30.06 in1017.9 mb 0.00 in0.0 mm 0.00 in0.0 mm 0.00 in0.0 mm
01:26 PM 39.4°F4.1°C 26.6°F-3.0°C 59% 6.7 mph WSW10.8 kmh WSW 11.0 mph17.7 kmh 30.06 in1017.9 mb 0.00 in0.0 mm 0.00 in0.0 mm 0.00 in0.0 mm
01:25 PM 39.4°F4.1°C 26.6°F-3.0°C 59% 8.7 mph WSW14.0 kmh WSW 11.0 mph17.7 kmh 30.06 in1017.9 mb 0.00 in0.0 mm 0.00 in0.0 mm 0.00 in0.0 mm
01:24 PM 39.4°F4.1°C 26.6°F-3.0°C 59% 9.4 mph WSW15.1 kmh WSW 11.0 mph17.7 kmh 30.06 in1017.9 mb 0.00 in0.0 mm 0.00 in0.0 mm 0.00 in0.0 mm
01:23 PM 39.4°F4.1°C 26.6°F-3.0°C 59% 6.9 mph WSW11.1 kmh WSW 10.7 mph17.2 kmh 30.06 in1017.9 mb 0.00 in0.0 mm 0.00 in0.0 mm 0.00 in0.0 mm
01:22 PM 39.4°F4.1°C 26.6°F-3.0°C 60% 6.3 mph WSW10.1 kmh WSW 10.7 mph17.2 kmh 30.06 in1017.9 mb 0.00 in0.0 mm 0.00 in0.0 mm 0.00 in0.0 mm
01:21 PM 39.4°F4.1°C 26.6°F-3.0°C 60% 6.0 mph WSW9.7 kmh WSW 10.7 mph17.2 kmh 30.06 in1017.9 mb 0.00 in0.0 mm 0.00 in0.0 mm 0.00 in0.0 mm
01:20 PM 39.4°F4.1°C 26.6°F-3.0°C 59% 8.1 mph WSW13.0 kmh WSW 10.7 mph17.2 kmh 30.06 in1017.9 mb 0.00 in0.0 mm 0.00 in0.0 mm 0.00 in0.0 mm
01:19 PM 39.4°F4.1°C 26.6°F-3.0°C 59% 7.8 mph WSW12.6 kmh WSW 10.7 mph17.2 kmh 30.06 in1017.9 mb 0.00 in0.0 mm 0.00 in0.0 mm 0.00 in0.0 mm
01:18 PM 39.6°F4.2°C 26.6°F-3.0°C 60% 9.2 mph WSW14.8 kmh WSW 12.8 mph20.6 kmh 30.06 in1017.9 mb 0.00 in0.0 mm 0.00 in0.0 mm 0.00 in0.0 mm
01:17 PM 39.6°F4.2°C 26.6°F-3.0°C 60% 6.9 mph WSW11.1 kmh WSW 12.8 mph20.6 kmh 30.06 in1017.9 mb 0.00 in0.0 mm 0.00 in0.0 mm 0.00 in0.0 mm
01:16 PM 39.4°F4.1°C 26.6°F-3.0°C 60% 7.2 mph WSW11.6 kmh WSW 12.8 mph20.6 kmh 30.06 in1017.9 mb 0.00 in0.0 mm 0.00 in0.0 mm 0.00 in0.0 mm
01:15 PM 39.4°F4.1°C 26.6°F-3.0°C 59% 6.0 mph WSW9.7 kmh WSW 12.8 mph20.6 kmh 30.06 in1017.9 mb 0.00 in0.0 mm 0.00 in0.0 mm 0.00 in0.0 mm
01:14 PM 39.4°F4.1°C 26.6°F-3.0°C 59% 6.0 mph WSW9.7 kmh WSW 12.8 mph20.6 kmh 30.06 in1017.9 mb 0.00 in0.0 mm 0.00 in0.0 mm 0.00 in0.0 mm
01:13 PM 39.4°F4.1°C 26.6°F-3.0°C 59% 7.2 mph WSW11.6 kmh WSW 12.8 mph20.6 kmh 30.06 in1017.9 mb 0.00 in0.0 mm 0.00 in0.0 mm 0.00 in0.0 mm
01:12 PM 39.4°F4.1°C 26.6°F-3.0°C 59% 6.7 mph WSW10.8 kmh WSW 12.8 mph20.6 kmh 30.06 in1017.9 mb 0.00 in0.0 mm 0.00 in0.0 mm 0.00 in0.0 mm
01:11 PM 39.4°F4.1°C 26.6°F-3.0°C 59% 7.6 mph WSW12.2 kmh WSW 12.8 mph20.6 kmh 30.06 in1017.9 mb 0.00 in0.0 mm 0.00 in0.0 mm 0.00 in0.0 mm
01:10 PM 39.4°F4.1°C 26.6°F-3.0°C 59% 8.5 mph WSW13.7 kmh WSW 12.8 mph20.6 kmh 30.06 in1017.9 mb 0.00 in0.0 mm 0.00 in0.0 mm 0.00 in0.0 mm
01:09 PM 39.6°F4.2°C 26.6°F-3.0°C 59% 9.4 mph WSW15.1 kmh WSW 12.8 mph20.6 kmh 30.06 in1017.9 mb 0.00 in0.0 mm 0.00 in0.0 mm 0.00 in0.0 mm
01:08 PM 39.6°F4.2°C 26.6°F-3.0°C 59% 7.4 mph W11.9 kmh W 10.7 mph17.2 kmh 30.06 in1017.9 mb 0.00 in0.0 mm 0.00 in0.0 mm 0.00 in0.0 mm
01:07 PM 39.6°F4.2°C 26.6°F-3.0°C 60% 9.2 mph W14.8 kmh W 10.7 mph17.2 kmh 30.06 in1017.9 mb 0.00 in0.0 mm 0.00 in0.0 mm 0.00 in0.0 mm
01:06 PM 39.6°F4.2°C 26.6°F-3.0°C 60% 6.7 mph W10.8 kmh W 10.7 mph17.2 kmh 30.06 in1017.9 mb 0.00 in0.0 mm 0.00 in0.0 mm 0.00 in0.0 mm
01:05 PM 39.6°F4.2°C 26.6°F-3.0°C 60% 6.3 mph W10.1 kmh W 10.7 mph17.2 kmh 30.06 in1017.9 mb 0.00 in0.0 mm 0.00 in0.0 mm 0.00 in0.0 mm
01:04 PM 39.6°F4.2°C 26.6°F-3.0°C 60% 5.4 mph W8.7 kmh W 10.7 mph17.2 kmh 30.06 in1017.9 mb 0.00 in0.0 mm 0.00 in0.0 mm 0.00 in0.0 mm
01:03 PM 39.6°F4.2°C 26.6°F-3.0°C 60% 6.3 mph W10.1 kmh W 10.7 mph17.2 kmh 30.06 in1017.9 mb 0.00 in0.0 mm 0.00 in0.0 mm 0.00 in0.0 mm
01:02 PM 39.6°F4.2°C 26.6°F-3.0°C 60% 6.9 mph W11.1 kmh W 10.7 mph17.2 kmh 30.06 in1017.9 mb 0.00 in0.0 mm 0.00 in0.0 mm 0.00 in0.0 mm
01:01 PM 39.6°F4.2°C 26.6°F-3.0°C 60% 5.4 mph W8.7 kmh W 10.7 mph17.2 kmh 30.03 in1016.9 mb 0.00 in0.0 mm 0.00 in0.0 mm 0.00 in0.0 mm
01:00 PM 39.6°F4.2°C 26.6°F-3.0°C 61% 5.8 mph W9.3 kmh W 8.1 mph13.0 kmh 30.03 in1016.9 mb 0.00 in0.0 mm 0.00 in0.0 mm 0.00 in0.0 mm
12:59 PM 39.6°F4.2°C 26.6°F-3.0°C 60% 4.9 mph W7.9 kmh W 8.1 mph13.0 kmh 30.03 in1016.9 mb 0.00 in0.0 mm 0.00 in0.0 mm 0.00 in0.0 mm
12:58 PM 39.6°F4.2°C 26.6°F-3.0°C 61% 6.0 mph W9.7 kmh W 10.7 mph17.2 kmh 30.03 in1016.9 mb 0.00 in0.0 mm 0.00 in0.0 mm 0.00 in0.0 mm
12:57 PM 39.6°F4.2°C 26.6°F-3.0°C 61% 5.8 mph W9.3 kmh W 10.7 mph17.2 kmh 30.03 in1016.9 mb 0.00 in0.0 mm 0.00 in0.0 mm 0.00 in0.0 mm
12:56 PM 39.6°F4.2°C 26.6°F-3.0°C 61% 3.1 mph W5.0 kmh W 10.7 mph17.2 kmh 30.03 in1016.9 mb 0.00 in0.0 mm 0.00 in0.0 mm 0.00 in0.0 mm
12:55 PM 39.6°F4.2°C 26.6°F-3.0°C 60% 5.8 mph W9.3 kmh W 12.3 mph19.8 kmh 30.03 in1016.9 mb 0.00 in0.0 mm 0.00 in0.0 mm 0.00 in0.0 mm
12:54 PM 39.6°F4.2°C 26.6°F-3.0°C 61% 5.8 mph W9.3 kmh W 12.3 mph19.8 kmh 30.03 in1016.9 mb 0.00 in0.0 mm 0.00 in0.0 mm 0.00 in0.0 mm
12:53 PM 39.6°F4.2°C 26.6°F-3.0°C 61% 4.0 mph W6.4 kmh W 12.3 mph19.8 kmh 30.03 in1016.9 mb 0.00 in0.0 mm 0.00 in0.0 mm 0.00 in0.0 mm
12:52 PM 39.6°F4.2°C 26.6°F-3.0°C 61% 5.4 mph W8.7 kmh W 12.3 mph19.8 kmh 30.03 in1016.9 mb 0.00 in0.0 mm 0.00 in0.0 mm 0.00 in0.0 mm
12:51 PM 39.7°F4.3°C 26.6°F-3.0°C 61% 4.9 mph W7.9 kmh W 12.3 mph19.8 kmh 30.03 in1016.9 mb 0.00 in0.0 mm 0.00 in0.0 mm 0.00 in0.0 mm
12:50 PM 39.7°F4.3°C 26.6°F-3.0°C 61% 4.9 mph W7.9 kmh W 12.3 mph19.8 kmh 30.03 in1016.9 mb 0.00 in0.0 mm 0.00 in0.0 mm 0.00 in0.0 mm
12:49 PM 39.7°F4.3°C 26.6°F-3.0°C 61% 8.1 mph W13.0 kmh W 12.3 mph19.8 kmh 30.03 in1016.9 mb 0.00 in0.0 mm 0.00 in0.0 mm 0.00 in0.0 mm
12:48 PM 39.7°F4.3°C 26.6°F-3.0°C 61% 6.5 mph W10.5 kmh W 12.3 mph19.8 kmh 30.03 in1016.9 mb 0.00 in0.0 mm 0.00 in0.0 mm 0.00 in0.0 mm
12:47 PM 39.7°F4.3°C 26.6°F-3.0°C 60% 7.4 mph W11.9 kmh W 12.3 mph19.8 kmh 30.03 in1016.9 mb 0.00 in0.0 mm 0.00 in0.0 mm 0.00 in0.0 mm
12:46 PM 39.7°F4.3°C 26.6°F-3.0°C 60% 7.8 mph W12.6 kmh W 12.3 mph19.8 kmh 30.06 in1017.9 mb 0.00 in0.0 mm 0.00 in0.0 mm 0.00 in0.0 mm
12:45 PM 39.7°F4.3°C 26.6°F-3.0°C 61% 5.8 mph W9.3 kmh W 9.2 mph14.8 kmh 30.06 in1017.9 mb 0.00 in0.0 mm 0.00 in0.0 mm 0.00 in0.0 mm
12:44 PM 39.7°F4.3°C 26.6°F-3.0°C 61% 4.3 mph WSW6.9 kmh WSW 9.2 mph14.8 kmh 30.06 in1017.9 mb 0.00 in0.0 mm 0.00 in0.0 mm 0.00 in0.0 mm
12:43 PM 39.9°F4.4°C 26.6°F-3.0°C 61% 6.0 mph WSW9.7 kmh WSW 8.1 mph13.0 kmh 30.06 in1017.9 mb 0.00 in0.0 mm 0.00 in0.0 mm 0.00 in0.0 mm
12:42 PM 39.9°F4.4°C 26.6°F-3.0°C 61% 4.3 mph WSW6.9 kmh WSW 8.1 mph13.0 kmh 30.06 in1017.9 mb 0.00 in0.0 mm 0.00 in0.0 mm 0.00 in0.0 mm
12:41 PM 39.9°F4.4°C 26.6°F-3.0°C 61% 4.7 mph WSW7.6 kmh WSW 8.1 mph13.0 kmh 30.06 in1017.9 mb 0.00 in0.0 mm 0.00 in0.0 mm 0.00 in0.0 mm
12:40 PM 39.9°F4.4°C 26.6°F-3.0°C 61% 4.9 mph WSW7.9 kmh WSW 8.1 mph13.0 kmh 30.06 in1017.9 mb 0.00 in0.0 mm 0.00 in0.0 mm 0.00 in0.0 mm
12:39 PM 39.9°F4.4°C 26.6°F-3.0°C 61% 5.8 mph WSW9.3 kmh WSW 8.1 mph13.0 kmh 30.06 in1017.9 mb 0.00 in0.0 mm 0.00 in0.0 mm 0.00 in0.0 mm
12:38 PM 40.1°F4.5°C 28.4°F-2.0°C 61% 4.5 mph WSW7.2 kmh WSW 8.1 mph13.0 kmh 30.06 in1017.9 mb 0.00 in0.0 mm 0.00 in0.0 mm 0.00 in0.0 mm
12:37 PM 40.1°F4.5°C 28.4°F-2.0°C 61% 6.0 mph WSW9.7 kmh WSW 8.1 mph13.0 kmh 30.06 in1017.9 mb 0.00 in0.0 mm 0.00 in0.0 mm 0.00 in0.0 mm
12:36 PM 40.1°F4.5°C 28.4°F-2.0°C 61% 6.5 mph WSW10.5 kmh WSW 9.6 mph15.4 kmh 30.06 in1017.9 mb 0.00 in0.0 mm 0.00 in0.0 mm 0.00 in0.0 mm
12:35 PM 40.1°F4.5°C 28.4°F-2.0°C 61% 6.0 mph WSW9.7 kmh WSW 9.6 mph15.4 kmh 30.06 in1017.9 mb 0.00 in0.0 mm 0.00 in0.0 mm 0.00 in0.0 mm
12:34 PM 40.1°F4.5°C 28.4°F-2.0°C 61% 4.9 mph W7.9 kmh W 10.1 mph16.3 kmh 30.06 in1017.9 mb 0.00 in0.0 mm 0.00 in0.0 mm 0.00 in0.0 mm
12:33 PM 40.1°F4.5°C 28.4°F-2.0°C 61% 5.6 mph W9.0 kmh W 10.5 mph16.9 kmh 30.06 in1017.9 mb 0.00 in0.0 mm 0.00 in0.0 mm 0.00 in0.0 mm
12:32 PM 40.1°F4.5°C 28.4°F-2.0°C 61% 5.6 mph WSW9.0 kmh WSW 11.0 mph17.7 kmh 30.06 in1017.9 mb 0.00 in0.0 mm 0.00 in0.0 mm 0.00 in0.0 mm
12:31 PM 40.1°F4.5°C 28.4°F-2.0°C 61% 4.7 mph WSW7.6 kmh WSW 11.0 mph17.7 kmh 30.03 in1016.9 mb 0.00 in0.0 mm 0.00 in0.0 mm 0.00 in0.0 mm
12:30 PM 40.1°F4.5°C 28.4°F-2.0°C 61% 4.9 mph WSW7.9 kmh WSW 11.0 mph17.7 kmh 30.03 in1016.9 mb 0.00 in0.0 mm 0.00 in0.0 mm 0.00 in0.0 mm
12:29 PM 40.1°F4.5°C 28.4°F-2.0°C 61% 7.2 mph WSW11.6 kmh WSW 11.0 mph17.7 kmh 30.03 in1016.9 mb 0.00 in0.0 mm 0.00 in0.0 mm 0.00 in0.0 mm
12:28 PM 40.1°F4.5°C 28.4°F-2.0°C 61% 6.0 mph WSW9.7 kmh WSW 11.0 mph17.7 kmh 30.03 in1016.9 mb 0.00 in0.0 mm 0.00 in0.0 mm 0.00 in0.0 mm
12:27 PM 40.1°F4.5°C 28.4°F-2.0°C 61% 8.9 mph WSW14.3 kmh WSW 11.0 mph17.7 kmh 30.03 in1016.9 mb 0.00 in0.0 mm 0.00 in0.0 mm 0.00 in0.0 mm
12:26 PM 40.1°F4.5°C 28.4°F-2.0°C 61% 6.5 mph WSW10.5 kmh WSW 11.0 mph17.7 kmh 30.03 in1016.9 mb 0.00 in0.0 mm 0.00 in0.0 mm 0.00 in0.0 mm
12:25 PM 40.1°F4.5°C 28.4°F-2.0°C 60% 6.5 mph WSW10.5 kmh WSW 11.0 mph17.7 kmh 30.03 in1016.9 mb 0.00 in0.0 mm 0.00 in0.0 mm 0.00 in0.0 mm
12:24 PM 40.1°F4.5°C 28.4°F-2.0°C 60% 8.7 mph WSW14.0 kmh WSW 11.0 mph17.7 kmh 30.03 in1016.9 mb 0.00 in0.0 mm 0.00 in0.0 mm 0.00 in0.0 mm
12:23 PM 40.1°F4.5°C 28.4°F-2.0°C 60% 9.2 mph WSW14.8 kmh WSW 11.0 mph17.7 kmh 30.03 in1016.9 mb 0.00 in0.0 mm 0.00 in0.0 mm 0.00 in0.0 mm
12:22 PM 40.1°F4.5°C 28.4°F-2.0°C 60% 8.7 mph WSW14.0 kmh WSW 10.7 mph17.2 kmh 30.03 in1016.9 mb 0.00 in0.0 mm 0.00 in0.0 mm 0.00 in0.0 mm
12:21 PM 40.1°F4.5°C 28.4°F-2.0°C 60% 8.7 mph WSW14.0 kmh WSW 10.7 mph17.2 kmh 30.03 in1016.9 mb 0.00 in0.0 mm 0.00 in0.0 mm 0.00 in0.0 mm
12:20 PM 40.1°F4.5°C 28.4°F-2.0°C 60% 7.4 mph WSW11.9 kmh WSW 10.7 mph17.2 kmh 30.03 in1016.9 mb 0.00 in0.0 mm 0.00 in0.0 mm 0.00 in0.0 mm
12:19 PM 40.1°F4.5°C 28.4°F-2.0°C 60% 6.9 mph WSW11.1 kmh WSW 10.7 mph17.2 kmh 30.03 in1016.9 mb 0.00 in0.0 mm 0.00 in0.0 mm 0.00 in0.0 mm
12:18 PM 40.1°F4.5°C 28.4°F-2.0°C 60% 7.8 mph WSW12.6 kmh WSW 10.1 mph16.3 kmh 30.03 in1016.9 mb 0.00 in0.0 mm 0.00 in0.0 mm 0.00 in0.0 mm
12:17 PM 40.1°F4.5°C 28.4°F-2.0°C 60% 8.5 mph WSW13.7 kmh WSW 10.1 mph16.3 kmh 30.03 in1016.9 mb 0.00 in0.0 mm 0.00 in0.0 mm 0.00 in0.0 mm
12:16 PM 40.1°F4.5°C 26.6°F-3.0°C 59% 8.9 mph WSW14.3 kmh WSW 10.1 mph16.3 kmh 30.06 in1017.9 mb 0.00 in0.0 mm 0.00 in0.0 mm 0.00 in0.0 mm
12:15 PM 40.1°F4.5°C 26.6°F-3.0°C 59% 7.8 mph WSW12.6 kmh WSW 9.6 mph15.4 kmh 30.06 in1017.9 mb 0.00 in0.0 mm 0.00 in0.0 mm 0.00 in0.0 mm
12:14 PM 40.1°F4.5°C 26.6°F-3.0°C 59% 6.0 mph WSW9.7 kmh WSW 9.6 mph15.4 kmh 30.06 in1017.9 mb 0.00 in0.0 mm 0.00 in0.0 mm 0.00 in0.0 mm
12:13 PM 40.1°F4.5°C 26.6°F-3.0°C 59% 6.5 mph WSW10.5 kmh WSW 8.5 mph13.7 kmh 30.06 in1017.9 mb 0.00 in0.0 mm 0.00 in0.0 mm 0.00 in0.0 mm
12:12 PM 40.1°F4.5°C 26.6°F-3.0°C 59% 6.3 mph WSW10.1 kmh WSW 8.5 mph13.7 kmh 30.06 in1017.9 mb 0.00 in0.0 mm 0.00 in0.0 mm 0.00 in0.0 mm
12:11 PM 40.1°F4.5°C 26.6°F-3.0°C 59% 4.9 mph WSW7.9 kmh WSW 8.5 mph13.7 kmh 30.06 in1017.9 mb 0.00 in0.0 mm 0.00 in0.0 mm 0.00 in0.0 mm
12:10 PM 40.1°F4.5°C 26.6°F-3.0°C 59% 4.7 mph WSW7.6 kmh WSW 8.5 mph13.7 kmh 30.06 in1017.9 mb 0.00 in0.0 mm 0.00 in0.0 mm 0.00 in0.0 mm
12:09 PM 40.1°F4.5°C 26.6°F-3.0°C 59% 7.8 mph WSW12.6 kmh WSW 8.5 mph13.7 kmh 30.06 in1017.9 mb 0.00 in0.0 mm 0.00 in0.0 mm 0.00 in0.0 mm
12:08 PM 40.1°F4.5°C 26.6°F-3.0°C 59% 6.3 mph W10.1 kmh W 7.8 mph12.6 kmh 30.06 in1017.9 mb 0.00 in0.0 mm 0.00 in0.0 mm 0.00 in0.0 mm
12:07 PM 40.3°F4.6°C 26.6°F-3.0°C 59% 6.3 mph W10.1 kmh W 7.8 mph12.6 kmh 30.06 in1017.9 mb 0.00 in0.0 mm 0.00 in0.0 mm 0.00 in0.0 mm
12:06 PM 40.3°F4.6°C 26.6°F-3.0°C 59% 6.9 mph W11.1 kmh W 7.8 mph12.6 kmh 30.06 in1017.9 mb 0.00 in0.0 mm 0.00 in0.0 mm 0.00 in0.0 mm
12:05 PM 40.3°F4.6°C 26.6°F-3.0°C 59% 5.6 mph W9.0 kmh W 7.8 mph12.6 kmh 30.06 in1017.9 mb 0.00 in0.0 mm 0.00 in0.0 mm 0.00 in0.0 mm
12:04 PM 40.3°F4.6°C 26.6°F-3.0°C 59% 4.7 mph W7.6 kmh W 7.2 mph11.6 kmh 30.06 in1017.9 mb 0.00 in0.0 mm 0.00 in0.0 mm 0.00 in0.0 mm
12:03 PM 40.3°F4.6°C 26.6°F-3.0°C 59% 5.6 mph W9.0 kmh W 7.2 mph11.6 kmh 30.06 in1017.9 mb 0.00 in0.0 mm 0.00 in0.0 mm 0.00 in0.0 mm
12:02 PM 40.3°F4.6°C 26.6°F-3.0°C 59% 5.4 mph W8.7 kmh W 6.5 mph10.5 kmh 30.06 in1017.9 mb 0.00 in0.0 mm 0.00 in0.0 mm 0.00 in0.0 mm
12:01 PM 40.3°F4.6°C 26.6°F-3.0°C 59% 4.7 mph W7.6 kmh W 6.5 mph10.5 kmh 30.06 in1017.9 mb 0.00 in0.0 mm 0.00 in0.0 mm 0.00 in0.0 mm
12:00 PM 40.3°F4.6°C 26.6°F-3.0°C 59% 4.9 mph W7.9 kmh W 6.5 mph10.5 kmh 30.06 in1017.9 mb 0.00 in0.0 mm 0.00 in0.0 mm 0.00 in0.0 mm
11:59 AM 40.3°F4.6°C 26.6°F-3.0°C 59% 6.0 mph WSW9.7 kmh WSW 7.6 mph12.2 kmh 30.06 in1017.9 mb 0.00 in0.0 mm 0.00 in0.0 mm 0.00 in0.0 mm
11:58 AM 40.3°F4.6°C 26.6°F-3.0°C 59% 4.3 mph W6.9 kmh W 7.6 mph12.2 kmh 30.06 in1017.9 mb 0.00 in0.0 mm 0.00 in0.0 mm 0.00 in0.0 mm
11:57 AM 40.3°F4.6°C 26.6°F-3.0°C 59% 3.8 mph W6.1 kmh W 7.6 mph12.2 kmh 30.06 in1017.9 mb 0.00 in0.0 mm 0.00 in0.0 mm 0.00 in0.0 mm
11:56 AM 40.3°F4.6°C 26.6°F-3.0°C 59% 3.1 mph W5.0 kmh W 7.6 mph12.2 kmh 30.06 in1017.9 mb 0.00 in0.0 mm 0.00 in0.0 mm 0.00 in0.0 mm
11:55 AM 40.3°F4.6°C 26.6°F-3.0°C 59% 3.8 mph WSW6.1 kmh WSW 7.6 mph12.2 kmh 30.06 in1017.9 mb 0.00 in0.0 mm 0.00 in0.0 mm 0.00 in0.0 mm
11:54 AM 40.3°F4.6°C 26.6°F-3.0°C 59% 4.5 mph WSW7.2 kmh WSW 7.6 mph12.2 kmh 30.06 in1017.9 mb 0.00 in0.0 mm 0.00 in0.0 mm 0.00 in0.0 mm
11:53 AM 40.3°F4.6°C 26.6°F-3.0°C 59% 4.0 mph WSW6.4 kmh WSW 7.6 mph12.2 kmh 30.06 in1017.9 mb 0.00 in0.0 mm 0.00 in0.0 mm 0.00 in0.0 mm
11:52 AM 40.5°F4.7°C 26.6°F-3.0°C 59% 4.9 mph WSW7.9 kmh WSW 7.6 mph12.2 kmh 30.06 in1017.9 mb 0.00 in0.0 mm 0.00 in0.0 mm 0.00 in0.0 mm
11:51 AM 40.5°F4.7°C 26.6°F-3.0°C 59% 5.8 mph WSW9.3 kmh WSW 7.6 mph12.2 kmh 30.06 in1017.9 mb 0.00 in0.0 mm 0.00 in0.0 mm 0.00 in0.0 mm
11:50 AM 40.5°F4.7°C 26.6°F-3.0°C 59% 6.7 mph W10.8 kmh W 7.6 mph12.2 kmh 30.06 in1017.9 mb 0.00 in0.0 mm 0.00 in0.0 mm 0.00 in0.0 mm
11:49 AM 40.5°F4.7°C 26.6°F-3.0°C 59% 4.3 mph W6.9 kmh W 7.6 mph12.2 kmh 30.06 in1017.9 mb 0.00 in0.0 mm 0.00 in0.0 mm 0.00 in0.0 mm
11:48 AM 40.3°F4.6°C 28.4°F-2.0°C 60% 4.9 mph WSW7.9 kmh WSW 7.8 mph12.6 kmh 30.06 in1017.9 mb 0.00 in0.0 mm 0.00 in0.0 mm 0.00 in0.0 mm
11:47 AM 40.3°F4.6°C 26.6°F-3.0°C 59% 4.5 mph WSW7.2 kmh WSW 8.5 mph13.7 kmh 30.06 in1017.9 mb 0.00 in0.0 mm 0.00 in0.0 mm 0.00 in0.0 mm
11:46 AM 40.3°F4.6°C 26.6°F-3.0°C 59% 3.4 mph WSW5.5 kmh WSW 8.5 mph13.7 kmh 30.09 in1019.0 mb 0.00 in0.0 mm 0.00 in0.0 mm 0.00 in0.0 mm
11:45 AM 40.3°F4.6°C 26.6°F-3.0°C 59% 5.4 mph WSW8.7 kmh WSW 8.5 mph13.7 kmh 30.09 in1019.0 mb 0.00 in0.0 mm 0.00 in0.0 mm 0.00 in0.0 mm
11:44 AM 40.3°F4.6°C 26.6°F-3.0°C 59% 4.5 mph WSW7.2 kmh WSW 8.5 mph13.7 kmh 30.09 in1019.0 mb 0.00 in0.0 mm 0.00 in0.0 mm 0.00 in0.0 mm
11:43 AM 40.1°F4.5°C 26.6°F-3.0°C 59% 3.8 mph WSW6.1 kmh WSW 8.5 mph13.7 kmh 30.09 in1019.0 mb 0.00 in0.0 mm 0.00 in0.0 mm 0.00 in0.0 mm
11:42 AM 40.1°F4.5°C 26.6°F-3.0°C 59% 3.6 mph WSW5.8 kmh WSW 8.5 mph13.7 kmh 30.09 in1019.0 mb 0.00 in0.0 mm 0.00 in0.0 mm 0.00 in0.0 mm
11:41 AM 40.1°F4.5°C 26.6°F-3.0°C 59% 4.7 mph WSW7.6 kmh WSW 8.5 mph13.7 kmh 30.09 in1019.0 mb 0.00 in0.0 mm 0.00 in0.0 mm 0.00 in0.0 mm
11:40 AM 40.1°F4.5°C 26.6°F-3.0°C 59% 6.3 mph WSW10.1 kmh WSW 8.5 mph13.7 kmh 30.09 in1019.0 mb 0.00 in0.0 mm 0.00 in0.0 mm 0.00 in0.0 mm
11:39 AM 40.1°F4.5°C 26.6°F-3.0°C 59% 5.8 mph WSW9.3 kmh WSW 8.5 mph13.7 kmh 30.09 in1019.0 mb 0.00 in0.0 mm 0.00 in0.0 mm 0.00 in0.0 mm
11:38 AM 39.9°F4.4°C 26.6°F-3.0°C 59% 6.3 mph WSW10.1 kmh WSW 8.5 mph13.7 kmh 30.09 in1019.0 mb 0.00 in0.0 mm 0.00 in0.0 mm 0.00 in0.0 mm
11:37 AM 39.9°F4.4°C 26.6°F-3.0°C 59% 5.8 mph WSW9.3 kmh WSW 8.7 mph14.0 kmh 30.09 in1019.0 mb 0.00 in0.0 mm 0.00 in0.0 mm 0.00 in0.0 mm
11:36 AM 39.9°F4.4°C 26.6°F-3.0°C 59% 5.4 mph WSW8.7 kmh WSW 9.8 mph15.8 kmh 30.09 in1019.0 mb 0.00 in0.0 mm 0.00 in0.0 mm 0.00 in0.0 mm
11:35 AM 39.9°F4.4°C 26.6°F-3.0°C 59% 5.6 mph WSW9.0 kmh WSW 9.8 mph15.8 kmh 30.09 in1019.0 mb 0.00 in0.0 mm 0.00 in0.0 mm 0.00 in0.0 mm
11:34 AM 39.9°F4.4°C 26.6°F-3.0°C 59% 5.6 mph WSW9.0 kmh WSW 9.8 mph15.8 kmh 30.09 in1019.0 mb 0.00 in0.0 mm 0.00 in0.0 mm 0.00 in0.0 mm
11:33 AM 39.9°F4.4°C 26.6°F-3.0°C 59% 4.0 mph WSW6.4 kmh WSW 9.8 mph15.8 kmh 30.09 in1019.0 mb 0.00 in0.0 mm 0.00 in0.0 mm 0.00 in0.0 mm
11:32 AM 39.9°F4.4°C 26.6°F-3.0°C 59% 5.4 mph WSW8.7 kmh WSW 9.8 mph15.8 kmh 30.09 in1019.0 mb 0.00 in0.0 mm 0.00 in0.0 mm 0.00 in0.0 mm
11:31 AM 39.9°F4.4°C 26.6°F-3.0°C 59% 6.3 mph WSW10.1 kmh WSW 9.8 mph15.8 kmh 30.06 in1017.9 mb 0.00 in0.0 mm 0.00 in0.0 mm 0.00 in0.0 mm
11:30 AM 39.9°F4.4°C 26.6°F-3.0°C 59% 6.3 mph WSW10.1 kmh WSW 9.8 mph15.8 kmh 30.06 in1017.9 mb 0.00 in0.0 mm 0.00 in0.0 mm 0.00 in0.0 mm
11:29 AM 39.9°F4.4°C 26.6°F-3.0°C 59% 6.7 mph WSW10.8 kmh WSW 9.8 mph15.8 kmh 30.06 in1017.9 mb 0.00 in0.0 mm 0.00 in0.0 mm 0.00 in0.0 mm
11:28 AM 39.9°F4.4°C 26.6°F-3.0°C 59% 6.9 mph WSW11.1 kmh WSW 9.8 mph15.8 kmh 30.06 in1017.9 mb 0.00 in0.0 mm 0.00 in0.0 mm 0.00 in0.0 mm
11:27 AM 39.9°F4.4°C 26.6°F-3.0°C 59% 7.4 mph WSW11.9 kmh WSW 9.8 mph15.8 kmh 30.06 in1017.9 mb 0.00 in0.0 mm 0.00 in0.0 mm 0.00 in0.0 mm
11:26 AM 39.9°F4.4°C 26.6°F-3.0°C 59% 7.4 mph WSW11.9 kmh WSW 9.8 mph15.8 kmh 30.06 in1017.9 mb 0.00 in0.0 mm 0.00 in0.0 mm 0.00 in0.0 mm
11:25 AM 39.9°F4.4°C 26.6°F-3.0°C 59% 7.4 mph WSW11.9 kmh WSW 9.8 mph15.8 kmh 30.06 in1017.9 mb 0.00 in0.0 mm 0.00 in0.0 mm 0.00 in0.0 mm
11:24 AM 40.1°F4.5°C 28.4°F-2.0°C 60% 5.4 mph WSW8.7 kmh WSW 8.7 mph14.0 kmh 30.06 in1017.9 mb 0.00 in0.0 mm 0.00 in0.0 mm 0.00 in0.0 mm
11:23 AM 40.1°F4.5°C 26.6°F-3.0°C 59% 4.3 mph WSW6.9 kmh WSW 8.7 mph14.0 kmh 30.06 in1017.9 mb 0.00 in0.0 mm 0.00 in0.0 mm 0.00 in0.0 mm
11:22 AM 40.1°F4.5°C 26.6°F-3.0°C 59% 5.4 mph WSW8.7 kmh WSW 8.7 mph14.0 kmh 30.06 in1017.9 mb 0.00 in0.0 mm 0.00 in0.0 mm 0.00 in0.0 mm
11:21 AM 40.1°F4.5°C 26.6°F-3.0°C 59% 4.9 mph WSW7.9 kmh WSW 8.7 mph14.0 kmh 30.06 in1017.9 mb 0.00 in0.0 mm 0.00 in0.0 mm 0.00 in0.0 mm
11:20 AM 40.1°F4.5°C 26.6°F-3.0°C 59% 4.9 mph WSW7.9 kmh WSW 8.7 mph14.0 kmh 30.06 in1017.9 mb 0.00 in0.0 mm 0.00 in0.0 mm 0.00 in0.0 mm
11:19 AM 40.1°F4.5°C 26.6°F-3.0°C 59% 4.9 mph WSW7.9 kmh WSW 8.7 mph14.0 kmh 30.06 in1017.9 mb 0.00 in0.0 mm 0.00 in0.0 mm 0.00 in0.0 mm
11:18 AM 40.1°F4.5°C 26.6°F-3.0°C 59% 4.0 mph W6.4 kmh W 8.7 mph14.0 kmh 30.06 in1017.9 mb 0.00 in0.0 mm 0.00 in0.0 mm 0.00 in0.0 mm
11:17 AM 40.1°F4.5°C 26.6°F-3.0°C 59% 5.8 mph W9.3 kmh W 8.7 mph14.0 kmh 30.06 in1017.9 mb 0.00 in0.0 mm 0.00 in0.0 mm 0.00 in0.0 mm
11:16 AM 40.1°F4.5°C 26.6°F-3.0°C 59% 6.5 mph WSW10.5 kmh WSW 8.7 mph14.0 kmh 30.06 in1017.9 mb 0.00 in0.0 mm 0.00 in0.0 mm 0.00 in0.0 mm
11:15 AM 40.1°F4.5°C 26.6°F-3.0°C 59% 7.6 mph WSW12.2 kmh WSW 8.7 mph14.0 kmh 30.06 in1017.9 mb 0.00 in0.0 mm 0.00 in0.0 mm 0.00 in0.0 mm
11:14 AM 40.1°F4.5°C 26.6°F-3.0°C 59% 5.4 mph W8.7 kmh W 7.8 mph12.6 kmh 30.06 in1017.9 mb 0.00 in0.0 mm 0.00 in0.0 mm 0.00 in0.0 mm
11:13 AM 40.1°F4.5°C 26.6°F-3.0°C 59% 3.8 mph W6.1 kmh W 7.8 mph12.6 kmh 30.06 in1017.9 mb 0.00 in0.0 mm 0.00 in0.0 mm 0.00 in0.0 mm
11:12 AM 40.1°F4.5°C 26.6°F-3.0°C 59% 3.8 mph W6.1 kmh W 7.8 mph12.6 kmh 30.06 in1017.9 mb 0.00 in0.0 mm 0.00 in0.0 mm 0.00 in0.0 mm
11:11 AM 40.1°F4.5°C 26.6°F-3.0°C 58% 4.7 mph W7.6 kmh W 7.8 mph12.6 kmh 30.06 in1017.9 mb 0.00 in0.0 mm 0.00 in0.0 mm 0.00 in0.0 mm
11:10 AM 40.1°F4.5°C 26.6°F-3.0°C 59% 4.7 mph W7.6 kmh W 7.8 mph12.6 kmh 30.06 in1017.9 mb 0.00 in0.0 mm 0.00 in0.0 mm 0.00 in0.0 mm
11:09 AM 40.1°F4.5°C 26.6°F-3.0°C 58% 5.8 mph W9.3 kmh W 7.8 mph12.6 kmh 30.06 in1017.9 mb 0.00 in0.0 mm 0.00 in0.0 mm 0.00 in0.0 mm
11:08 AM 40.1°F4.5°C 26.6°F-3.0°C 58% 6.0 mph W9.7 kmh W 7.8 mph12.6 kmh 30.06 in1017.9 mb 0.00 in0.0 mm 0.00 in0.0 mm 0.00 in0.0 mm
11:07 AM 40.1°F4.5°C 26.6°F-3.0°C 58% 6.5 mph W10.5 kmh W 7.8 mph12.6 kmh 30.06 in1017.9 mb 0.00 in0.0 mm 0.00 in0.0 mm 0.00 in0.0 mm
11:06 AM 40.1°F4.5°C 26.6°F-3.0°C 58% 4.5 mph W7.2 kmh W 7.8 mph12.6 kmh 30.06 in1017.9 mb 0.00 in0.0 mm 0.00 in0.0 mm 0.00 in0.0 mm
11:05 AM 40.1°F4.5°C 26.6°F-3.0°C 58% 4.3 mph W6.9 kmh W 7.8 mph12.6 kmh 30.06 in1017.9 mb 0.00 in0.0 mm 0.00 in0.0 mm 0.00 in0.0 mm
11:04 AM 40.3°F4.6°C 26.6°F-3.0°C 58% 3.8 mph W6.1 kmh W 7.8 mph12.6 kmh 30.06 in1017.9 mb 0.00 in0.0 mm 0.00 in0.0 mm 0.00 in0.0 mm
11:03 AM 40.3°F4.6°C 26.6°F-3.0°C 58% 3.1 mph W5.0 kmh W 7.8 mph12.6 kmh 30.06 in1017.9 mb 0.00 in0.0 mm 0.00 in0.0 mm 0.00 in0.0 mm
11:02 AM 40.3°F4.6°C 26.6°F-3.0°C 57% 5.4 mph W8.7 kmh W 7.8 mph12.6 kmh 30.06 in1017.9 mb 0.00 in0.0 mm 0.00 in0.0 mm 0.00 in0.0 mm
11:01 AM 40.3°F4.6°C 26.6°F-3.0°C 57% 5.6 mph W9.0 kmh W 7.6 mph12.2 kmh 30.06 in1017.9 mb 0.00 in0.0 mm 0.00 in0.0 mm 0.00 in0.0 mm
11:00 AM 40.3°F4.6°C 26.6°F-3.0°C 57% 5.4 mph WSW8.7 kmh WSW 7.6 mph12.2 kmh 30.06 in1017.9 mb 0.00 in0.0 mm 0.00 in0.0 mm 0.00 in0.0 mm
10:59 AM 40.3°F4.6°C 26.6°F-3.0°C 58% 4.7 mph WSW7.6 kmh WSW 7.4 mph11.9 kmh 30.06 in1017.9 mb 0.00 in0.0 mm 0.00 in0.0 mm 0.00 in0.0 mm
10:58 AM 40.3°F4.6°C 26.6°F-3.0°C 58% 3.6 mph WSW5.8 kmh WSW 8.7 mph14.0 kmh 30.06 in1017.9 mb 0.00 in0.0 mm 0.00 in0.0 mm 0.00 in0.0 mm
10:57 AM 40.3°F4.6°C 26.6°F-3.0°C 58% 5.6 mph WSW9.0 kmh WSW 8.7 mph14.0 kmh 30.06 in1017.9 mb 0.00 in0.0 mm 0.00 in0.0 mm 0.00 in0.0 mm
10:56 AM 40.3°F4.6°C 26.6°F-3.0°C 58% 6.0 mph WSW9.7 kmh WSW 8.7 mph14.0 kmh 30.06 in1017.9 mb 0.00 in0.0 mm 0.00 in0.0 mm 0.00 in0.0 mm
10:55 AM 40.3°F4.6°C 26.6°F-3.0°C 58% 4.5 mph WSW7.2 kmh WSW 8.7 mph14.0 kmh 30.06 in1017.9 mb 0.00 in0.0 mm 0.00 in0.0 mm 0.00 in0.0 mm
10:54 AM 40.3°F4.6°C 26.6°F-3.0°C 58% 3.8 mph WSW6.1 kmh WSW 8.7 mph14.0 kmh 30.06 in1017.9 mb 0.00 in0.0 mm 0.00 in0.0 mm 0.00 in0.0 mm
10:53 AM 40.3°F4.6°C 26.6°F-3.0°C 58% 3.8 mph WSW6.1 kmh WSW 8.7 mph14.0 kmh 30.06 in1017.9 mb 0.00 in0.0 mm 0.00 in0.0 mm 0.00 in0.0 mm
10:52 AM 40.3°F4.6°C 26.6°F-3.0°C 58% 5.6 mph WSW9.0 kmh WSW 8.7 mph14.0 kmh 30.06 in1017.9 mb 0.00 in0.0 mm 0.00 in0.0 mm 0.00 in0.0 mm
10:51 AM 40.3°F4.6°C 26.6°F-3.0°C 58% 5.6 mph WSW9.0 kmh WSW 8.7 mph14.0 kmh 30.06 in1017.9 mb 0.00 in0.0 mm 0.00 in0.0 mm 0.00 in0.0 mm
10:50 AM 40.3°F4.6°C 26.6°F-3.0°C 57% 6.0 mph WSW9.7 kmh WSW 8.7 mph14.0 kmh 30.06 in1017.9 mb 0.00 in0.0 mm 0.00 in0.0 mm 0.00 in0.0 mm
10:49 AM 40.5°F4.7°C 26.6°F-3.0°C 58% 6.0 mph WSW9.7 kmh WSW 8.7 mph14.0 kmh 30.06 in1017.9 mb 0.00 in0.0 mm 0.00 in0.0 mm 0.00 in0.0 mm
10:48 AM 40.5°F4.7°C 26.6°F-3.0°C 58% 6.0 mph W9.7 kmh W 8.7 mph14.0 kmh 30.06 in1017.9 mb 0.00 in0.0 mm 0.00 in0.0 mm 0.00 in0.0 mm
10:47 AM 40.5°F4.7°C 26.6°F-3.0°C 59% 7.4 mph WSW11.9 kmh WSW 8.7 mph14.0 kmh 30.06 in1017.9 mb 0.00 in0.0 mm 0.00 in0.0 mm 0.00 in0.0 mm
10:46 AM 40.5°F4.7°C 26.6°F-3.0°C 59% 4.9 mph W7.9 kmh W 8.5 mph13.7 kmh 30.06 in1017.9 mb 0.00 in0.0 mm 0.00 in0.0 mm 0.00 in0.0 mm
10:45 AM 40.5°F4.7°C 26.6°F-3.0°C 59% 3.8 mph W6.1 kmh W 8.5 mph13.7 kmh 30.06 in1017.9 mb 0.00 in0.0 mm 0.00 in0.0 mm 0.00 in0.0 mm
10:44 AM 40.5°F4.7°C 26.6°F-3.0°C 59% 7.4 mph W11.9 kmh W 8.5 mph13.7 kmh 30.06 in1017.9 mb 0.00 in0.0 mm 0.00 in0.0 mm 0.00 in0.0 mm
10:43 AM 40.5°F4.7°C 28.4°F-2.0°C 60% 8.1 mph W13.0 kmh W 8.5 mph13.7 kmh 30.06 in1017.9 mb 0.00 in0.0 mm 0.00 in0.0 mm 0.00 in0.0 mm
10:42 AM 40.6°F4.8°C 28.4°F-2.0°C 60% 4.9 mph W7.9 kmh W 7.8 mph12.6 kmh 30.06 in1017.9 mb 0.00 in0.0 mm 0.00 in0.0 mm 0.00 in0.0 mm
10:41 AM 40.6°F4.8°C 28.4°F-2.0°C 60% 4.5 mph WSW7.2 kmh WSW 10.7 mph17.2 kmh 30.06 in1017.9 mb 0.00 in0.0 mm 0.00 in0.0 mm 0.00 in0.0 mm
10:40 AM 40.6°F4.8°C 28.4°F-2.0°C 60% 6.0 mph WSW9.7 kmh WSW 10.7 mph17.2 kmh 30.06 in1017.9 mb 0.00 in0.0 mm 0.00 in0.0 mm 0.00 in0.0 mm
10:39 AM 40.6°F4.8°C 28.4°F-2.0°C 60% 4.0 mph WSW6.4 kmh WSW 10.7 mph17.2 kmh 30.06 in1017.9 mb 0.00 in0.0 mm 0.00 in0.0 mm 0.00 in0.0 mm
10:38 AM 40.6°F4.8°C 28.4°F-2.0°C 60% 4.9 mph WSW7.9 kmh WSW 10.7 mph17.2 kmh 30.06 in1017.9 mb 0.00 in0.0 mm 0.00 in0.0 mm 0.00 in0.0 mm
10:37 AM 40.6°F4.8°C 28.4°F-2.0°C 60% 6.7 mph WSW10.8 kmh WSW 10.7 mph17.2 kmh 30.06 in1017.9 mb 0.00 in0.0 mm 0.00 in0.0 mm 0.00 in0.0 mm
10:36 AM 40.6°F4.8°C 28.4°F-2.0°C 60% 7.4 mph WSW11.9 kmh WSW 10.7 mph17.2 kmh 30.06 in1017.9 mb 0.00 in0.0 mm 0.00 in0.0 mm 0.00 in0.0 mm
10:35 AM 40.6°F4.8°C 28.4°F-2.0°C 60% 4.7 mph WSW7.6 kmh WSW 10.7 mph17.2 kmh 30.06 in1017.9 mb 0.00 in0.0 mm 0.00 in0.0 mm 0.00 in0.0 mm
10:34 AM 40.6°F4.8°C 28.4°F-2.0°C 60% 4.9 mph WSW7.9 kmh WSW 10.7 mph17.2 kmh 30.06 in1017.9 mb 0.00 in0.0 mm 0.00 in0.0 mm 0.00 in0.0 mm
10:33 AM 40.6°F4.8°C 28.4°F-2.0°C 60% 6.5 mph WSW10.5 kmh WSW 10.7 mph17.2 kmh 30.06 in1017.9 mb 0.00 in0.0 mm 0.00 in0.0 mm 0.00 in0.0 mm
10:32 AM 40.6°F4.8°C 28.4°F-2.0°C 60% 8.7 mph WSW14.0 kmh WSW 10.7 mph17.2 kmh 30.06 in1017.9 mb 0.00 in0.0 mm 0.00 in0.0 mm 0.00 in0.0 mm
10:31 AM 40.6°F4.8°C 28.4°F-2.0°C 60% 9.4 mph WSW15.1 kmh WSW 10.3 mph16.6 kmh 30.06 in1017.9 mb 0.00 in0.0 mm 0.00 in0.0 mm 0.00 in0.0 mm
10:30 AM 40.6°F4.8°C 28.4°F-2.0°C 60% 5.8 mph WSW9.3 kmh WSW 8.7 mph14.0 kmh 30.06 in1017.9 mb 0.00 in0.0 mm 0.00 in0.0 mm 0.00 in0.0 mm
10:29 AM 40.6°F4.8°C 28.4°F-2.0°C 60% 7.6 mph WSW12.2 kmh WSW 8.7 mph14.0 kmh 30.06 in1017.9 mb 0.00 in0.0 mm 0.00 in0.0 mm 0.00 in0.0 mm
10:28 AM 40.6°F4.8°C 28.4°F-2.0°C 60% 7.4 mph WSW11.9 kmh WSW 8.5 mph13.7 kmh 30.06 in1017.9 mb 0.00 in0.0 mm 0.00 in0.0 mm 0.00 in0.0 mm
10:27 AM 40.6°F4.8°C 28.4°F-2.0°C 61% 6.7 mph W10.8 kmh W 8.5 mph13.7 kmh 30.06 in1017.9 mb 0.00 in0.0 mm 0.00 in0.0 mm 0.00 in0.0 mm
10:26 AM 40.8°F4.9°C 28.4°F-2.0°C 61% 6.3 mph WSW10.1 kmh WSW 7.8 mph12.6 kmh 30.06 in1017.9 mb 0.00 in0.0 mm 0.00 in0.0 mm 0.00 in0.0 mm
10:25 AM 40.8°F4.9°C 28.4°F-2.0°C 61% 6.5 mph W10.5 kmh W 7.8 mph12.6 kmh 30.06 in1017.9 mb 0.00 in0.0 mm 0.00 in0.0 mm 0.00 in0.0 mm
10:24 AM 40.8°F4.9°C 28.4°F-2.0°C 61% 5.8 mph W9.3 kmh W 7.6 mph12.2 kmh 30.06 in1017.9 mb 0.00 in0.0 mm 0.00 in0.0 mm 0.00 in0.0 mm
10:23 AM 40.8°F4.9°C 28.4°F-2.0°C 61% 6.3 mph W10.1 kmh W 7.6 mph12.2 kmh 30.06 in1017.9 mb 0.00 in0.0 mm 0.00 in0.0 mm 0.00 in0.0 mm
10:22 AM 40.8°F4.9°C 28.4°F-2.0°C 61% 6.7 mph W10.8 kmh W 7.6 mph12.2 kmh 30.06 in1017.9 mb 0.00 in0.0 mm 0.00 in0.0 mm 0.00 in0.0 mm
10:21 AM 40.8°F4.9°C 30.2°F-1.0°C 63% 5.8 mph W9.3 kmh W 7.6 mph12.2 kmh 30.06 in1017.9 mb 0.00 in0.0 mm 0.00 in0.0 mm 0.00 in0.0 mm
10:20 AM 40.6°F4.8°C 28.4°F-2.0°C 63% 4.7 mph W7.6 kmh W 6.5 mph10.5 kmh 30.06 in1017.9 mb 0.00 in0.0 mm 0.00 in0.0 mm 0.00 in0.0 mm
10:19 AM 40.6°F4.8°C 28.4°F-2.0°C 63% 4.3 mph W6.9 kmh W 6.5 mph10.5 kmh 30.06 in1017.9 mb 0.00 in0.0 mm 0.00 in0.0 mm 0.00 in0.0 mm
10:18 AM 40.6°F4.8°C 28.4°F-2.0°C 63% 3.8 mph W6.1 kmh W 8.1 mph13.0 kmh 30.06 in1017.9 mb 0.00 in0.0 mm 0.00 in0.0 mm 0.00 in0.0 mm
10:17 AM 40.6°F4.8°C 28.4°F-2.0°C 62% 3.8 mph W6.1 kmh W 8.1 mph13.0 kmh 30.06 in1017.9 mb 0.00 in0.0 mm 0.00 in0.0 mm 0.00 in0.0 mm
10:16 AM 40.6°F4.8°C 28.4°F-2.0°C 62% 3.8 mph W6.1 kmh W 8.1 mph13.0 kmh 30.06 in1017.9 mb 0.00 in0.0 mm 0.00 in0.0 mm 0.00 in0.0 mm
10:15 AM 40.5°F4.7°C 28.4°F-2.0°C 62% 4.0 mph W6.4 kmh W 8.1 mph13.0 kmh 30.06 in1017.9 mb 0.00 in0.0 mm 0.00 in0.0 mm 0.00 in0.0 mm
10:14 AM 40.5°F4.7°C 28.4°F-2.0°C 63% 4.5 mph WSW7.2 kmh WSW 8.7 mph14.0 kmh 30.06 in1017.9 mb 0.00 in0.0 mm 0.00 in0.0 mm 0.00 in0.0 mm
10:13 AM 40.5°F4.7°C 28.4°F-2.0°C 63% 4.3 mph WSW6.9 kmh WSW 8.7 mph14.0 kmh 30.06 in1017.9 mb 0.00 in0.0 mm 0.00 in0.0 mm 0.00 in0.0 mm
10:12 AM 40.5°F4.7°C 28.4°F-2.0°C 63% 3.8 mph WSW6.1 kmh WSW 8.7 mph14.0 kmh 30.06 in1017.9 mb 0.00 in0.0 mm 0.00 in0.0 mm 0.00 in0.0 mm
10:11 AM 40.5°F4.7°C 28.4°F-2.0°C 63% 4.3 mph WSW6.9 kmh WSW 8.7 mph14.0 kmh 30.06 in1017.9 mb 0.00 in0.0 mm 0.00 in0.0 mm 0.00 in0.0 mm
10:10 AM 40.5°F4.7°C 28.4°F-2.0°C 63% 4.3 mph WSW6.9 kmh WSW 8.7 mph14.0 kmh 30.06 in1017.9 mb 0.00 in0.0 mm 0.00 in0.0 mm 0.00 in0.0 mm
10:09 AM 40.3°F4.6°C 28.4°F-2.0°C 63% 4.7 mph WSW7.6 kmh WSW 8.7 mph14.0 kmh 30.06 in1017.9 mb 0.00 in0.0 mm 0.00 in0.0 mm 0.00 in0.0 mm
10:08 AM 40.3°F4.6°C 28.4°F-2.0°C 63% 3.8 mph WSW6.1 kmh WSW 8.7 mph14.0 kmh 30.06 in1017.9 mb 0.00 in0.0 mm 0.00 in0.0 mm 0.00 in0.0 mm
10:07 AM 40.3°F4.6°C 28.4°F-2.0°C 62% 4.0 mph WSW6.4 kmh WSW 8.7 mph14.0 kmh 30.06 in1017.9 mb 0.00 in0.0 mm 0.00 in0.0 mm 0.00 in0.0 mm
10:06 AM 40.3°F4.6°C 28.4°F-2.0°C 63% 6.5 mph WSW10.5 kmh WSW 8.7 mph14.0 kmh 30.06 in1017.9 mb 0.00 in0.0 mm 0.00 in0.0 mm 0.00 in0.0 mm
10:05 AM 40.3°F4.6°C 28.4°F-2.0°C 63% 6.5 mph WSW10.5 kmh WSW 8.7 mph14.0 kmh 30.06 in1017.9 mb 0.00 in0.0 mm 0.00 in0.0 mm 0.00 in0.0 mm
10:04 AM 40.3°F4.6°C 28.4°F-2.0°C 63% 3.1 mph WSW5.0 kmh WSW 6.3 mph10.1 kmh 30.06 in1017.9 mb 0.00 in0.0 mm 0.00 in0.0 mm 0.00 in0.0 mm
10:03 AM 40.3°F4.6°C 28.4°F-2.0°C 63% 3.6 mph WSW5.8 kmh WSW 6.3 mph10.1 kmh 30.06 in1017.9 mb 0.00 in0.0 mm 0.00 in0.0 mm 0.00 in0.0 mm
10:02 AM 40.3°F4.6°C 28.4°F-2.0°C 63% 4.5 mph WSW7.2 kmh WSW 6.3 mph10.1 kmh 30.06 in1017.9 mb 0.00 in0.0 mm 0.00 in0.0 mm 0.00 in0.0 mm
10:01 AM 40.1°F4.5°C 28.4°F-2.0°C 63% 4.5 mph WSW7.2 kmh WSW 6.3 mph10.1 kmh 30.03 in1016.9 mb 0.00 in0.0 mm 0.00 in0.0 mm 0.00 in0.0 mm
10:00 AM 40.1°F4.5°C 28.4°F-2.0°C 63% 4.0 mph WSW6.4 kmh WSW 6.3 mph10.1 kmh 30.03 in1016.9 mb 0.00 in0.0 mm 0.00 in0.0 mm 0.00 in0.0 mm
09:59 AM 40.1°F4.5°C 28.4°F-2.0°C 63% 4.3 mph WSW6.9 kmh WSW 6.3 mph10.1 kmh 30.03 in1016.9 mb 0.00 in0.0 mm 0.00 in0.0 mm 0.00 in0.0 mm
09:58 AM 39.9°F4.4°C 28.4°F-2.0°C 63% 4.7 mph WSW7.6 kmh WSW 6.3 mph10.1 kmh 30.03 in1016.9 mb 0.00 in0.0 mm 0.00 in0.0 mm 0.00 in0.0 mm
09:57 AM 39.9°F4.4°C 28.4°F-2.0°C 63% 4.3 mph WSW6.9 kmh WSW 6.0 mph9.7 kmh 30.03 in1016.9 mb 0.00 in0.0 mm 0.00 in0.0 mm 0.00 in0.0 mm
09:56 AM 39.9°F4.4°C 28.4°F-2.0°C 63% 4.7 mph WSW7.6 kmh WSW 6.0 mph9.7 kmh 30.03 in1016.9 mb 0.00 in0.0 mm 0.00 in0.0 mm 0.00 in0.0 mm
09:55 AM 39.9°F4.4°C 28.4°F-2.0°C 63% 4.3 mph WSW6.9 kmh WSW 6.0 mph9.7 kmh 30.03 in1016.9 mb 0.00 in0.0 mm 0.00 in0.0 mm 0.00 in0.0 mm
09:54 AM 39.9°F4.4°C 28.4°F-2.0°C 63% 2.7 mph WSW4.3 kmh WSW 5.4 mph8.7 kmh 30.03 in1016.9 mb 0.00 in0.0 mm 0.00 in0.0 mm 0.00 in0.0 mm
09:53 AM 39.7°F4.3°C 28.4°F-2.0°C 63% 3.6 mph WSW5.8 kmh WSW 5.4 mph8.7 kmh 30.03 in1016.9 mb 0.00 in0.0 mm 0.00 in0.0 mm 0.00 in0.0 mm
09:52 AM 39.7°F4.3°C 28.4°F-2.0°C 63% 3.6 mph WSW5.8 kmh WSW 5.4 mph8.7 kmh 30.03 in1016.9 mb 0.00 in0.0 mm 0.00 in0.0 mm 0.00 in0.0 mm
09:51 AM 39.7°F4.3°C 28.4°F-2.0°C 63% 3.6 mph WSW5.8 kmh WSW 5.6 mph9.0 kmh 30.03 in1016.9 mb 0.00 in0.0 mm 0.00 in0.0 mm 0.00 in0.0 mm
09:50 AM 39.7°F4.3°C 28.4°F-2.0°C 63% 3.8 mph WSW6.1 kmh WSW 5.8 mph9.3 kmh 30.03 in1016.9 mb 0.00 in0.0 mm 0.00 in0.0 mm 0.00 in0.0 mm
09:49 AM 39.7°F4.3°C 28.4°F-2.0°C 63% 3.4 mph WSW5.5 kmh WSW 6.3 mph10.1 kmh 30.03 in1016.9 mb 0.00 in0.0 mm 0.00 in0.0 mm 0.00 in0.0 mm
09:48 AM 39.7°F4.3°C 28.4°F-2.0°C 63% 4.5 mph WSW7.2 kmh WSW 6.3 mph10.1 kmh 30.03 in1016.9 mb 0.00 in0.0 mm 0.00 in0.0 mm 0.00 in0.0 mm
09:47 AM 39.7°F4.3°C 28.4°F-2.0°C 63% 3.8 mph WSW6.1 kmh WSW 6.3 mph10.1 kmh 30.03 in1016.9 mb 0.00 in0.0 mm 0.00 in0.0 mm 0.00 in0.0 mm
09:46 AM 39.7°F4.3°C 28.4°F-2.0°C 63% 3.8 mph WSW6.1 kmh WSW 6.3 mph10.1 kmh 30.03 in1016.9 mb 0.00 in0.0 mm 0.00 in0.0 mm 0.00 in0.0 mm
09:45 AM 39.7°F4.3°C 28.4°F-2.0°C 63% 3.4 mph WSW5.5 kmh WSW 6.3 mph10.1 kmh 30.03 in1016.9 mb 0.00 in0.0 mm 0.00 in0.0 mm 0.00 in0.0 mm
09:44 AM 39.7°F4.3°C 28.4°F-2.0°C 63% 3.4 mph WSW5.5 kmh WSW 6.3 mph10.1 kmh 30.03 in1016.9 mb 0.00 in0.0 mm 0.00 in0.0 mm 0.00 in0.0 mm
09:43 AM 39.9°F4.4°C 28.4°F-2.0°C 63% 3.4 mph WSW5.5 kmh WSW 6.3 mph10.1 kmh 30.03 in1016.9 mb 0.00 in0.0 mm 0.00 in0.0 mm 0.00 in0.0 mm
09:42 AM 39.9°F4.4°C 28.4°F-2.0°C 63% 5.4 mph WSW8.7 kmh WSW 6.3 mph10.1 kmh 30.03 in1016.9 mb 0.00 in0.0 mm 0.00 in0.0 mm 0.00 in0.0 mm
09:41 AM 39.9°F4.4°C 28.4°F-2.0°C 63% 4.7 mph WSW7.6 kmh WSW 6.3 mph10.1 kmh 30.03 in1016.9 mb 0.00 in0.0 mm 0.00 in0.0 mm 0.00 in0.0 mm
09:40 AM 39.9°F4.4°C 28.4°F-2.0°C 63% 4.5 mph WSW7.2 kmh WSW 6.3 mph10.1 kmh 30.03 in1016.9 mb 0.00 in0.0 mm 0.00 in0.0 mm 0.00 in0.0 mm
09:39 AM 39.9°F4.4°C 28.4°F-2.0°C 63% 3.8 mph WSW6.1 kmh WSW 6.3 mph10.1 kmh 30.03 in1016.9 mb 0.00 in0.0 mm 0.00 in0.0 mm 0.00 in0.0 mm
09:38 AM 39.9°F4.4°C 28.4°F-2.0°C 63% 3.1 mph WSW5.0 kmh WSW 6.3 mph10.1 kmh 30.03 in1016.9 mb 0.00 in0.0 mm 0.00 in0.0 mm 0.00 in0.0 mm
09:37 AM 39.9°F4.4°C 28.4°F-2.0°C 63% 3.6 mph WSW5.8 kmh WSW 6.3 mph10.1 kmh 30.03 in1016.9 mb 0.00 in0.0 mm 0.00 in0.0 mm 0.00 in0.0 mm
09:36 AM 39.9°F4.4°C 28.4°F-2.0°C 63% 4.3 mph WSW6.9 kmh WSW 6.3 mph10.1 kmh 30.03 in1016.9 mb 0.00 in0.0 mm 0.00 in0.0 mm 0.00 in0.0 mm
09:35 AM 39.9°F4.4°C 28.4°F-2.0°C 64% 4.0 mph WSW6.4 kmh WSW 5.6 mph9.0 kmh 30.03 in1016.9 mb 0.00 in0.0 mm 0.00 in0.0 mm 0.00 in0.0 mm
09:34 AM 39.9°F4.4°C 28.4°F-2.0°C 64% 4.5 mph WSW7.2 kmh WSW 5.6 mph9.0 kmh 30.03 in1016.9 mb 0.00 in0.0 mm 0.00 in0.0 mm 0.00 in0.0 mm
09:33 AM 39.9°F4.4°C 28.4°F-2.0°C 64% 3.6 mph WSW5.8 kmh WSW 5.6 mph9.0 kmh 30.03 in1016.9 mb 0.00 in0.0 mm 0.00 in0.0 mm 0.00 in0.0 mm
09:32 AM 39.9°F4.4°C 28.4°F-2.0°C 64% 2.5 mph WSW4.0 kmh WSW 5.8 mph9.3 kmh 30.03 in1016.9 mb 0.00 in0.0 mm 0.00 in0.0 mm 0.00 in0.0 mm
09:31 AM 39.9°F4.4°C 28.4°F-2.0°C 64% 2.9 mph WSW4.7 kmh WSW 5.8 mph9.3 kmh 30.03 in1016.9 mb 0.00 in0.0 mm 0.00 in0.0 mm 0.00 in0.0 mm
09:30 AM 39.9°F4.4°C 28.4°F-2.0°C 64% 2.5 mph WSW4.0 kmh WSW 6.0 mph9.7 kmh 30.03 in1016.9 mb 0.00 in0.0 mm 0.00 in0.0 mm 0.00 in0.0 mm
09:29 AM 39.9°F4.4°C 28.4°F-2.0°C 64% 2.9 mph WSW4.7 kmh WSW 6.0 mph9.7 kmh 30.03 in1016.9 mb 0.00 in0.0 mm 0.00 in0.0 mm 0.00 in0.0 mm
09:28 AM 39.7°F4.3°C 28.4°F-2.0°C 63% 3.4 mph WSW5.5 kmh WSW 6.5 mph10.5 kmh 30.03 in1016.9 mb 0.00 in0.0 mm 0.00 in0.0 mm 0.00 in0.0 mm
09:27 AM 39.7°F4.3°C 28.4°F-2.0°C 63% 4.3 mph WSW6.9 kmh WSW 6.5 mph10.5 kmh 30.03 in1016.9 mb 0.00 in0.0 mm 0.00 in0.0 mm 0.00 in0.0 mm
09:26 AM 39.7°F4.3°C 28.4°F-2.0°C 63% 3.6 mph WSW5.8 kmh WSW 6.5 mph10.5 kmh 30.03 in1016.9 mb 0.00 in0.0 mm 0.00 in0.0 mm 0.00 in0.0 mm
09:25 AM 39.7°F4.3°C 28.4°F-2.0°C 64% 4.0 mph WSW6.4 kmh WSW 6.5 mph10.5 kmh 30.03 in1016.9 mb 0.00 in0.0 mm 0.00 in0.0 mm 0.00 in0.0 mm
09:24 AM 39.7°F4.3°C 28.4°F-2.0°C 64% 4.9 mph WSW7.9 kmh WSW 6.5 mph10.5 kmh 30.03 in1016.9 mb 0.00 in0.0 mm 0.00 in0.0 mm 0.00 in0.0 mm
09:23 AM 39.7°F4.3°C 28.4°F-2.0°C 63% 4.5 mph WSW7.2 kmh WSW 6.5 mph10.5 kmh 30.03 in1016.9 mb 0.00 in0.0 mm 0.00 in0.0 mm 0.00 in0.0 mm
09:22 AM 39.7°F4.3°C 28.4°F-2.0°C 63% 4.0 mph WSW6.4 kmh WSW 6.5 mph10.5 kmh 30.03 in1016.9 mb 0.00 in0.0 mm 0.00 in0.0 mm 0.00 in0.0 mm
09:21 AM 39.7°F4.3°C 28.4°F-2.0°C 63% 5.4 mph WSW8.7 kmh WSW 6.5 mph10.5 kmh 30.03 in1016.9 mb 0.00 in0.0 mm 0.00 in0.0 mm 0.00 in0.0 mm
09:20 AM 39.7°F4.3°C 28.4°F-2.0°C 64% 5.4 mph WSW8.7 kmh WSW 6.5 mph10.5 kmh 30.03 in1016.9 mb 0.00 in0.0 mm 0.00 in0.0 mm 0.00 in0.0 mm
09:19 AM 39.7°F4.3°C 28.4°F-2.0°C 64% 4.0 mph WSW6.4 kmh WSW 6.5 mph10.5 kmh 30.03 in1016.9 mb 0.00 in0.0 mm 0.00 in0.0 mm 0.00 in0.0 mm
09:18 AM 39.6°F4.2°C 28.4°F-2.0°C 64% 3.4 mph W5.5 kmh W 5.4 mph8.7 kmh 30.03 in1016.9 mb 0.00 in0.0 mm 0.00 in0.0 mm 0.00 in0.0 mm
09:17 AM 39.6°F4.2°C 28.4°F-2.0°C 64% 3.4 mph WSW5.5 kmh WSW 5.6 mph9.0 kmh 30.03 in1016.9 mb 0.00 in0.0 mm 0.00 in0.0 mm 0.00 in0.0 mm
09:16 AM 39.6°F4.2°C 28.4°F-2.0°C 64% 3.6 mph WSW5.8 kmh WSW 5.6 mph9.0 kmh 30.00 in1015.9 mb 0.00 in0.0 mm 0.00 in0.0 mm 0.00 in0.0 mm
09:15 AM 39.6°F4.2°C 28.4°F-2.0°C 64% 3.4 mph W5.5 kmh W 5.6 mph9.0 kmh 30.00 in1015.9 mb 0.00 in0.0 mm 0.00 in0.0 mm 0.00 in0.0 mm
09:14 AM 39.6°F4.2°C 28.4°F-2.0°C 64% 2.9 mph WSW4.7 kmh WSW 5.6 mph9.0 kmh 30.00 in1015.9 mb 0.00 in0.0 mm 0.00 in0.0 mm 0.00 in0.0 mm
09:13 AM 39.6°F4.2°C 30.2°F-1.0°C 65% 3.6 mph WSW5.8 kmh WSW 5.6 mph9.0 kmh 30.00 in1015.9 mb 0.00 in0.0 mm 0.00 in0.0 mm 0.00 in0.0 mm
09:12 AM 39.4°F4.1°C 28.4°F-2.0°C 64% 2.9 mph WSW4.7 kmh WSW 5.6 mph9.0 kmh 30.00 in1015.9 mb 0.00 in0.0 mm 0.00 in0.0 mm 0.00 in0.0 mm
09:11 AM 39.4°F4.1°C 28.4°F-2.0°C 64% 2.7 mph WSW4.3 kmh WSW 5.6 mph9.0 kmh 30.00 in1015.9 mb 0.00 in0.0 mm 0.00 in0.0 mm 0.00 in0.0 mm
09:10 AM 39.4°F4.1°C 28.4°F-2.0°C 64% 2.9 mph WSW4.7 kmh WSW 5.8 mph9.3 kmh 30.00 in1015.9 mb 0.00 in0.0 mm 0.00 in0.0 mm 0.00 in0.0 mm
09:09 AM 39.4°F4.1°C 28.4°F-2.0°C 64% 4.3 mph WSW6.9 kmh WSW 5.8 mph9.3 kmh 30.00 in1015.9 mb 0.00 in0.0 mm 0.00 in0.0 mm 0.00 in0.0 mm
09:08 AM 39.4°F4.1°C 28.4°F-2.0°C 65% 4.5 mph WSW7.2 kmh WSW 6.0 mph9.7 kmh 30.00 in1015.9 mb 0.00 in0.0 mm 0.00 in0.0 mm 0.00 in0.0 mm
09:07 AM 39.4°F4.1°C 28.4°F-2.0°C 65% 4.0 mph WSW6.4 kmh WSW 6.0 mph9.7 kmh 30.00 in1015.9 mb 0.00 in0.0 mm 0.00 in0.0 mm 0.00 in0.0 mm
09:06 AM 39.2°F4.0°C 28.4°F-2.0°C 65% 4.3 mph WSW6.9 kmh WSW 6.0 mph9.7 kmh 30.00 in1015.9 mb 0.00 in0.0 mm 0.00 in0.0 mm 0.00 in0.0 mm
09:05 AM 39.2°F4.0°C 28.4°F-2.0°C 65% 4.3 mph WSW6.9 kmh WSW 6.0 mph9.7 kmh 30.00 in1015.9 mb 0.00 in0.0 mm 0.00 in0.0 mm 0.00 in0.0 mm
09:04 AM 39.2°F4.0°C 28.4°F-2.0°C 65% 3.8 mph WSW6.1 kmh WSW 6.0 mph9.7 kmh 30.00 in1015.9 mb 0.00 in0.0 mm 0.00 in0.0 mm 0.00 in0.0 mm
09:03 AM 39.2°F4.0°C 28.4°F-2.0°C 65% 3.8 mph WSW6.1 kmh WSW 6.0 mph9.7 kmh 30.00 in1015.9 mb 0.00 in0.0 mm 0.00 in0.0 mm 0.00 in0.0 mm
09:02 AM 39.2°F4.0°C 28.4°F-2.0°C 65% 4.0 mph WSW6.4 kmh WSW 6.0 mph9.7 kmh 30.00 in1015.9 mb 0.00 in0.0 mm 0.00 in0.0 mm 0.00 in0.0 mm
09:01 AM 39.2°F4.0°C 28.4°F-2.0°C 65% 4.0 mph WSW6.4 kmh WSW 6.0 mph9.7 kmh 30.00 in1015.9 mb 0.00 in0.0 mm 0.00 in0.0 mm 0.00 in0.0 mm
09:00 AM 39.0°F3.9°C 28.4°F-2.0°C 65% 4.0 mph WSW6.4 kmh WSW 6.0 mph9.7 kmh 30.00 in1015.9 mb 0.00 in0.0 mm 0.00 in0.0 mm 0.00 in0.0 mm
08:59 AM 39.0°F3.9°C 28.4°F-2.0°C 65% 4.3 mph WSW6.9 kmh WSW 6.0 mph9.7 kmh 30.00 in1015.9 mb 0.00 in0.0 mm 0.00 in0.0 mm 0.00 in0.0 mm
08:58 AM 39.0°F3.9°C 28.4°F-2.0°C 65% 3.4 mph WSW5.5 kmh WSW 5.4 mph8.7 kmh 30.00 in1015.9 mb 0.00 in0.0 mm 0.00 in0.0 mm 0.00 in0.0 mm
08:57 AM 39.0°F3.9°C 28.4°F-2.0°C 65% 2.9 mph W4.7 kmh W 5.6 mph9.0 kmh 30.00 in1015.9 mb 0.00 in0.0 mm 0.00 in0.0 mm 0.00 in0.0 mm
08:56 AM 39.0°F3.9°C 28.4°F-2.0°C 65% 3.4 mph W5.5 kmh W 5.6 mph9.0 kmh 30.00 in1015.9 mb 0.00 in0.0 mm 0.00 in0.0 mm 0.00 in0.0 mm
08:55 AM 38.8°F3.8°C 28.4°F-2.0°C 65% 3.6 mph WSW5.8 kmh WSW 5.6 mph9.0 kmh 30.00 in1015.9 mb 0.00 in0.0 mm 0.00 in0.0 mm 0.00 in0.0 mm
08:54 AM 38.8°F3.8°C 28.4°F-2.0°C 65% 3.6 mph W5.8 kmh W 5.6 mph9.0 kmh 30.00 in1015.9 mb 0.00 in0.0 mm 0.00 in0.0 mm 0.00 in0.0 mm
08:53 AM 38.8°F3.8°C 28.4°F-2.0°C 65% 3.6 mph WSW5.8 kmh WSW 5.6 mph9.0 kmh 30.00 in1015.9 mb 0.00 in0.0 mm 0.00 in0.0 mm 0.00 in0.0 mm
08:52 AM 38.8°F3.8°C 28.4°F-2.0°C 65% 3.4 mph W5.5 kmh W 5.6 mph9.0 kmh 30.00 in1015.9 mb 0.00 in0.0 mm 0.00 in0.0 mm 0.00 in0.0 mm
08:51 AM 38.8°F3.8°C 28.4°F-2.0°C 65% 2.9 mph W4.7 kmh W 5.6 mph9.0 kmh 30.00 in1015.9 mb 0.00 in0.0 mm 0.00 in0.0 mm 0.00 in0.0 mm
08:50 AM 38.8°F3.8°C 28.4°F-2.0°C 65% 3.4 mph WSW5.5 kmh WSW 5.6 mph9.0 kmh 30.00 in1015.9 mb 0.00 in0.0 mm 0.00 in0.0 mm 0.00 in0.0 mm
08:49 AM 38.8°F3.8°C 28.4°F-2.0°C 66% 3.4 mph W5.5 kmh W 5.6 mph9.0 kmh 30.00 in1015.9 mb 0.00 in0.0 mm 0.00 in0.0 mm 0.00 in0.0 mm
08:48 AM 38.8°F3.8°C 28.4°F-2.0°C 66% 4.3 mph W6.9 kmh W 5.6 mph9.0 kmh 30.00 in1015.9 mb 0.00 in0.0 mm 0.00 in0.0 mm 0.00 in0.0 mm
08:47 AM 38.8°F3.8°C 28.4°F-2.0°C 66% 2.9 mph WSW4.7 kmh WSW 4.7 mph7.6 kmh 30.00 in1015.9 mb 0.00 in0.0 mm 0.00 in0.0 mm 0.00 in0.0 mm
08:46 AM 38.8°F3.8°C 28.4°F-2.0°C 66% 3.4 mph WSW5.5 kmh WSW 4.7 mph7.6 kmh 30.00 in1015.9 mb 0.00 in0.0 mm 0.00 in0.0 mm 0.00 in0.0 mm
08:45 AM 38.7°F3.7°C 28.4°F-2.0°C 66% 2.7 mph W4.3 kmh W 4.3 mph6.9 kmh 30.00 in1015.9 mb 0.00 in0.0 mm 0.00 in0.0 mm 0.00 in0.0 mm
08:44 AM 38.7°F3.7°C 28.4°F-2.0°C 66% 2.7 mph W4.3 kmh W 4.3 mph6.9 kmh 30.00 in1015.9 mb 0.00 in0.0 mm 0.00 in0.0 mm 0.00 in0.0 mm
08:43 AM 38.7°F3.7°C 28.4°F-2.0°C 66% 2.5 mph W4.0 kmh W 4.3 mph6.9 kmh 30.00 in1015.9 mb 0.00 in0.0 mm 0.00 in0.0 mm 0.00 in0.0 mm
08:42 AM 38.7°F3.7°C 28.4°F-2.0°C 66% 3.1 mph W5.0 kmh W 4.3 mph6.9 kmh 30.00 in1015.9 mb 0.00 in0.0 mm 0.00 in0.0 mm 0.00 in0.0 mm
08:41 AM 38.5°F3.6°C 28.4°F-2.0°C 66% 3.6 mph W5.8 kmh W 4.3 mph6.9 kmh 30.00 in1015.9 mb 0.00 in0.0 mm 0.00 in0.0 mm 0.00 in0.0 mm
08:40 AM 38.5°F3.6°C 28.4°F-2.0°C 66% 2.9 mph W4.7 kmh W 4.3 mph6.9 kmh 30.00 in1015.9 mb 0.00 in0.0 mm 0.00 in0.0 mm 0.00 in0.0 mm
08:39 AM 38.5°F3.6°C 28.4°F-2.0°C 66% 3.1 mph W5.0 kmh W 4.3 mph6.9 kmh 30.00 in1015.9 mb 0.00 in0.0 mm 0.00 in0.0 mm 0.00 in0.0 mm
08:38 AM 38.5°F3.6°C 28.4°F-2.0°C 66% 1.1 mph W1.8 kmh W 4.0 mph6.4 kmh 30.00 in1015.9 mb 0.00 in0.0 mm 0.00 in0.0 mm 0.00 in0.0 mm
08:37 AM 38.5°F3.6°C 28.4°F-2.0°C 66% Calm Calm 4.0 mph6.4 kmh 30.00 in1015.9 mb 0.00 in0.0 mm 0.00 in0.0 mm 0.00 in0.0 mm
08:36 AM 38.5°F3.6°C 28.4°F-2.0°C 66% 2.2 mph W3.5 kmh W 4.0 mph6.4 kmh 30.00 in1015.9 mb 0.00 in0.0 mm 0.00 in0.0 mm 0.00 in0.0 mm
08:35 AM 38.3°F3.5°C 28.4°F-2.0°C 66% 1.6 mph W2.6 kmh W 4.0 mph6.4 kmh 30.00 in1015.9 mb 0.00 in0.0 mm 0.00 in0.0 mm 0.00 in0.0 mm
08:34 AM 38.3°F3.5°C 28.4°F-2.0°C 66% 0.9 mph W1.4 kmh W 4.0 mph6.4 kmh 30.00 in1015.9 mb 0.00 in0.0 mm 0.00 in0.0 mm 0.00 in0.0 mm
08:33 AM 38.3°F3.5°C 28.4°F-2.0°C 66% 2.2 mph W3.5 kmh W 4.3 mph6.9 kmh 30.00 in1015.9 mb 0.00 in0.0 mm 0.00 in0.0 mm 0.00 in0.0 mm
08:32 AM 38.3°F3.5°C 28.4°F-2.0°C 66% 2.0 mph W3.2 kmh W 4.9 mph7.9 kmh 30.00 in1015.9 mb 0.00 in0.0 mm 0.00 in0.0 mm 0.00 in0.0 mm
08:31 AM 38.3°F3.5°C 28.4°F-2.0°C 66% 2.5 mph W4.0 kmh W 5.4 mph8.7 kmh 30.00 in1015.9 mb 0.00 in0.0 mm 0.00 in0.0 mm 0.00 in0.0 mm
08:30 AM 38.3°F3.5°C 28.4°F-2.0°C 66% 2.7 mph W4.3 kmh W 5.4 mph8.7 kmh 30.00 in1015.9 mb 0.00 in0.0 mm 0.00 in0.0 mm 0.00 in0.0 mm
08:29 AM 38.3°F3.5°C 28.4°F-2.0°C 66% 3.4 mph W5.5 kmh W 5.4 mph8.7 kmh 30.00 in1015.9 mb 0.00 in0.0 mm 0.00 in0.0 mm 0.00 in0.0 mm
08:28 AM 38.3°F3.5°C 28.4°F-2.0°C 66% 2.9 mph W4.7 kmh W 5.4 mph8.7 kmh 30.00 in1015.9 mb 0.00 in0.0 mm 0.00 in0.0 mm 0.00 in0.0 mm
08:27 AM 38.3°F3.5°C 28.4°F-2.0°C 66% 3.6 mph W5.8 kmh W 5.4 mph8.7 kmh 30.00 in1015.9 mb 0.00 in0.0 mm 0.00 in0.0 mm 0.00 in0.0 mm
08:26 AM 38.3°F3.5°C 28.4°F-2.0°C 66% 2.9 mph W4.7 kmh W 5.4 mph8.7 kmh 30.00 in1015.9 mb 0.00 in0.0 mm 0.00 in0.0 mm 0.00 in0.0 mm
08:25 AM 38.3°F3.5°C 28.4°F-2.0°C 66% 3.4 mph W5.5 kmh W 5.4 mph8.7 kmh 30.00 in1015.9 mb 0.00 in0.0 mm 0.00 in0.0 mm 0.00 in0.0 mm
08:24 AM 38.3°F3.5°C 28.4°F-2.0°C 66% 3.6 mph W5.8 kmh W 5.4 mph8.7 kmh 30.00 in1015.9 mb 0.00 in0.0 mm 0.00 in0.0 mm 0.00 in0.0 mm
08:23 AM 38.3°F3.5°C 28.4°F-2.0°C 66% 3.8 mph W6.1 kmh W 5.4 mph8.7 kmh 30.00 in1015.9 mb 0.00 in0.0 mm 0.00 in0.0 mm 0.00 in0.0 mm
08:22 AM 38.3°F3.5°C 28.4°F-2.0°C 66% 3.8 mph W6.1 kmh W 5.6 mph9.0 kmh 30.00 in1015.9 mb 0.00 in0.0 mm 0.00 in0.0 mm 0.00 in0.0 mm
08:21 AM 38.3°F3.5°C 28.4°F-2.0°C 66% 2.7 mph W4.3 kmh W 5.6 mph9.0 kmh 30.00 in1015.9 mb 0.00 in0.0 mm 0.00 in0.0 mm 0.00 in0.0 mm
08:20 AM 38.3°F3.5°C 28.4°F-2.0°C 66% 2.2 mph W3.5 kmh W 5.6 mph9.0 kmh 30.00 in1015.9 mb 0.00 in0.0 mm 0.00 in0.0 mm 0.00 in0.0 mm
08:19 AM 38.3°F3.5°C 28.4°F-2.0°C 66% 3.1 mph W5.0 kmh W 5.6 mph9.0 kmh 30.00 in1015.9 mb 0.00 in0.0 mm 0.00 in0.0 mm 0.00 in0.0 mm
08:18 AM 38.1°F3.4°C 28.4°F-2.0°C 66% 3.4 mph W5.5 kmh W 5.6 mph9.0 kmh 30.00 in1015.9 mb 0.00 in0.0 mm 0.00 in0.0 mm 0.00 in0.0 mm
08:17 AM 38.1°F3.4°C 28.4°F-2.0°C 66% 2.2 mph W3.5 kmh W 5.6 mph9.0 kmh 30.00 in1015.9 mb 0.00 in0.0 mm 0.00 in0.0 mm 0.00 in0.0 mm
08:16 AM 38.1°F3.4°C 28.4°F-2.0°C 66% 1.3 mph W2.1 kmh W 6.5 mph10.5 kmh 29.97 in1014.9 mb 0.00 in0.0 mm 0.00 in0.0 mm 0.00 in0.0 mm
08:15 AM 38.1°F3.4°C 28.4°F-2.0°C 66% 2.2 mph W3.5 kmh W 6.5 mph10.5 kmh 29.97 in1014.9 mb 0.00 in0.0 mm 0.00 in0.0 mm 0.00 in0.0 mm
08:14 AM 38.1°F3.4°C 28.4°F-2.0°C 66% 2.2 mph W3.5 kmh W 6.5 mph10.5 kmh 29.97 in1014.9 mb 0.00 in0.0 mm 0.00 in0.0 mm 0.00 in0.0 mm
08:13 AM 38.1°F3.4°C 28.4°F-2.0°C 66% 3.4 mph W5.5 kmh W 6.5 mph10.5 kmh 29.97 in1014.9 mb 0.00 in0.0 mm 0.00 in0.0 mm 0.00 in0.0 mm
08:12 AM 38.1°F3.4°C 28.4°F-2.0°C 66% 2.7 mph W4.3 kmh W 6.5 mph10.5 kmh 29.97 in1014.9 mb 0.00 in0.0 mm 0.00 in0.0 mm 0.00 in0.0 mm
08:11 AM 38.1°F3.4°C 28.4°F-2.0°C 66% 3.4 mph W5.5 kmh W 6.5 mph10.5 kmh 29.97 in1014.9 mb 0.00 in0.0 mm 0.00 in0.0 mm 0.00 in0.0 mm
08:10 AM 38.1°F3.4°C 28.4°F-2.0°C 66% 2.9 mph W4.7 kmh W 6.5 mph10.5 kmh 29.97 in1014.9 mb 0.00 in0.0 mm 0.00 in0.0 mm 0.00 in0.0 mm
08:09 AM 38.1°F3.4°C 28.4°F-2.0°C 66% 2.2 mph W3.5 kmh W 6.5 mph10.5 kmh 29.97 in1014.9 mb 0.00 in0.0 mm 0.00 in0.0 mm 0.00 in0.0 mm
08:08 AM 38.1°F3.4°C 28.4°F-2.0°C 65% 3.4 mph W5.5 kmh W 6.5 mph10.5 kmh 29.97 in1014.9 mb 0.00 in0.0 mm 0.00 in0.0 mm 0.00 in0.0 mm
08:07 AM 38.1°F3.4°C 28.4°F-2.0°C 65% 3.1 mph W5.0 kmh W 6.5 mph10.5 kmh 29.97 in1014.9 mb 0.00 in0.0 mm 0.00 in0.0 mm 0.00 in0.0 mm
08:06 AM 38.1°F3.4°C 28.4°F-2.0°C 65% 2.5 mph W4.0 kmh W 4.7 mph7.6 kmh 29.97 in1014.9 mb 0.00 in0.0 mm 0.00 in0.0 mm 0.00 in0.0 mm
08:05 AM 38.1°F3.4°C 28.4°F-2.0°C 65% 2.9 mph W4.7 kmh W 5.4 mph8.7 kmh 29.97 in1014.9 mb 0.00 in0.0 mm 0.00 in0.0 mm 0.00 in0.0 mm
08:04 AM 38.1°F3.4°C 28.4°F-2.0°C 65% 3.4 mph W5.5 kmh W 5.4 mph8.7 kmh 29.97 in1014.9 mb 0.00 in0.0 mm 0.00 in0.0 mm 0.00 in0.0 mm
08:03 AM 38.1°F3.4°C 28.4°F-2.0°C 65% 2.9 mph W4.7 kmh W 5.4 mph8.7 kmh 29.97 in1014.9 mb 0.00 in0.0 mm 0.00 in0.0 mm 0.00 in0.0 mm
08:02 AM 38.1°F3.4°C 28.4°F-2.0°C 65% 2.9 mph W4.7 kmh W 5.4 mph8.7 kmh 29.97 in1014.9 mb 0.00 in0.0 mm 0.00 in0.0 mm 0.00 in0.0 mm
08:01 AM 38.1°F3.4°C 28.4°F-2.0°C 65% 4.0 mph W6.4 kmh W 5.4 mph8.7 kmh 30.00 in1015.9 mb 0.00 in0.0 mm 0.00 in0.0 mm 0.00 in0.0 mm
08:00 AM 38.1°F3.4°C 28.4°F-2.0°C 65% 2.9 mph W4.7 kmh W 6.0 mph9.7 kmh 30.00 in1015.9 mb 0.00 in0.0 mm 0.00 in0.0 mm 0.00 in0.0 mm
07:59 AM 38.1°F3.4°C 28.4°F-2.0°C 65% 2.7 mph W4.3 kmh W 6.0 mph9.7 kmh 30.00 in1015.9 mb 0.00 in0.0 mm 0.00 in0.0 mm 0.00 in0.0 mm
07:58 AM 38.1°F3.4°C 28.4°F-2.0°C 65% 2.9 mph W4.7 kmh W 6.0 mph9.7 kmh 30.00 in1015.9 mb 0.00 in0.0 mm 0.00 in0.0 mm 0.00 in0.0 mm
07:57 AM 38.1°F3.4°C 28.4°F-2.0°C 65% 2.9 mph W4.7 kmh W 6.0 mph9.7 kmh 30.00 in1015.9 mb 0.00 in0.0 mm 0.00 in0.0 mm 0.00 in0.0 mm
07:56 AM 38.1°F3.4°C 28.4°F-2.0°C 65% 3.4 mph W5.5 kmh W 6.0 mph9.7 kmh 30.00 in1015.9 mb 0.00 in0.0 mm 0.00 in0.0 mm 0.00 in0.0 mm
07:55 AM 38.1°F3.4°C 28.4°F-2.0°C 65% 3.4 mph WSW5.5 kmh WSW 6.0 mph9.7 kmh 30.00 in1015.9 mb 0.00 in0.0 mm 0.00 in0.0 mm 0.00 in0.0 mm
07:54 AM 37.9°F3.3°C 28.4°F-2.0°C 65% 3.6 mph WSW5.8 kmh WSW 6.0 mph9.7 kmh 30.00 in1015.9 mb 0.00 in0.0 mm 0.00 in0.0 mm 0.00 in0.0 mm
07:53 AM 37.9°F3.3°C 28.4°F-2.0°C 65% 3.6 mph W5.8 kmh W 6.0 mph9.7 kmh 30.00 in1015.9 mb 0.00 in0.0 mm 0.00 in0.0 mm 0.00 in0.0 mm
07:52 AM 37.9°F3.3°C 28.4°F-2.0°C 65% 3.8 mph WSW6.1 kmh WSW 6.0 mph9.7 kmh 30.00 in1015.9 mb 0.00 in0.0 mm 0.00 in0.0 mm 0.00 in0.0 mm
07:51 AM 37.9°F3.3°C 28.4°F-2.0°C 65% 5.4 mph WSW8.7 kmh WSW 6.0 mph9.7 kmh 30.00 in1015.9 mb 0.00 in0.0 mm 0.00 in0.0 mm 0.00 in0.0 mm
07:50 AM 37.9°F3.3°C 28.4°F-2.0°C 65% 4.0 mph W6.4 kmh W 5.4 mph8.7 kmh 30.00 in1015.9 mb 0.00 in0.0 mm 0.00 in0.0 mm 0.00 in0.0 mm
07:49 AM 37.9°F3.3°C 28.4°F-2.0°C 65% 4.0 mph W6.4 kmh W 4.9 mph7.9 kmh 30.00 in1015.9 mb 0.00 in0.0 mm 0.00 in0.0 mm 0.00 in0.0 mm
07:48 AM 37.9°F3.3°C 28.4°F-2.0°C 65% 3.1 mph W5.0 kmh W 4.7 mph7.6 kmh 30.00 in1015.9 mb 0.00 in0.0 mm 0.00 in0.0 mm 0.00 in0.0 mm
07:47 AM 37.9°F3.3°C 28.4°F-2.0°C 65% 3.8 mph W6.1 kmh W 4.7 mph7.6 kmh 30.00 in1015.9 mb 0.00 in0.0 mm 0.00 in0.0 mm 0.00 in0.0 mm
07:46 AM 37.9°F3.3°C 28.4°F-2.0°C 65% 3.4 mph W5.5 kmh W 4.7 mph7.6 kmh 30.00 in1015.9 mb 0.00 in0.0 mm 0.00 in0.0 mm 0.00 in0.0 mm
07:45 AM 37.9°F3.3°C 28.4°F-2.0°C 65% 3.1 mph W5.0 kmh W 4.5 mph7.2 kmh 30.00 in1015.9 mb 0.00 in0.0 mm 0.00 in0.0 mm 0.00 in0.0 mm
07:44 AM 37.9°F3.3°C 28.4°F-2.0°C 65% 3.1 mph W5.0 kmh W 7.6 mph12.2 kmh 30.00 in1015.9 mb 0.00 in0.0 mm 0.00 in0.0 mm 0.00 in0.0 mm
07:43 AM 37.9°F3.3°C 28.4°F-2.0°C 65% 3.1 mph W5.0 kmh W 7.6 mph12.2 kmh 30.00 in1015.9 mb 0.00 in0.0 mm 0.00 in0.0 mm 0.00 in0.0 mm
07:42 AM 37.9°F3.3°C 28.4°F-2.0°C 65% 3.6 mph W5.8 kmh W 7.6 mph12.2 kmh 30.00 in1015.9 mb 0.00 in0.0 mm 0.00 in0.0 mm 0.00 in0.0 mm
07:41 AM 37.9°F3.3°C 28.4°F-2.0°C 65% 3.1 mph W5.0 kmh W 7.6 mph12.2 kmh 30.00 in1015.9 mb 0.00 in0.0 mm 0.00 in0.0 mm 0.00 in0.0 mm
07:40 AM 37.9°F3.3°C 28.4°F-2.0°C 65% 2.9 mph W4.7 kmh W 7.6 mph12.2 kmh 30.00 in1015.9 mb 0.00 in0.0 mm 0.00 in0.0 mm 0.00 in0.0 mm
07:39 AM 37.9°F3.3°C 28.4°F-2.0°C 65% 3.1 mph W5.0 kmh W 7.6 mph12.2 kmh 30.00 in1015.9 mb 0.00 in0.0 mm 0.00 in0.0 mm 0.00 in0.0 mm
07:38 AM 37.9°F3.3°C 28.4°F-2.0°C 65% 2.7 mph W4.3 kmh W 7.6 mph12.2 kmh 30.00 in1015.9 mb 0.00 in0.0 mm 0.00 in0.0 mm 0.00 in0.0 mm
07:37 AM 37.9°F3.3°C 28.4°F-2.0°C 65% 4.0 mph W6.4 kmh W 7.6 mph12.2 kmh 30.00 in1015.9 mb 0.00 in0.0 mm 0.00 in0.0 mm 0.00 in0.0 mm
07:36 AM 37.9°F3.3°C 28.4°F-2.0°C 65% 4.0 mph W6.4 kmh W 7.6 mph12.2 kmh 30.00 in1015.9 mb 0.00 in0.0 mm 0.00 in0.0 mm 0.00 in0.0 mm
07:35 AM 37.9°F3.3°C 28.4°F-2.0°C 65% 5.4 mph W8.7 kmh W 7.6 mph12.2 kmh 30.00 in1015.9 mb 0.00 in0.0 mm 0.00 in0.0 mm 0.00 in0.0 mm
07:34 AM 37.9°F3.3°C 28.4°F-2.0°C 65% 4.9 mph W7.9 kmh W 7.6 mph12.2 kmh 30.00 in1015.9 mb 0.00 in0.0 mm 0.00 in0.0 mm 0.00 in0.0 mm
07:33 AM 37.9°F3.3°C 28.4°F-2.0°C 65% 2.7 mph W4.3 kmh W 4.3 mph6.9 kmh 30.00 in1015.9 mb 0.00 in0.0 mm 0.00 in0.0 mm 0.00 in0.0 mm
07:32 AM 37.9°F3.3°C 28.4°F-2.0°C 65% 2.5 mph W4.0 kmh W 4.3 mph6.9 kmh 30.00 in1015.9 mb 0.00 in0.0 mm 0.00 in0.0 mm 0.00 in0.0 mm
07:31 AM 37.8°F3.2°C 28.4°F-2.0°C 65% 2.0 mph W3.2 kmh W 4.3 mph6.9 kmh 30.00 in1015.9 mb 0.00 in0.0 mm 0.00 in0.0 mm 0.00 in0.0 mm
07:30 AM 37.8°F3.2°C 28.4°F-2.0°C 65% 3.6 mph W5.8 kmh W 4.3 mph6.9 kmh 30.00 in1015.9 mb 0.00 in0.0 mm 0.00 in0.0 mm 0.00 in0.0 mm
07:29 AM 37.8°F3.2°C 28.4°F-2.0°C 65% 3.4 mph W5.5 kmh W 4.3 mph6.9 kmh 30.00 in1015.9 mb 0.00 in0.0 mm 0.00 in0.0 mm 0.00 in0.0 mm
07:28 AM 37.8°F3.2°C 28.4°F-2.0°C 65% 2.9 mph W4.7 kmh W 4.3 mph6.9 kmh 30.00 in1015.9 mb 0.00 in0.0 mm 0.00 in0.0 mm 0.00 in0.0 mm
07:27 AM 37.8°F3.2°C 28.4°F-2.0°C 65% 3.1 mph W5.0 kmh W 4.3 mph6.9 kmh 30.00 in1015.9 mb 0.00 in0.0 mm 0.00 in0.0 mm 0.00 in0.0 mm
07:26 AM 37.8°F3.2°C 28.4°F-2.0°C 65% 3.4 mph W5.5 kmh W 4.3 mph6.9 kmh 30.00 in1015.9 mb 0.00 in0.0 mm 0.00 in0.0 mm 0.00 in0.0 mm
07:25 AM 37.8°F3.2°C 28.4°F-2.0°C 65% 2.9 mph W4.7 kmh W 4.3 mph6.9 kmh 30.00 in1015.9 mb 0.00 in0.0 mm 0.00 in0.0 mm 0.00 in0.0 mm
07:24 AM 37.8°F3.2°C 28.4°F-2.0°C 65% 3.4 mph W5.5 kmh W 4.3 mph6.9 kmh 30.00 in1015.9 mb 0.00 in0.0 mm 0.00 in0.0 mm 0.00 in0.0 mm
07:23 AM 37.8°F3.2°C 28.4°F-2.0°C 65% 2.2 mph W3.5 kmh W 4.9 mph7.9 kmh 30.00 in1015.9 mb 0.00 in0.0 mm 0.00 in0.0 mm 0.00 in0.0 mm
07:22 AM 37.8°F3.2°C 28.4°F-2.0°C 65% 3.6 mph W5.8 kmh W 4.9 mph7.9 kmh 30.00 in1015.9 mb 0.00 in0.0 mm 0.00 in0.0 mm 0.00 in0.0 mm
07:21 AM 37.8°F3.2°C 28.4°F-2.0°C 65% 2.2 mph W3.5 kmh W 4.9 mph7.9 kmh 30.00 in1015.9 mb 0.00 in0.0 mm 0.00 in0.0 mm 0.00 in0.0 mm
07:20 AM 37.8°F3.2°C 28.4°F-2.0°C 65% 3.1 mph W5.0 kmh W 4.9 mph7.9 kmh 30.00 in1015.9 mb 0.00 in0.0 mm 0.00 in0.0 mm 0.00 in0.0 mm
07:19 AM 37.8°F3.2°C 26.6°F-3.0°C 64% 2.7 mph W4.3 kmh W 4.9 mph7.9 kmh 30.00 in1015.9 mb 0.00 in0.0 mm 0.00 in0.0 mm 0.00 in0.0 mm
07:18 AM 37.8°F3.2°C 28.4°F-2.0°C 65% 2.9 mph W4.7 kmh W 4.9 mph7.9 kmh 30.00 in1015.9 mb 0.00 in0.0 mm 0.00 in0.0 mm 0.00 in0.0 mm
07:17 AM 37.8°F3.2°C 28.4°F-2.0°C 65% 3.1 mph W5.0 kmh W 4.9 mph7.9 kmh 30.00 in1015.9 mb 0.00 in0.0 mm 0.00 in0.0 mm 0.00 in0.0 mm
07:16 AM 37.9°F3.3°C 26.6°F-3.0°C 64% 2.9 mph W4.7 kmh W 4.9 mph7.9 kmh 29.97 in1014.9 mb 0.00 in0.0 mm 0.00 in0.0 mm 0.00 in0.0 mm
07:15 AM 37.9°F3.3°C 26.6°F-3.0°C 64% 4.0 mph W6.4 kmh W 4.9 mph7.9 kmh 29.97 in1014.9 mb 0.00 in0.0 mm 0.00 in0.0 mm 0.00 in0.0 mm
07:14 AM 37.9°F3.3°C 26.6°F-3.0°C 64% 4.0 mph W6.4 kmh W 4.9 mph7.9 kmh 29.97 in1014.9 mb 0.00 in0.0 mm 0.00 in0.0 mm 0.00 in0.0 mm
07:13 AM 37.9°F3.3°C 26.6°F-3.0°C 64% 2.9 mph W4.7 kmh W 5.8 mph9.3 kmh 29.97 in1014.9 mb 0.00 in0.0 mm 0.00 in0.0 mm 0.00 in0.0 mm
07:12 AM 37.9°F3.3°C 26.6°F-3.0°C 64% 3.1 mph W5.0 kmh W 5.8 mph9.3 kmh 29.97 in1014.9 mb 0.00 in0.0 mm 0.00 in0.0 mm 0.00 in0.0 mm
07:11 AM 37.9°F3.3°C 26.6°F-3.0°C 64% 2.9 mph W4.7 kmh W 5.8 mph9.3 kmh 29.97 in1014.9 mb 0.00 in0.0 mm 0.00 in0.0 mm 0.00 in0.0 mm
07:10 AM 37.9°F3.3°C 26.6°F-3.0°C 64% 3.1 mph W5.0 kmh W 5.8 mph9.3 kmh 29.97 in1014.9 mb 0.00 in0.0 mm 0.00 in0.0 mm 0.00 in0.0 mm
07:09 AM 37.9°F3.3°C 26.6°F-3.0°C 64% 3.6 mph W5.8 kmh W 7.4 mph11.9 kmh 29.97 in1014.9 mb 0.00 in0.0 mm 0.00 in0.0 mm 0.00 in0.0 mm
07:08 AM 37.9°F3.3°C 26.6°F-3.0°C 64% 3.1 mph W5.0 kmh W 7.4 mph11.9 kmh 29.97 in1014.9 mb 0.00 in0.0 mm 0.00 in0.0 mm 0.00 in0.0 mm
07:07 AM 37.9°F3.3°C 26.6°F-3.0°C 64% 4.0 mph W6.4 kmh W 7.4 mph11.9 kmh 29.97 in1014.9 mb 0.00 in0.0 mm 0.00 in0.0 mm 0.00 in0.0 mm
07:06 AM 37.9°F3.3°C 26.6°F-3.0°C 64% 3.1 mph W5.0 kmh W 7.4 mph11.9 kmh 29.97 in1014.9 mb 0.00 in0.0 mm 0.00 in0.0 mm 0.00 in0.0 mm
07:05 AM 37.9°F3.3°C 26.6°F-3.0°C 64% 3.6 mph W5.8 kmh W 7.4 mph11.9 kmh 29.97 in1014.9 mb 0.00 in0.0 mm 0.00 in0.0 mm 0.00 in0.0 mm
07:04 AM 37.9°F3.3°C 26.6°F-3.0°C 64% 4.0 mph W6.4 kmh W 7.4 mph11.9 kmh 29.97 in1014.9 mb 0.00 in0.0 mm 0.00 in0.0 mm 0.00 in0.0 mm
07:03 AM 37.9°F3.3°C 26.6°F-3.0°C 64% 2.9 mph W4.7 kmh W 7.4 mph11.9 kmh 29.97 in1014.9 mb 0.00 in0.0 mm 0.00 in0.0 mm 0.00 in0.0 mm
07:02 AM 37.9°F3.3°C 26.6°F-3.0°C 63% 2.5 mph W4.0 kmh W 7.4 mph11.9 kmh 29.97 in1014.9 mb 0.00 in0.0 mm 0.00 in0.0 mm 0.00 in0.0 mm
07:01 AM 37.9°F3.3°C 26.6°F-3.0°C 63% 4.3 mph W6.9 kmh W 7.4 mph11.9 kmh 29.97 in1014.9 mb 0.00 in0.0 mm 0.00 in0.0 mm 0.00 in0.0 mm
07:00 AM 37.9°F3.3°C 26.6°F-3.0°C 63% 4.7 mph W7.6 kmh W 7.4 mph11.9 kmh 29.97 in1014.9 mb 0.00 in0.0 mm 0.00 in0.0 mm 0.00 in0.0 mm
06:59 AM 37.9°F3.3°C 26.6°F-3.0°C 63% 3.1 mph W5.0 kmh W 6.3 mph10.1 kmh 29.97 in1014.9 mb 0.00 in0.0 mm 0.00 in0.0 mm 0.00 in0.0 mm
06:58 AM 37.9°F3.3°C 26.6°F-3.0°C 63% 2.9 mph W4.7 kmh W 6.3 mph10.1 kmh 29.97 in1014.9 mb 0.00 in0.0 mm 0.00 in0.0 mm 0.00 in0.0 mm
06:57 AM 37.9°F3.3°C 26.6°F-3.0°C 63% 2.9 mph W4.7 kmh W 6.3 mph10.1 kmh 29.97 in1014.9 mb 0.00 in0.0 mm 0.00 in0.0 mm 0.00 in0.0 mm
06:56 AM 37.9°F3.3°C 26.6°F-3.0°C 63% 4.0 mph W6.4 kmh W 6.3 mph10.1 kmh 29.97 in1014.9 mb 0.00 in0.0 mm 0.00 in0.0 mm 0.00 in0.0 mm
06:55 AM 37.9°F3.3°C 26.6°F-3.0°C 63% 4.7 mph W7.6 kmh W 6.5 mph10.5 kmh 29.97 in1014.9 mb 0.00 in0.0 mm 0.00 in0.0 mm 0.00 in0.0 mm
06:54 AM 37.9°F3.3°C 26.6°F-3.0°C 63% 4.0 mph W6.4 kmh W 6.5 mph10.5 kmh 29.97 in1014.9 mb 0.00 in0.0 mm 0.00 in0.0 mm 0.00 in0.0 mm
06:53 AM 37.9°F3.3°C 26.6°F-3.0°C 63% 3.4 mph W5.5 kmh W 6.5 mph10.5 kmh 29.97 in1014.9 mb 0.00 in0.0 mm 0.00 in0.0 mm 0.00 in0.0 mm
06:52 AM 37.9°F3.3°C 26.6°F-3.0°C 63% 2.9 mph W4.7 kmh W 6.5 mph10.5 kmh 29.97 in1014.9 mb 0.00 in0.0 mm 0.00 in0.0 mm 0.00 in0.0 mm
06:51 AM 37.9°F3.3°C 26.6°F-3.0°C 63% 4.0 mph W6.4 kmh W 6.5 mph10.5 kmh 29.97 in1014.9 mb 0.00 in0.0 mm 0.00 in0.0 mm 0.00 in0.0 mm
06:50 AM 37.9°F3.3°C 26.6°F-3.0°C 63% 4.5 mph W7.2 kmh W 6.5 mph10.5 kmh 29.97 in1014.9 mb 0.00 in0.0 mm 0.00 in0.0 mm 0.00 in0.0 mm
06:49 AM 37.9°F3.3°C 26.6°F-3.0°C 63% 3.8 mph W6.1 kmh W 6.5 mph10.5 kmh 29.97 in1014.9 mb 0.00 in0.0 mm 0.00 in0.0 mm 0.00 in0.0 mm
06:48 AM 38.1°F3.4°C 26.6°F-3.0°C 63% 3.6 mph W5.8 kmh W 6.5 mph10.5 kmh 29.97 in1014.9 mb 0.00 in0.0 mm 0.00 in0.0 mm 0.00 in0.0 mm
06:47 AM 38.1°F3.4°C 26.6°F-3.0°C 63% 3.4 mph W5.5 kmh W 6.5 mph10.5 kmh 29.97 in1014.9 mb 0.00 in0.0 mm 0.00 in0.0 mm 0.00 in0.0 mm
06:46 AM 38.1°F3.4°C 26.6°F-3.0°C 63% 4.7 mph W7.6 kmh W 6.5 mph10.5 kmh 29.94 in1013.9 mb 0.00 in0.0 mm 0.00 in0.0 mm 0.00 in0.0 mm
06:45 AM 38.1°F3.4°C 26.6°F-3.0°C 63% 4.3 mph W6.9 kmh W 6.5 mph10.5 kmh 29.94 in1013.9 mb 0.00 in0.0 mm 0.00 in0.0 mm 0.00 in0.0 mm
06:44 AM 38.1°F3.4°C 26.6°F-3.0°C 63% 5.4 mph W8.7 kmh W 6.5 mph10.5 kmh 29.94 in1013.9 mb 0.00 in0.0 mm 0.00 in0.0 mm 0.00 in0.0 mm
06:43 AM 38.1°F3.4°C 26.6°F-3.0°C 63% 5.4 mph W8.7 kmh W 6.5 mph10.5 kmh 29.94 in1013.9 mb 0.00 in0.0 mm 0.00 in0.0 mm 0.00 in0.0 mm
06:42 AM 38.1°F3.4°C 26.6°F-3.0°C 63% 4.5 mph W7.2 kmh W 6.5 mph10.5 kmh 29.94 in1013.9 mb 0.00 in0.0 mm 0.00 in0.0 mm 0.00 in0.0 mm
06:41 AM 38.1°F3.4°C 26.6°F-3.0°C 63% 4.0 mph W6.4 kmh W 6.5 mph10.5 kmh 29.94 in1013.9 mb 0.00 in0.0 mm 0.00 in0.0 mm 0.00 in0.0 mm
06:40 AM 38.1°F3.4°C 26.6°F-3.0°C 63% 4.7 mph W7.6 kmh W 6.5 mph10.5 kmh 29.94 in1013.9 mb 0.00 in0.0 mm 0.00 in0.0 mm 0.00 in0.0 mm
06:39 AM 38.1°F3.4°C 26.6°F-3.0°C 63% 3.8 mph W6.1 kmh W 6.5 mph10.5 kmh 29.94 in1013.9 mb 0.00 in0.0 mm 0.00 in0.0 mm 0.00 in0.0 mm
06:38 AM 38.1°F3.4°C 26.6°F-3.0°C 63% 4.7 mph W7.6 kmh W 6.5 mph10.5 kmh 29.94 in1013.9 mb 0.00 in0.0 mm 0.00 in0.0 mm 0.00 in0.0 mm
06:37 AM 38.1°F3.4°C 26.6°F-3.0°C 63% 4.9 mph W7.9 kmh W 6.5 mph10.5 kmh 29.94 in1013.9 mb 0.00 in0.0 mm 0.00 in0.0 mm 0.00 in0.0 mm
06:36 AM 38.1°F3.4°C 26.6°F-3.0°C 63% 3.8 mph W6.1 kmh W 7.2 mph11.6 kmh 29.94 in1013.9 mb 0.00 in0.0 mm 0.00 in0.0 mm 0.00 in0.0 mm
06:35 AM 38.1°F3.4°C 26.6°F-3.0°C 63% 4.3 mph W6.9 kmh W 7.2 mph11.6 kmh 29.94 in1013.9 mb 0.00 in0.0 mm 0.00 in0.0 mm 0.00 in0.0 mm
06:34 AM 38.3°F3.5°C 28.4°F-2.0°C 64% 4.9 mph W7.9 kmh W 7.2 mph11.6 kmh 29.94 in1013.9 mb 0.00 in0.0 mm 0.00 in0.0 mm 0.00 in0.0 mm
06:33 AM 38.3°F3.5°C 28.4°F-2.0°C 64% 4.7 mph W7.6 kmh W 7.8 mph12.6 kmh 29.94 in1013.9 mb 0.00 in0.0 mm 0.00 in0.0 mm 0.00 in0.0 mm
06:32 AM 38.3°F3.5°C 28.4°F-2.0°C 64% 4.0 mph W6.4 kmh W 7.8 mph12.6 kmh 29.94 in1013.9 mb 0.00 in0.0 mm 0.00 in0.0 mm 0.00 in0.0 mm
06:31 AM 38.3°F3.5°C 28.4°F-2.0°C 64% 4.0 mph W6.4 kmh W 7.8 mph12.6 kmh 29.94 in1013.9 mb 0.00 in0.0 mm 0.00 in0.0 mm 0.00 in0.0 mm
06:30 AM 38.3°F3.5°C 28.4°F-2.0°C 64% 3.1 mph W5.0 kmh W 7.8 mph12.6 kmh 29.94 in1013.9 mb 0.00 in0.0 mm 0.00 in0.0 mm 0.00 in0.0 mm
06:29 AM 38.3°F3.5°C 26.6°F-3.0°C 63% 3.6 mph W5.8 kmh W 7.8 mph12.6 kmh 29.94 in1013.9 mb 0.00 in0.0 mm 0.00 in0.0 mm 0.00 in0.0 mm
06:28 AM 38.3°F3.5°C 26.6°F-3.0°C 63% 4.5 mph W7.2 kmh W 7.8 mph12.6 kmh 29.94 in1013.9 mb 0.00 in0.0 mm 0.00 in0.0 mm 0.00 in0.0 mm
06:27 AM 38.3°F3.5°C 26.6°F-3.0°C 63% 5.6 mph W9.0 kmh W 7.8 mph12.6 kmh 29.94 in1013.9 mb 0.00 in0.0 mm 0.00 in0.0 mm 0.00 in0.0 mm
06:26 AM 38.3°F3.5°C 26.6°F-3.0°C 63% 4.7 mph W7.6 kmh W 7.8 mph12.6 kmh 29.94 in1013.9 mb 0.00 in0.0 mm 0.00 in0.0 mm 0.00 in0.0 mm
06:25 AM 38.3°F3.5°C 28.4°F-2.0°C 64% 5.4 mph W8.7 kmh W 7.8 mph12.6 kmh 29.94 in1013.9 mb 0.00 in0.0 mm 0.00 in0.0 mm 0.00 in0.0 mm
06:24 AM 38.3°F3.5°C 28.4°F-2.0°C 64% 5.4 mph W8.7 kmh W 7.8 mph12.6 kmh 29.94 in1013.9 mb 0.00 in0.0 mm 0.00 in0.0 mm 0.00 in0.0 mm
06:23 AM 38.3°F3.5°C 28.4°F-2.0°C 64% 4.7 mph W7.6 kmh W 6.9 mph11.1 kmh 29.94 in1013.9 mb 0.00 in0.0 mm 0.00 in0.0 mm 0.00 in0.0 mm
06:22 AM 38.3°F3.5°C 28.4°F-2.0°C 64% 3.6 mph W5.8 kmh W 6.9 mph11.1 kmh 29.94 in1013.9 mb 0.00 in0.0 mm 0.00 in0.0 mm 0.00 in0.0 mm
06:21 AM 38.3°F3.5°C 28.4°F-2.0°C 64% 4.0 mph W6.4 kmh W 6.9 mph11.1 kmh 29.94 in1013.9 mb 0.00 in0.0 mm 0.00 in0.0 mm 0.00 in0.0 mm
06:20 AM 38.3°F3.5°C 28.4°F-2.0°C 64% 3.8 mph W6.1 kmh W 6.9 mph11.1 kmh 29.94 in1013.9 mb 0.00 in0.0 mm 0.00 in0.0 mm 0.00 in0.0 mm
06:19 AM 38.3°F3.5°C 28.4°F-2.0°C 64% 4.3 mph W6.9 kmh W 6.9 mph11.1 kmh 29.94 in1013.9 mb 0.00 in0.0 mm 0.00 in0.0 mm 0.00 in0.0 mm
06:18 AM 38.3°F3.5°C 28.4°F-2.0°C 64% 5.8 mph W9.3 kmh W 6.9 mph11.1 kmh 29.94 in1013.9 mb 0.00 in0.0 mm 0.00 in0.0 mm 0.00 in0.0 mm
06:17 AM 38.3°F3.5°C 28.4°F-2.0°C 64% 5.4 mph W8.7 kmh W 6.9 mph11.1 kmh 29.94 in1013.9 mb 0.00 in0.0 mm 0.00 in0.0 mm 0.00 in0.0 mm
06:16 AM 38.3°F3.5°C 28.4°F-2.0°C 64% 4.5 mph W7.2 kmh W 6.9 mph11.1 kmh 29.94 in1013.9 mb 0.00 in0.0 mm 0.00 in0.0 mm 0.00 in0.0 mm
06:15 AM 38.3°F3.5°C 28.4°F-2.0°C 64% 4.7 mph W7.6 kmh W 6.9 mph11.1 kmh 29.94 in1013.9 mb 0.00 in0.0 mm 0.00 in0.0 mm 0.00 in0.0 mm
06:14 AM 38.3°F3.5°C 28.4°F-2.0°C 64% 4.0 mph WSW6.4 kmh WSW 6.9 mph11.1 kmh 29.94 in1013.9 mb 0.00 in0.0 mm 0.00 in0.0 mm 0.00 in0.0 mm
06:13 AM 38.3°F3.5°C 28.4°F-2.0°C 64% 3.4 mph WSW5.5 kmh WSW 5.6 mph9.0 kmh 29.94 in1013.9 mb 0.00 in0.0 mm 0.00 in0.0 mm 0.00 in0.0 mm
06:12 AM 38.3°F3.5°C 28.4°F-2.0°C 64% 3.6 mph WSW5.8 kmh WSW 5.6 mph9.0 kmh 29.94 in1013.9 mb 0.00 in0.0 mm 0.00 in0.0 mm 0.00 in0.0 mm
06:11 AM 38.3°F3.5°C 26.6°F-3.0°C 63% 3.6 mph WSW5.8 kmh WSW 6.5 mph10.5 kmh 29.94 in1013.9 mb 0.00 in0.0 mm 0.00 in0.0 mm 0.00 in0.0 mm
06:10 AM 38.5°F3.6°C 26.6°F-3.0°C 63% 3.6 mph WSW5.8 kmh WSW 6.5 mph10.5 kmh 29.94 in1013.9 mb 0.00 in0.0 mm 0.00 in0.0 mm 0.00 in0.0 mm
06:09 AM 38.5°F3.6°C 26.6°F-3.0°C 63% 3.8 mph WSW6.1 kmh WSW 6.5 mph10.5 kmh 29.94 in1013.9 mb 0.00 in0.0 mm 0.00 in0.0 mm 0.00 in0.0 mm
06:08 AM 38.5°F3.6°C 26.6°F-3.0°C 63% 4.3 mph WSW6.9 kmh WSW 6.5 mph10.5 kmh 29.94 in1013.9 mb 0.00 in0.0 mm 0.00 in0.0 mm 0.00 in0.0 mm
06:07 AM 38.5°F3.6°C 26.6°F-3.0°C 63% 4.3 mph WSW6.9 kmh WSW 6.5 mph10.5 kmh 29.94 in1013.9 mb 0.00 in0.0 mm 0.00 in0.0 mm 0.00 in0.0 mm
06:06 AM 38.5°F3.6°C 26.6°F-3.0°C 63% 4.0 mph W6.4 kmh W 6.5 mph10.5 kmh 29.94 in1013.9 mb 0.00 in0.0 mm 0.00 in0.0 mm 0.00 in0.0 mm
06:05 AM 38.5°F3.6°C 26.6°F-3.0°C 63% 4.0 mph WSW6.4 kmh WSW 6.5 mph10.5 kmh 29.94 in1013.9 mb 0.00 in0.0 mm 0.00 in0.0 mm 0.00 in0.0 mm
06:04 AM 38.5°F3.6°C 26.6°F-3.0°C 63% 3.6 mph W5.8 kmh W 6.5 mph10.5 kmh 29.94 in1013.9 mb 0.00 in0.0 mm 0.00 in0.0 mm 0.00 in0.0 mm
06:03 AM 38.5°F3.6°C 26.6°F-3.0°C 62% 3.6 mph W5.8 kmh W 6.5 mph10.5 kmh 29.94 in1013.9 mb 0.00 in0.0 mm 0.00 in0.0 mm 0.00 in0.0 mm
06:02 AM 38.3°F3.5°C 26.6°F-3.0°C 62% 5.6 mph W9.0 kmh W 6.5 mph10.5 kmh 29.94 in1013.9 mb 0.00 in0.0 mm 0.00 in0.0 mm 0.00 in0.0 mm
06:01 AM 38.3°F3.5°C 26.6°F-3.0°C 62% 4.3 mph W6.9 kmh W 7.6 mph12.2 kmh 29.94 in1013.9 mb 0.00 in0.0 mm 0.00 in0.0 mm 0.00 in0.0 mm
06:00 AM 38.3°F3.5°C 26.6°F-3.0°C 62% 4.7 mph W7.6 kmh W 7.6 mph12.2 kmh 29.94 in1013.9 mb 0.00 in0.0 mm 0.00 in0.0 mm 0.00 in0.0 mm
05:59 AM 38.5°F3.6°C 26.6°F-3.0°C 62% 3.8 mph W6.1 kmh W 7.6 mph12.2 kmh 29.94 in1013.9 mb 0.00 in0.0 mm 0.00 in0.0 mm 0.00 in0.0 mm
05:58 AM 38.5°F3.6°C 26.6°F-3.0°C 62% 4.3 mph WNW6.9 kmh WNW 7.6 mph12.2 kmh 29.94 in1013.9 mb 0.00 in0.0 mm 0.00 in0.0 mm 0.00 in0.0 mm
05:57 AM 38.5°F3.6°C 26.6°F-3.0°C 62% 3.1 mph WNW5.0 kmh WNW 7.6 mph12.2 kmh 29.94 in1013.9 mb 0.00 in0.0 mm 0.00 in0.0 mm 0.00 in0.0 mm
05:56 AM 38.5°F3.6°C 26.6°F-3.0°C 62% 3.6 mph WNW5.8 kmh WNW 7.6 mph12.2 kmh 29.94 in1013.9 mb 0.00 in0.0 mm 0.00 in0.0 mm 0.00 in0.0 mm
05:55 AM 38.5°F3.6°C 26.6°F-3.0°C 62% 3.4 mph WNW5.5 kmh WNW 7.6 mph12.2 kmh 29.94 in1013.9 mb 0.00 in0.0 mm 0.00 in0.0 mm 0.00 in0.0 mm
05:54 AM 38.5°F3.6°C 26.6°F-3.0°C 62% 3.4 mph NW5.5 kmh NW 7.6 mph12.2 kmh 29.94 in1013.9 mb 0.00 in0.0 mm 0.00 in0.0 mm 0.00 in0.0 mm
05:53 AM 38.5°F3.6°C 26.6°F-3.0°C 62% 5.6 mph NW9.0 kmh NW 7.6 mph12.2 kmh 29.94 in1013.9 mb 0.00 in0.0 mm 0.00 in0.0 mm 0.00 in0.0 mm
05:52 AM 38.5°F3.6°C 26.6°F-3.0°C 63% 4.0 mph NW6.4 kmh NW 7.6 mph12.2 kmh 29.94 in1013.9 mb 0.00 in0.0 mm 0.00 in0.0 mm 0.00 in0.0 mm
05:51 AM 38.5°F3.6°C 26.6°F-3.0°C 63% 2.9 mph NW4.7 kmh NW 8.1 mph13.0 kmh 29.94 in1013.9 mb 0.00 in0.0 mm 0.00 in0.0 mm 0.00 in0.0 mm
05:50 AM 38.5°F3.6°C 26.6°F-3.0°C 63% 3.1 mph NW5.0 kmh NW 8.1 mph13.0 kmh 29.94 in1013.9 mb 0.00 in0.0 mm 0.00 in0.0 mm 0.00 in0.0 mm
05:49 AM 38.5°F3.6°C 26.6°F-3.0°C 63% 3.8 mph NW6.1 kmh NW 8.1 mph13.0 kmh 29.94 in1013.9 mb 0.00 in0.0 mm 0.00 in0.0 mm 0.00 in0.0 mm
05:48 AM 38.5°F3.6°C 26.6°F-3.0°C 63% 3.4 mph WNW5.5 kmh WNW 8.1 mph13.0 kmh 29.94 in1013.9 mb 0.00 in0.0 mm 0.00 in0.0 mm 0.00 in0.0 mm
05:47 AM 38.5°F3.6°C 26.6°F-3.0°C 63% 2.9 mph WNW4.7 kmh WNW 8.1 mph13.0 kmh 29.94 in1013.9 mb 0.00 in0.0 mm 0.00 in0.0 mm 0.00 in0.0 mm
05:46 AM 38.5°F3.6°C 26.6°F-3.0°C 63% 3.1 mph WNW5.0 kmh WNW 8.1 mph13.0 kmh 29.91 in1012.9 mb 0.00 in0.0 mm 0.00 in0.0 mm 0.00 in0.0 mm
05:45 AM 38.5°F3.6°C 26.6°F-3.0°C 63% 3.1 mph WNW5.0 kmh WNW 8.1 mph13.0 kmh 29.91 in1012.9 mb 0.00 in0.0 mm 0.00 in0.0 mm 0.00 in0.0 mm
05:44 AM 38.5°F3.6°C 26.6°F-3.0°C 63% 4.5 mph WNW7.2 kmh WNW 8.1 mph13.0 kmh 29.91 in1012.9 mb 0.00 in0.0 mm 0.00 in0.0 mm 0.00 in0.0 mm
05:43 AM 38.5°F3.6°C 28.4°F-2.0°C 64% 4.0 mph W6.4 kmh W 8.1 mph13.0 kmh 29.91 in1012.9 mb 0.00 in0.0 mm 0.00 in0.0 mm 0.00 in0.0 mm
05:42 AM 38.5°F3.6°C 28.4°F-2.0°C 64% 5.4 mph W8.7 kmh W 8.1 mph13.0 kmh 29.91 in1012.9 mb 0.00 in0.0 mm 0.00 in0.0 mm 0.00 in0.0 mm
05:41 AM 38.5°F3.6°C 28.4°F-2.0°C 64% 3.8 mph W6.1 kmh W 8.1 mph13.0 kmh 29.91 in1012.9 mb 0.00 in0.0 mm 0.00 in0.0 mm 0.00 in0.0 mm
05:40 AM 38.5°F3.6°C 28.4°F-2.0°C 64% 3.8 mph W6.1 kmh W 8.1 mph13.0 kmh 29.91 in1012.9 mb 0.00 in0.0 mm 0.00 in0.0 mm 0.00 in0.0 mm
05:39 AM 38.5°F3.6°C 28.4°F-2.0°C 64% 6.0 mph W9.7 kmh W 8.1 mph13.0 kmh 29.91 in1012.9 mb 0.00 in0.0 mm 0.00 in0.0 mm 0.00 in0.0 mm
05:38 AM 38.5°F3.6°C 28.4°F-2.0°C 64% 4.9 mph W7.9 kmh W 7.8 mph12.6 kmh 29.91 in1012.9 mb 0.00 in0.0 mm 0.00 in0.0 mm 0.00 in0.0 mm
05:37 AM 38.5°F3.6°C 28.4°F-2.0°C 65% 3.1 mph W5.0 kmh W 6.5 mph10.5 kmh 29.91 in1012.9 mb 0.00 in0.0 mm 0.00 in0.0 mm 0.00 in0.0 mm
05:36 AM 38.5°F3.6°C 28.4°F-2.0°C 65% 3.4 mph W5.5 kmh W 6.5 mph10.5 kmh 29.91 in1012.9 mb 0.00 in0.0 mm 0.00 in0.0 mm 0.00 in0.0 mm
05:35 AM 38.5°F3.6°C 28.4°F-2.0°C 65% 4.5 mph W7.2 kmh W 6.5 mph10.5 kmh 29.91 in1012.9 mb 0.00 in0.0 mm 0.00 in0.0 mm 0.00 in0.0 mm
05:34 AM 38.5°F3.6°C 28.4°F-2.0°C 65% 4.5 mph W7.2 kmh W 6.5 mph10.5 kmh 29.91 in1012.9 mb 0.00 in0.0 mm 0.00 in0.0 mm 0.00 in0.0 mm
05:33 AM 38.5°F3.6°C 28.4°F-2.0°C 65% 4.3 mph W6.9 kmh W 6.5 mph10.5 kmh 29.91 in1012.9 mb 0.00 in0.0 mm 0.00 in0.0 mm 0.00 in0.0 mm
05:32 AM 38.7°F3.7°C 28.4°F-2.0°C 65% 2.9 mph W4.7 kmh W 6.5 mph10.5 kmh 29.91 in1012.9 mb 0.00 in0.0 mm 0.00 in0.0 mm 0.00 in0.0 mm
05:31 AM 38.7°F3.7°C 28.4°F-2.0°C 65% 3.6 mph W5.8 kmh W 6.5 mph10.5 kmh 29.94 in1013.9 mb 0.00 in0.0 mm 0.00 in0.0 mm 0.00 in0.0 mm
05:30 AM 38.7°F3.7°C 28.4°F-2.0°C 65% 3.4 mph W5.5 kmh W 6.5 mph10.5 kmh 29.94 in1013.9 mb 0.00 in0.0 mm 0.00 in0.0 mm 0.00 in0.0 mm
05:29 AM 38.7°F3.7°C 28.4°F-2.0°C 65% 4.0 mph W6.4 kmh W 6.5 mph10.5 kmh 29.94 in1013.9 mb 0.00 in0.0 mm 0.00 in0.0 mm 0.00 in0.0 mm
05:28 AM 38.7°F3.7°C 28.4°F-2.0°C 65% 4.7 mph W7.6 kmh W 6.5 mph10.5 kmh 29.94 in1013.9 mb 0.00 in0.0 mm 0.00 in0.0 mm 0.00 in0.0 mm
05:27 AM 38.7°F3.7°C 28.4°F-2.0°C 65% 3.8 mph W6.1 kmh W 6.5 mph10.5 kmh 29.94 in1013.9 mb 0.00 in0.0 mm 0.00 in0.0 mm 0.00 in0.0 mm
05:26 AM 38.7°F3.7°C 28.4°F-2.0°C 65% 5.4 mph W8.7 kmh W 6.5 mph10.5 kmh 29.94 in1013.9 mb 0.00 in0.0 mm 0.00 in0.0 mm 0.00 in0.0 mm
05:25 AM 38.7°F3.7°C 28.4°F-2.0°C 65% 4.7 mph W7.6 kmh W 8.5 mph13.7 kmh 29.94 in1013.9 mb 0.00 in0.0 mm 0.00 in0.0 mm 0.00 in0.0 mm
05:24 AM 38.7°F3.7°C 28.4°F-2.0°C 65% 4.3 mph WSW6.9 kmh WSW 8.7 mph14.0 kmh 29.94 in1013.9 mb 0.00 in0.0 mm 0.00 in0.0 mm 0.00 in0.0 mm
05:23 AM 38.7°F3.7°C 28.4°F-2.0°C 65% 4.3 mph W6.9 kmh W 8.7 mph14.0 kmh 29.94 in1013.9 mb 0.00 in0.0 mm 0.00 in0.0 mm 0.00 in0.0 mm
05:22 AM 38.7°F3.7°C 28.4°F-2.0°C 65% 4.3 mph W6.9 kmh W 8.7 mph14.0 kmh 29.94 in1013.9 mb 0.00 in0.0 mm 0.00 in0.0 mm 0.00 in0.0 mm
05:21 AM 38.7°F3.7°C 28.4°F-2.0°C 65% 4.3 mph W6.9 kmh W 8.7 mph14.0 kmh 29.94 in1013.9 mb 0.00 in0.0 mm 0.00 in0.0 mm 0.00 in0.0 mm
05:20 AM 38.7°F3.7°C 28.4°F-2.0°C 65% 4.7 mph W7.6 kmh W 8.7 mph14.0 kmh 29.94 in1013.9 mb 0.00 in0.0 mm 0.00 in0.0 mm 0.00 in0.0 mm
05:19 AM 38.7°F3.7°C 28.4°F-2.0°C 65% 4.3 mph W6.9 kmh W 8.7 mph14.0 kmh 29.94 in1013.9 mb 0.00 in0.0 mm 0.00 in0.0 mm 0.00 in0.0 mm
05:18 AM 38.7°F3.7°C 28.4°F-2.0°C 65% 5.8 mph W9.3 kmh W 8.7 mph14.0 kmh 29.94 in1013.9 mb 0.00 in0.0 mm 0.00 in0.0 mm 0.00 in0.0 mm
05:17 AM 38.7°F3.7°C 28.4°F-2.0°C 65% 4.5 mph W7.2 kmh W 8.7 mph14.0 kmh 29.94 in1013.9 mb 0.00 in0.0 mm 0.00 in0.0 mm 0.00 in0.0 mm
05:16 AM 38.7°F3.7°C 28.4°F-2.0°C 65% 6.5 mph W10.5 kmh W 8.7 mph14.0 kmh 29.94 in1013.9 mb 0.00 in0.0 mm 0.00 in0.0 mm 0.00 in0.0 mm
05:15 AM 38.7°F3.7°C 28.4°F-2.0°C 66% 6.5 mph W10.5 kmh W 8.7 mph14.0 kmh 29.94 in1013.9 mb 0.00 in0.0 mm 0.00 in0.0 mm 0.00 in0.0 mm
05:14 AM 38.7°F3.7°C 28.4°F-2.0°C 66% 4.3 mph W6.9 kmh W 6.3 mph10.1 kmh 29.94 in1013.9 mb 0.00 in0.0 mm 0.00 in0.0 mm 0.00 in0.0 mm
05:13 AM 38.7°F3.7°C 28.4°F-2.0°C 66% 3.6 mph W5.8 kmh W 6.3 mph10.1 kmh 29.94 in1013.9 mb 0.00 in0.0 mm 0.00 in0.0 mm 0.00 in0.0 mm
05:12 AM 38.7°F3.7°C 28.4°F-2.0°C 66% 5.4 mph W8.7 kmh W 6.3 mph10.1 kmh 29.94 in1013.9 mb 0.00 in0.0 mm 0.00 in0.0 mm 0.00 in0.0 mm
05:11 AM 38.7°F3.7°C 28.4°F-2.0°C 66% 3.1 mph W5.0 kmh W 6.5 mph10.5 kmh 29.94 in1013.9 mb 0.00 in0.0 mm 0.00 in0.0 mm 0.00 in0.0 mm
05:10 AM 38.7°F3.7°C 28.4°F-2.0°C 66% 4.5 mph WNW7.2 kmh WNW 6.5 mph10.5 kmh 29.94 in1013.9 mb 0.00 in0.0 mm 0.00 in0.0 mm 0.00 in0.0 mm
05:09 AM 38.7°F3.7°C 28.4°F-2.0°C 66% 4.3 mph WNW6.9 kmh WNW 6.5 mph10.5 kmh 29.94 in1013.9 mb 0.00 in0.0 mm 0.00 in0.0 mm 0.00 in0.0 mm
05:08 AM 38.7°F3.7°C 28.4°F-2.0°C 66% 4.0 mph WNW6.4 kmh WNW 6.5 mph10.5 kmh 29.94 in1013.9 mb 0.00 in0.0 mm 0.00 in0.0 mm 0.00 in0.0 mm
05:07 AM 38.7°F3.7°C 28.4°F-2.0°C 67% 4.3 mph W6.9 kmh W 6.5 mph10.5 kmh 29.94 in1013.9 mb 0.00 in0.0 mm 0.00 in0.0 mm 0.00 in0.0 mm
05:06 AM 38.8°F3.8°C 28.4°F-2.0°C 67% 3.1 mph W5.0 kmh W 7.8 mph12.6 kmh 29.94 in1013.9 mb 0.00 in0.0 mm 0.00 in0.0 mm 0.00 in0.0 mm
05:05 AM 38.8°F3.8°C 28.4°F-2.0°C 67% 4.3 mph W6.9 kmh W 7.8 mph12.6 kmh 29.94 in1013.9 mb 0.00 in0.0 mm 0.00 in0.0 mm 0.00 in0.0 mm
05:04 AM 38.8°F3.8°C 28.4°F-2.0°C 66% 4.5 mph W7.2 kmh W 7.8 mph12.6 kmh 29.94 in1013.9 mb 0.00 in0.0 mm 0.00 in0.0 mm 0.00 in0.0 mm
05:03 AM 38.8°F3.8°C 28.4°F-2.0°C 66% 4.5 mph W7.2 kmh W 7.8 mph12.6 kmh 29.94 in1013.9 mb 0.00 in0.0 mm 0.00 in0.0 mm 0.00 in0.0 mm
05:02 AM 38.8°F3.8°C 28.4°F-2.0°C 66% 3.6 mph W5.8 kmh W 7.8 mph12.6 kmh 29.94 in1013.9 mb 0.00 in0.0 mm 0.00 in0.0 mm 0.00 in0.0 mm
05:01 AM 38.8°F3.8°C 28.4°F-2.0°C 66% 4.0 mph W6.4 kmh W 7.8 mph12.6 kmh 29.94 in1013.9 mb 0.00 in0.0 mm 0.00 in0.0 mm 0.00 in0.0 mm
05:00 AM 38.8°F3.8°C 28.4°F-2.0°C 66% 3.8 mph W6.1 kmh W 7.8 mph12.6 kmh 29.94 in1013.9 mb 0.00 in0.0 mm 0.00 in0.0 mm 0.00 in0.0 mm
04:59 AM 38.8°F3.8°C 28.4°F-2.0°C 65% 4.0 mph W6.4 kmh W 7.8 mph12.6 kmh 29.94 in1013.9 mb 0.00 in0.0 mm 0.00 in0.0 mm 0.00 in0.0 mm
04:58 AM 38.8°F3.8°C 28.4°F-2.0°C 65% 5.8 mph W9.3 kmh W 7.8 mph12.6 kmh 29.94 in1013.9 mb 0.00 in0.0 mm 0.00 in0.0 mm 0.00 in0.0 mm
04:57 AM 38.8°F3.8°C 28.4°F-2.0°C 66% 6.5 mph W10.5 kmh W 7.8 mph12.6 kmh 29.94 in1013.9 mb 0.00 in0.0 mm 0.00 in0.0 mm 0.00 in0.0 mm
04:56 AM 38.8°F3.8°C 28.4°F-2.0°C 67% 5.8 mph W9.3 kmh W 7.4 mph11.9 kmh 29.94 in1013.9 mb 0.00 in0.0 mm 0.00 in0.0 mm 0.00 in0.0 mm
04:55 AM 38.8°F3.8°C 28.4°F-2.0°C 67% 5.4 mph W8.7 kmh W 7.4 mph11.9 kmh 29.94 in1013.9 mb 0.00 in0.0 mm 0.00 in0.0 mm 0.00 in0.0 mm
04:54 AM 39.0°F3.9°C 28.4°F-2.0°C 66% 3.6 mph W5.8 kmh W 7.2 mph11.6 kmh 29.94 in1013.9 mb 0.00 in0.0 mm 0.00 in0.0 mm 0.00 in0.0 mm
04:53 AM 39.0°F3.9°C 28.4°F-2.0°C 66% 5.4 mph W8.7 kmh W 8.1 mph13.0 kmh 29.94 in1013.9 mb 0.00 in0.0 mm 0.00 in0.0 mm 0.00 in0.0 mm
04:52 AM 39.0°F3.9°C 30.2°F-1.0°C 67% 4.7 mph W7.6 kmh W 8.5 mph13.7 kmh 29.94 in1013.9 mb 0.00 in0.0 mm 0.00 in0.0 mm 0.00 in0.0 mm
04:51 AM 39.0°F3.9°C 30.2°F-1.0°C 67% 3.8 mph W6.1 kmh W 8.5 mph13.7 kmh 29.94 in1013.9 mb 0.00 in0.0 mm 0.00 in0.0 mm 0.00 in0.0 mm
04:50 AM 39.0°F3.9°C 30.2°F-1.0°C 67% 3.8 mph W6.1 kmh W 8.5 mph13.7 kmh 29.94 in1013.9 mb 0.00 in0.0 mm 0.00 in0.0 mm 0.00 in0.0 mm
04:49 AM 39.0°F3.9°C 30.2°F-1.0°C 67% 4.0 mph W6.4 kmh W 8.5 mph13.7 kmh 29.94 in1013.9 mb 0.00 in0.0 mm 0.00 in0.0 mm 0.00 in0.0 mm
04:48 AM 39.2°F4.0°C 28.4°F-2.0°C 66% 3.8 mph W6.1 kmh W 8.5 mph13.7 kmh 29.94 in1013.9 mb 0.00 in0.0 mm 0.00 in0.0 mm 0.00 in0.0 mm
04:47 AM 39.2°F4.0°C 28.4°F-2.0°C 66% 4.9 mph W7.9 kmh W 8.5 mph13.7 kmh 29.94 in1013.9 mb 0.00 in0.0 mm 0.00 in0.0 mm 0.00 in0.0 mm
04:46 AM 39.2°F4.0°C 28.4°F-2.0°C 66% 4.9 mph W7.9 kmh W 8.7 mph14.0 kmh 29.94 in1013.9 mb 0.00 in0.0 mm 0.00 in0.0 mm 0.00 in0.0 mm
04:45 AM 39.2°F4.0°C 28.4°F-2.0°C 66% 5.4 mph W8.7 kmh W 10.3 mph16.6 kmh 29.94 in1013.9 mb 0.00 in0.0 mm 0.00 in0.0 mm 0.00 in0.0 mm
04:44 AM 39.2°F4.0°C 28.4°F-2.0°C 66% 6.9 mph W11.1 kmh W 10.3 mph16.6 kmh 29.94 in1013.9 mb 0.00 in0.0 mm 0.00 in0.0 mm 0.00 in0.0 mm
04:43 AM 39.2°F4.0°C 28.4°F-2.0°C 66% 6.0 mph W9.7 kmh W 10.3 mph16.6 kmh 29.94 in1013.9 mb 0.00 in0.0 mm 0.00 in0.0 mm 0.00 in0.0 mm
04:42 AM 39.2°F4.0°C 28.4°F-2.0°C 66% 4.9 mph W7.9 kmh W 10.3 mph16.6 kmh 29.94 in1013.9 mb 0.00 in0.0 mm 0.00 in0.0 mm 0.00 in0.0 mm
04:41 AM 39.2°F4.0°C 28.4°F-2.0°C 66% 6.3 mph W10.1 kmh W 10.3 mph16.6 kmh 29.94 in1013.9 mb 0.00 in0.0 mm 0.00 in0.0 mm 0.00 in0.0 mm
04:40 AM 39.2°F4.0°C 30.2°F-1.0°C 67% 6.3 mph WSW10.1 kmh WSW 10.3 mph16.6 kmh 29.94 in1013.9 mb 0.00 in0.0 mm 0.00 in0.0 mm 0.00 in0.0 mm
04:39 AM 39.2°F4.0°C 30.2°F-1.0°C 67% 5.6 mph W9.0 kmh W 10.3 mph16.6 kmh 29.94 in1013.9 mb 0.00 in0.0 mm 0.00 in0.0 mm 0.00 in0.0 mm
04:38 AM 39.2°F4.0°C 30.2°F-1.0°C 67% 5.4 mph W8.7 kmh W 10.3 mph16.6 kmh 29.94 in1013.9 mb 0.00 in0.0 mm 0.00 in0.0 mm 0.00 in0.0 mm
04:37 AM 39.2°F4.0°C 30.2°F-1.0°C 67% 6.3 mph WSW10.1 kmh WSW 10.3 mph16.6 kmh 29.94 in1013.9 mb 0.00 in0.0 mm 0.00 in0.0 mm 0.00 in0.0 mm
04:36 AM 39.2°F4.0°C 30.2°F-1.0°C 67% 6.9 mph W11.1 kmh W 10.3 mph16.6 kmh 29.94 in1013.9 mb 0.00 in0.0 mm 0.00 in0.0 mm 0.00 in0.0 mm
04:35 AM 39.2°F4.0°C 28.4°F-2.0°C 66% 6.3 mph W10.1 kmh W 10.1 mph16.3 kmh 29.94 in1013.9 mb 0.00 in0.0 mm 0.00 in0.0 mm 0.00 in0.0 mm
04:34 AM 39.4°F4.1°C 28.4°F-2.0°C 66% 5.6 mph W9.0 kmh W 10.1 mph16.3 kmh 29.94 in1013.9 mb 0.00 in0.0 mm 0.00 in0.0 mm 0.00 in0.0 mm
04:33 AM 39.4°F4.1°C 28.4°F-2.0°C 66% 6.7 mph W10.8 kmh W 10.1 mph16.3 kmh 29.94 in1013.9 mb 0.00 in0.0 mm 0.00 in0.0 mm 0.00 in0.0 mm
04:32 AM 39.4°F4.1°C 30.2°F-1.0°C 67% 6.5 mph W10.5 kmh W 10.1 mph16.3 kmh 29.94 in1013.9 mb 0.00 in0.0 mm 0.00 in0.0 mm 0.00 in0.0 mm
04:31 AM 39.4°F4.1°C 30.2°F-1.0°C 67% 7.2 mph W11.6 kmh W 10.1 mph16.3 kmh 29.91 in1012.9 mb 0.00 in0.0 mm 0.00 in0.0 mm 0.00 in0.0 mm
04:30 AM 39.4°F4.1°C 30.2°F-1.0°C 67% 7.6 mph W12.2 kmh W 10.1 mph16.3 kmh 29.91 in1012.9 mb 0.00 in0.0 mm 0.00 in0.0 mm 0.00 in0.0 mm
04:29 AM 39.4°F4.1°C 30.2°F-1.0°C 67% 6.9 mph W11.1 kmh W 10.1 mph16.3 kmh 29.91 in1012.9 mb 0.00 in0.0 mm 0.00 in0.0 mm 0.00 in0.0 mm
04:28 AM 39.4°F4.1°C 30.2°F-1.0°C 68% 7.2 mph W11.6 kmh W 10.1 mph16.3 kmh 29.91 in1012.9 mb 0.00 in0.0 mm 0.00 in0.0 mm 0.00 in0.0 mm
04:27 AM 39.4°F4.1°C 30.2°F-1.0°C 68% 7.4 mph W11.9 kmh W 10.1 mph16.3 kmh 29.91 in1012.9 mb 0.00 in0.0 mm 0.00 in0.0 mm 0.00 in0.0 mm
04:26 AM 39.6°F4.2°C 30.2°F-1.0°C 68% 5.8 mph W9.3 kmh W 9.6 mph15.4 kmh 29.91 in1012.9 mb 0.00 in0.0 mm 0.00 in0.0 mm 0.00 in0.0 mm
04:25 AM 39.6°F4.2°C 30.2°F-1.0°C 68% 6.3 mph W10.1 kmh W 9.6 mph15.4 kmh 29.91 in1012.9 mb 0.00 in0.0 mm 0.00 in0.0 mm 0.00 in0.0 mm
04:24 AM 39.6°F4.2°C 30.2°F-1.0°C 68% 6.3 mph W10.1 kmh W 9.6 mph15.4 kmh 29.91 in1012.9 mb 0.00 in0.0 mm 0.00 in0.0 mm 0.00 in0.0 mm
04:23 AM 39.6°F4.2°C 30.2°F-1.0°C 68% 7.2 mph W11.6 kmh W 10.5 mph16.9 kmh 29.91 in1012.9 mb 0.00 in0.0 mm 0.00 in0.0 mm 0.00 in0.0 mm
04:22 AM 39.6°F4.2°C 30.2°F-1.0°C 68% 7.2 mph W11.6 kmh W 10.5 mph16.9 kmh 29.91 in1012.9 mb 0.00 in0.0 mm 0.00 in0.0 mm 0.00 in0.0 mm
04:21 AM 39.6°F4.2°C 30.2°F-1.0°C 69% 7.2 mph W11.6 kmh W 10.5 mph16.9 kmh 29.91 in1012.9 mb 0.00 in0.0 mm 0.00 in0.0 mm 0.00 in0.0 mm
04:20 AM 39.6°F4.2°C 30.2°F-1.0°C 69% 6.9 mph W11.1 kmh W 10.5 mph16.9 kmh 29.91 in1012.9 mb 0.00 in0.0 mm 0.00 in0.0 mm 0.00 in0.0 mm
04:19 AM 39.6°F4.2°C 30.2°F-1.0°C 70% 5.6 mph W9.0 kmh W 10.5 mph16.9 kmh 29.91 in1012.9 mb 0.00 in0.0 mm 0.00 in0.0 mm 0.00 in0.0 mm
04:18 AM 39.7°F4.3°C 30.2°F-1.0°C 70% 5.8 mph W9.3 kmh W 10.5 mph16.9 kmh 29.91 in1012.9 mb 0.00 in0.0 mm 0.00 in0.0 mm 0.00 in0.0 mm
04:17 AM 39.7°F4.3°C 30.2°F-1.0°C 70% 5.4 mph W8.7 kmh W 10.5 mph16.9 kmh 29.91 in1012.9 mb 0.00 in0.0 mm 0.00 in0.0 mm 0.00 in0.0 mm
04:16 AM 39.7°F4.3°C 30.2°F-1.0°C 70% 5.8 mph W9.3 kmh W 10.5 mph16.9 kmh 29.91 in1012.9 mb 0.00 in0.0 mm 0.00 in0.0 mm 0.00 in0.0 mm
04:15 AM 39.7°F4.3°C 30.2°F-1.0°C 70% 6.9 mph W11.1 kmh W 10.5 mph16.9 kmh 29.91 in1012.9 mb 0.00 in0.0 mm 0.00 in0.0 mm 0.00 in0.0 mm
04:14 AM 39.7°F4.3°C 32.0°F0.0°C 71% 7.6 mph W12.2 kmh W 10.5 mph16.9 kmh 29.91 in1012.9 mb 0.00 in0.0 mm 0.00 in0.0 mm 0.00 in0.0 mm
04:13 AM 39.7°F4.3°C 32.0°F0.0°C 72% 4.9 mph W7.9 kmh W 9.6 mph15.4 kmh 29.91 in1012.9 mb 0.00 in0.0 mm 0.00 in0.0 mm 0.00 in0.0 mm
04:12 AM 39.7°F4.3°C 32.0°F0.0°C 71% 5.6 mph W9.0 kmh W 9.6 mph15.4 kmh 29.91 in1012.9 mb 0.00 in0.0 mm 0.00 in0.0 mm 0.00 in0.0 mm
04:11 AM 39.7°F4.3°C 32.0°F0.0°C 72% 6.7 mph W10.8 kmh W 9.6 mph15.4 kmh 29.91 in1012.9 mb 0.00 in0.0 mm 0.00 in0.0 mm 0.00 in0.0 mm
04:10 AM 39.7°F4.3°C 32.0°F0.0°C 72% 6.3 mph W10.1 kmh W 8.7 mph14.0 kmh 29.91 in1012.9 mb 0.00 in0.0 mm 0.00 in0.0 mm 0.00 in0.0 mm
04:09 AM 39.7°F4.3°C 32.0°F0.0°C 72% 6.3 mph W10.1 kmh W 8.7 mph14.0 kmh 29.91 in1012.9 mb 0.00 in0.0 mm 0.00 in0.0 mm 0.00 in0.0 mm
04:08 AM 39.7°F4.3°C 32.0°F0.0°C 72% 5.6 mph W9.0 kmh W 8.7 mph14.0 kmh 29.91 in1012.9 mb 0.00 in0.0 mm 0.00 in0.0 mm 0.00 in0.0 mm
04:07 AM 39.7°F4.3°C 32.0°F0.0°C 72% 7.2 mph W11.6 kmh W 11.0 mph17.7 kmh 29.91 in1012.9 mb 0.00 in0.0 mm 0.00 in0.0 mm 0.00 in0.0 mm
04:06 AM 39.7°F4.3°C 32.0°F0.0°C 73% 7.2 mph W11.6 kmh W 11.0 mph17.7 kmh 29.91 in1012.9 mb 0.00 in0.0 mm 0.00 in0.0 mm 0.00 in0.0 mm
04:05 AM 39.7°F4.3°C 32.0°F0.0°C 74% 4.9 mph W7.9 kmh W 11.0 mph17.7 kmh 29.91 in1012.9 mb 0.00 in0.0 mm 0.00 in0.0 mm 0.00 in0.0 mm
04:04 AM 39.7°F4.3°C 32.0°F0.0°C 74% 6.3 mph W10.1 kmh W 11.0 mph17.7 kmh 29.91 in1012.9 mb 0.00 in0.0 mm 0.00 in0.0 mm 0.00 in0.0 mm
04:03 AM 39.9°F4.4°C 33.8°F1.0°C 75% 4.0 mph W6.4 kmh W 11.0 mph17.7 kmh 29.91 in1012.9 mb 0.00 in0.0 mm 0.00 in0.0 mm 0.00 in0.0 mm
04:02 AM 39.9°F4.4°C 33.8°F1.0°C 75% 5.6 mph W9.0 kmh W 11.0 mph17.7 kmh 29.91 in1012.9 mb 0.00 in0.0 mm 0.00 in0.0 mm 0.00 in0.0 mm
04:01 AM 39.9°F4.4°C 33.8°F1.0°C 76% 4.7 mph W7.6 kmh W 11.0 mph17.7 kmh 29.91 in1012.9 mb 0.00 in0.0 mm 0.00 in0.0 mm 0.00 in0.0 mm
04:00 AM 39.9°F4.4°C 33.8°F1.0°C 76% 4.7 mph W7.6 kmh W 11.0 mph17.7 kmh 29.91 in1012.9 mb 0.00 in0.0 mm 0.00 in0.0 mm 0.00 in0.0 mm
03:59 AM 39.9°F4.4°C 33.8°F1.0°C 76% 5.6 mph W9.0 kmh W 11.0 mph17.7 kmh 29.91 in1012.9 mb 0.00 in0.0 mm 0.00 in0.0 mm 0.00 in0.0 mm
03:58 AM 39.9°F4.4°C 33.8°F1.0°C 76% 7.2 mph W11.6 kmh W 11.0 mph17.7 kmh 29.91 in1012.9 mb 0.00 in0.0 mm 0.00 in0.0 mm 0.00 in0.0 mm
03:57 AM 39.9°F4.4°C 33.8°F1.0°C 77% 6.3 mph W10.1 kmh W 11.0 mph17.7 kmh 29.91 in1012.9 mb 0.00 in0.0 mm 0.00 in0.0 mm 0.00 in0.0 mm
03:56 AM 39.9°F4.4°C 33.8°F1.0°C 78% 5.4 mph W8.7 kmh W 6.5 mph10.5 kmh 29.91 in1012.9 mb 0.00 in0.0 mm 0.00 in0.0 mm 0.00 in0.0 mm
03:55 AM 39.9°F4.4°C 33.8°F1.0°C 78% 3.6 mph W5.8 kmh W 6.5 mph10.5 kmh 29.91 in1012.9 mb 0.00 in0.0 mm 0.00 in0.0 mm 0.00 in0.0 mm
03:54 AM 39.9°F4.4°C 33.8°F1.0°C 78% 3.6 mph W5.8 kmh W 5.8 mph9.3 kmh 29.91 in1012.9 mb 0.00 in0.0 mm 0.00 in0.0 mm 0.00 in0.0 mm
03:53 AM 39.9°F4.4°C 33.8°F1.0°C 78% 2.9 mph W4.7 kmh W 5.8 mph9.3 kmh 29.91 in1012.9 mb 0.00 in0.0 mm 0.00 in0.0 mm 0.00 in0.0 mm
03:52 AM 39.9°F4.4°C 33.8°F1.0°C 78% 3.6 mph W5.8 kmh W 5.8 mph9.3 kmh 29.91 in1012.9 mb 0.00 in0.0 mm 0.00 in0.0 mm 0.00 in0.0 mm
03:51 AM 39.9°F4.4°C 33.8°F1.0°C 78% 3.1 mph W5.0 kmh W 5.8 mph9.3 kmh 29.91 in1012.9 mb 0.00 in0.0 mm 0.00 in0.0 mm 0.00 in0.0 mm
03:50 AM 39.9°F4.4°C 33.8°F1.0°C 78% 3.6 mph W5.8 kmh W 5.8 mph9.3 kmh 29.91 in1012.9 mb 0.00 in0.0 mm 0.00 in0.0 mm 0.00 in0.0 mm
03:49 AM 39.9°F4.4°C 33.8°F1.0°C 78% 4.0 mph WSW6.4 kmh WSW 5.8 mph9.3 kmh 29.91 in1012.9 mb 0.00 in0.0 mm 0.00 in0.0 mm 0.00 in0.0 mm
03:48 AM 39.9°F4.4°C 33.8°F1.0°C 78% 4.0 mph WSW6.4 kmh WSW 5.8 mph9.3 kmh 29.91 in1012.9 mb 0.00 in0.0 mm 0.00 in0.0 mm 0.00 in0.0 mm
03:47 AM 39.9°F4.4°C 33.8°F1.0°C 78% 2.7 mph W4.3 kmh W 5.8 mph9.3 kmh 29.91 in1012.9 mb 0.00 in0.0 mm 0.00 in0.0 mm 0.00 in0.0 mm
03:46 AM 39.9°F4.4°C 33.8°F1.0°C 78% 3.8 mph W6.1 kmh W 5.8 mph9.3 kmh 29.91 in1012.9 mb 0.00 in0.0 mm 0.00 in0.0 mm 0.00 in0.0 mm
03:45 AM 39.9°F4.4°C 33.8°F1.0°C 78% 3.8 mph W6.1 kmh W 5.8 mph9.3 kmh 29.91 in1012.9 mb 0.00 in0.0 mm 0.00 in0.0 mm 0.00 in0.0 mm
03:44 AM 39.9°F4.4°C 33.8°F1.0°C 78% 4.7 mph W7.6 kmh W 6.3 mph10.1 kmh 29.91 in1012.9 mb 0.00 in0.0 mm 0.00 in0.0 mm 0.00 in0.0 mm
03:43 AM 39.9°F4.4°C 33.8°F1.0°C 78% 4.0 mph WSW6.4 kmh WSW 6.3 mph10.1 kmh 29.91 in1012.9 mb 0.00 in0.0 mm 0.00 in0.0 mm 0.00 in0.0 mm
03:42 AM 39.9°F4.4°C 33.8°F1.0°C 78% 4.0 mph W6.4 kmh W 6.3 mph10.1 kmh 29.91 in1012.9 mb 0.00 in0.0 mm 0.00 in0.0 mm 0.00 in0.0 mm
03:41 AM 39.9°F4.4°C 33.8°F1.0°C 78% 3.1 mph W5.0 kmh W 6.3 mph10.1 kmh 29.91 in1012.9 mb 0.00 in0.0 mm 0.00 in0.0 mm 0.00 in0.0 mm
03:40 AM 39.9°F4.4°C 33.8°F1.0°C 78% 3.1 mph W5.0 kmh W 6.3 mph10.1 kmh 29.91 in1012.9 mb 0.00 in0.0 mm 0.00 in0.0 mm 0.00 in0.0 mm
03:39 AM 39.9°F4.4°C 33.8°F1.0°C 78% 3.4 mph W5.5 kmh W 6.3 mph10.1 kmh 29.91 in1012.9 mb 0.00 in0.0 mm 0.00 in0.0 mm 0.00 in0.0 mm
03:38 AM 39.9°F4.4°C 33.8°F1.0°C 78% 4.0 mph W6.4 kmh W 6.3 mph10.1 kmh 29.91 in1012.9 mb 0.00 in0.0 mm 0.00 in0.0 mm 0.00 in0.0 mm
03:37 AM 39.9°F4.4°C 33.8°F1.0°C 78% 4.0 mph W6.4 kmh W 6.3 mph10.1 kmh 29.91 in1012.9 mb 0.00 in0.0 mm 0.00 in0.0 mm 0.00 in0.0 mm
03:36 AM 39.9°F4.4°C 33.8°F1.0°C 78% 3.8 mph W6.1 kmh W 6.3 mph10.1 kmh 29.91 in1012.9 mb 0.00 in0.0 mm 0.00 in0.0 mm 0.00 in0.0 mm
03:35 AM 39.9°F4.4°C 33.8°F1.0°C 78% 4.7 mph W7.6 kmh W 6.3 mph10.1 kmh 29.91 in1012.9 mb 0.00 in0.0 mm 0.00 in0.0 mm 0.00 in0.0 mm
03:34 AM 39.9°F4.4°C 33.8°F1.0°C 78% 5.4 mph W8.7 kmh W 6.0 mph9.7 kmh 29.91 in1012.9 mb 0.00 in0.0 mm 0.00 in0.0 mm 0.00 in0.0 mm
03:33 AM 39.9°F4.4°C 33.8°F1.0°C 78% 3.6 mph W5.8 kmh W 7.6 mph12.2 kmh 29.91 in1012.9 mb 0.00 in0.0 mm 0.00 in0.0 mm 0.00 in0.0 mm
03:32 AM 39.9°F4.4°C 33.8°F1.0°C 78% 4.0 mph W6.4 kmh W 7.6 mph12.2 kmh 29.91 in1012.9 mb 0.00 in0.0 mm 0.00 in0.0 mm 0.00 in0.0 mm
03:31 AM 39.9°F4.4°C 33.8°F1.0°C 78% 4.5 mph W7.2 kmh W 7.6 mph12.2 kmh 29.91 in1012.9 mb 0.00 in0.0 mm 0.00 in0.0 mm 0.00 in0.0 mm
03:30 AM 39.9°F4.4°C 33.8°F1.0°C 78% 3.4 mph W5.5 kmh W 7.6 mph12.2 kmh 29.91 in1012.9 mb 0.00 in0.0 mm 0.00 in0.0 mm 0.00 in0.0 mm
03:29 AM 39.9°F4.4°C 33.8°F1.0°C 78% 3.1 mph W5.0 kmh W 7.6 mph12.2 kmh 29.91 in1012.9 mb 0.00 in0.0 mm 0.00 in0.0 mm 0.00 in0.0 mm
03:28 AM 39.9°F4.4°C 33.8°F1.0°C 78% 2.9 mph W4.7 kmh W 7.6 mph12.2 kmh 29.91 in1012.9 mb 0.00 in0.0 mm 0.00 in0.0 mm 0.00 in0.0 mm
03:27 AM 39.9°F4.4°C 33.8°F1.0°C 78% 4.0 mph W6.4 kmh W 7.6 mph12.2 kmh 29.91 in1012.9 mb 0.00 in0.0 mm 0.00 in0.0 mm 0.00 in0.0 mm
03:26 AM 39.9°F4.4°C 33.8°F1.0°C 78% 3.8 mph W6.1 kmh W 7.6 mph12.2 kmh 29.91 in1012.9 mb 0.00 in0.0 mm 0.00 in0.0 mm 0.00 in0.0 mm
03:25 AM 39.9°F4.4°C 33.8°F1.0°C 78% 3.8 mph W6.1 kmh W 7.6 mph12.2 kmh 29.91 in1012.9 mb 0.00 in0.0 mm 0.00 in0.0 mm 0.00 in0.0 mm
03:24 AM 39.9°F4.4°C 33.8°F1.0°C 78% 6.3 mph W10.1 kmh W 7.6 mph12.2 kmh 29.91 in1012.9 mb 0.00 in0.0 mm 0.00 in0.0 mm 0.00 in0.0 mm
03:23 AM 39.9°F4.4°C 33.8°F1.0°C 78% 4.7 mph W7.6 kmh W 6.3 mph10.1 kmh 29.91 in1012.9 mb 0.00 in0.0 mm 0.00 in0.0 mm 0.00 in0.0 mm
03:22 AM 39.9°F4.4°C 33.8°F1.0°C 78% 4.5 mph W7.2 kmh W 6.3 mph10.1 kmh 29.91 in1012.9 mb 0.00 in0.0 mm 0.00 in0.0 mm 0.00 in0.0 mm
03:21 AM 39.9°F4.4°C 33.8°F1.0°C 78% 4.0 mph W6.4 kmh W 6.3 mph10.1 kmh 29.91 in1012.9 mb 0.00 in0.0 mm 0.00 in0.0 mm 0.00 in0.0 mm
03:20 AM 39.9°F4.4°C 33.8°F1.0°C 78% 2.9 mph W4.7 kmh W 6.3 mph10.1 kmh 29.91 in1012.9 mb 0.00 in0.0 mm 0.00 in0.0 mm 0.00 in0.0 mm
03:19 AM 39.9°F4.4°C 33.8°F1.0°C 78% 3.8 mph W6.1 kmh W 6.3 mph10.1 kmh 29.91 in1012.9 mb 0.00 in0.0 mm 0.00 in0.0 mm 0.00 in0.0 mm
03:18 AM 39.9°F4.4°C 33.8°F1.0°C 78% 4.9 mph W7.9 kmh W 6.3 mph10.1 kmh 29.91 in1012.9 mb 0.00 in0.0 mm 0.00 in0.0 mm 0.00 in0.0 mm
03:17 AM 39.9°F4.4°C 33.8°F1.0°C 78% 3.1 mph W5.0 kmh W 6.0 mph9.7 kmh 29.91 in1012.9 mb 0.00 in0.0 mm 0.00 in0.0 mm 0.00 in0.0 mm
03:16 AM 39.9°F4.4°C 33.8°F1.0°C 78% 4.0 mph W6.4 kmh W 6.0 mph9.7 kmh 29.91 in1012.9 mb 0.00 in0.0 mm 0.00 in0.0 mm 0.00 in0.0 mm
03:15 AM 39.9°F4.4°C 33.8°F1.0°C 78% 4.3 mph W6.9 kmh W 6.0 mph9.7 kmh 29.91 in1012.9 mb 0.00 in0.0 mm 0.00 in0.0 mm 0.00 in0.0 mm
03:14 AM 39.9°F4.4°C 33.8°F1.0°C 78% 4.9 mph W7.9 kmh W 6.0 mph9.7 kmh 29.91 in1012.9 mb 0.00 in0.0 mm 0.00 in0.0 mm 0.00 in0.0 mm
03:13 AM 39.9°F4.4°C 33.8°F1.0°C 78% 4.5 mph W7.2 kmh W 6.0 mph9.7 kmh 29.91 in1012.9 mb 0.00 in0.0 mm 0.00 in0.0 mm 0.00 in0.0 mm
03:12 AM 39.9°F4.4°C 33.8°F1.0°C 78% 4.7 mph W7.6 kmh W 6.0 mph9.7 kmh 29.91 in1012.9 mb 0.00 in0.0 mm 0.00 in0.0 mm 0.00 in0.0 mm
03:11 AM 39.9°F4.4°C 33.8°F1.0°C 78% 4.0 mph W6.4 kmh W 6.0 mph9.7 kmh 29.91 in1012.9 mb 0.00 in0.0 mm 0.00 in0.0 mm 0.00 in0.0 mm
03:10 AM 39.9°F4.4°C 33.8°F1.0°C 78% 3.8 mph W6.1 kmh W 6.0 mph9.7 kmh 29.91 in1012.9 mb 0.00 in0.0 mm 0.00 in0.0 mm 0.00 in0.0 mm
03:09 AM 39.9°F4.4°C 33.8°F1.0°C 78% 3.4 mph W5.5 kmh W 6.0 mph9.7 kmh 29.91 in1012.9 mb 0.00 in0.0 mm 0.00 in0.0 mm 0.00 in0.0 mm
03:08 AM 39.9°F4.4°C 33.8°F1.0°C 78% 4.0 mph W6.4 kmh W 6.0 mph9.7 kmh 29.91 in1012.9 mb 0.00 in0.0 mm 0.00 in0.0 mm 0.00 in0.0 mm
03:07 AM 39.9°F4.4°C 33.8°F1.0°C 79% 4.5 mph W7.2 kmh W 6.0 mph9.7 kmh 29.91 in1012.9 mb 0.00 in0.0 mm 0.00 in0.0 mm 0.00 in0.0 mm
03:06 AM 39.9°F4.4°C 33.8°F1.0°C 79% 2.9 mph W4.7 kmh W 5.6 mph9.0 kmh 29.91 in1012.9 mb 0.00 in0.0 mm 0.00 in0.0 mm 0.00 in0.0 mm
03:05 AM 39.9°F4.4°C 33.8°F1.0°C 79% 4.0 mph W6.4 kmh W 5.6 mph9.0 kmh 29.91 in1012.9 mb 0.00 in0.0 mm 0.00 in0.0 mm 0.00 in0.0 mm
03:04 AM 39.9°F4.4°C 33.8°F1.0°C 79% 2.5 mph W4.0 kmh W 5.6 mph9.0 kmh 29.91 in1012.9 mb 0.00 in0.0 mm 0.00 in0.0 mm 0.00 in0.0 mm
03:03 AM 39.9°F4.4°C 33.8°F1.0°C 79% 4.0 mph W6.4 kmh W 6.3 mph10.1 kmh 29.91 in1012.9 mb 0.00 in0.0 mm 0.00 in0.0 mm 0.00 in0.0 mm
03:02 AM 39.9°F4.4°C 33.8°F1.0°C 78% 3.8 mph W6.1 kmh W 6.3 mph10.1 kmh 29.91 in1012.9 mb 0.00 in0.0 mm 0.00 in0.0 mm 0.00 in0.0 mm
03:01 AM 39.9°F4.4°C 33.8°F1.0°C 78% 3.8 mph W6.1 kmh W 6.3 mph10.1 kmh 29.91 in1012.9 mb 0.00 in0.0 mm 0.00 in0.0 mm 0.00 in0.0 mm
03:00 AM 39.9°F4.4°C 33.8°F1.0°C 78% 3.4 mph W5.5 kmh W 10.1 mph16.3 kmh 29.91 in1012.9 mb 0.00 in0.0 mm 0.00 in0.0 mm 0.00 in0.0 mm
02:59 AM 39.9°F4.4°C 33.8°F1.0°C 78% 3.1 mph W5.0 kmh W 10.1 mph16.3 kmh 29.91 in1012.9 mb 0.00 in0.0 mm 0.00 in0.0 mm 0.00 in0.0 mm
02:58 AM 39.9°F4.4°C 33.8°F1.0°C 78% 3.6 mph W5.8 kmh W 10.1 mph16.3 kmh 29.91 in1012.9 mb 0.00 in0.0 mm 0.00 in0.0 mm 0.00 in0.0 mm
02:57 AM 39.9°F4.4°C 33.8°F1.0°C 78% 4.5 mph WSW7.2 kmh WSW 10.1 mph16.3 kmh 29.91 in1012.9 mb 0.00 in0.0 mm 0.00 in0.0 mm 0.00 in0.0 mm
02:56 AM 39.9°F4.4°C 33.8°F1.0°C 78% 4.5 mph WSW7.2 kmh WSW 10.1 mph16.3 kmh 29.91 in1012.9 mb 0.00 in0.0 mm 0.00 in0.0 mm 0.00 in0.0 mm
02:55 AM 39.9°F4.4°C 33.8°F1.0°C 78% 4.5 mph W7.2 kmh W 10.1 mph16.3 kmh 29.91 in1012.9 mb 0.00 in0.0 mm 0.00 in0.0 mm 0.00 in0.0 mm
02:54 AM 39.9°F4.4°C 33.8°F1.0°C 78% 5.6 mph W9.0 kmh W 10.1 mph16.3 kmh 29.91 in1012.9 mb 0.00 in0.0 mm 0.00 in0.0 mm 0.00 in0.0 mm
02:53 AM 39.9°F4.4°C 33.8°F1.0°C 78% 4.5 mph W7.2 kmh W 10.1 mph16.3 kmh 29.91 in1012.9 mb 0.00 in0.0 mm 0.00 in0.0 mm 0.00 in0.0 mm
02:52 AM 39.9°F4.4°C 33.8°F1.0°C 78% 4.5 mph W7.2 kmh W 10.1 mph16.3 kmh 29.91 in1012.9 mb 0.00 in0.0 mm 0.00 in0.0 mm 0.00 in0.0 mm
02:51 AM 39.9°F4.4°C 33.8°F1.0°C 78% 7.6 mph W12.2 kmh W 10.1 mph16.3 kmh 29.91 in1012.9 mb 0.00 in0.0 mm 0.00 in0.0 mm 0.00 in0.0 mm
02:50 AM 39.9°F4.4°C 33.8°F1.0°C 78% 6.5 mph W10.5 kmh W 10.1 mph16.3 kmh 29.91 in1012.9 mb 0.00 in0.0 mm 0.00 in0.0 mm 0.00 in0.0 mm
02:49 AM 39.9°F4.4°C 33.8°F1.0°C 78% 5.4 mph WSW8.7 kmh WSW 10.1 mph16.3 kmh 29.91 in1012.9 mb 0.00 in0.0 mm 0.00 in0.0 mm 0.00 in0.0 mm
02:48 AM 39.9°F4.4°C 33.8°F1.0°C 79% 6.3 mph WSW10.1 kmh WSW 10.1 mph16.3 kmh 29.91 in1012.9 mb 0.00 in0.0 mm 0.00 in0.0 mm 0.00 in0.0 mm
02:47 AM 39.9°F4.4°C 33.8°F1.0°C 79% 5.4 mph WSW8.7 kmh WSW 10.1 mph16.3 kmh 29.91 in1012.9 mb 0.00 in0.0 mm 0.00 in0.0 mm 0.00 in0.0 mm
02:46 AM 39.9°F4.4°C 33.8°F1.0°C 79% 4.9 mph WSW7.9 kmh WSW 10.1 mph16.3 kmh 29.88 in1011.9 mb 0.00 in0.0 mm 0.00 in0.0 mm 0.00 in0.0 mm
02:45 AM 39.9°F4.4°C 33.8°F1.0°C 79% 5.4 mph WSW8.7 kmh WSW 10.1 mph16.3 kmh 29.88 in1011.9 mb 0.00 in0.0 mm 0.00 in0.0 mm 0.00 in0.0 mm
02:44 AM 39.9°F4.4°C 33.8°F1.0°C 79% 6.5 mph WSW10.5 kmh WSW 10.1 mph16.3 kmh 29.88 in1011.9 mb 0.00 in0.0 mm 0.00 in0.0 mm 0.00 in0.0 mm
02:43 AM 39.9°F4.4°C 33.8°F1.0°C 79% 4.7 mph W7.6 kmh W 10.1 mph16.3 kmh 29.88 in1011.9 mb 0.00 in0.0 mm 0.00 in0.0 mm 0.00 in0.0 mm
02:42 AM 39.9°F4.4°C 33.8°F1.0°C 79% 5.4 mph WSW8.7 kmh WSW 10.1 mph16.3 kmh 29.88 in1011.9 mb 0.00 in0.0 mm 0.00 in0.0 mm 0.00 in0.0 mm
02:41 AM 39.9°F4.4°C 33.8°F1.0°C 79% 9.2 mph WSW14.8 kmh WSW 10.1 mph16.3 kmh 29.88 in1011.9 mb 0.00 in0.0 mm 0.00 in0.0 mm 0.00 in0.0 mm
02:40 AM 39.9°F4.4°C 33.8°F1.0°C 80% 5.8 mph W9.3 kmh W 10.1 mph16.3 kmh 29.88 in1011.9 mb 0.00 in0.0 mm 0.00 in0.0 mm 0.00 in0.0 mm
02:39 AM 39.9°F4.4°C 33.8°F1.0°C 80% 6.0 mph W9.7 kmh W 8.1 mph13.0 kmh 29.88 in1011.9 mb 0.00 in0.0 mm 0.00 in0.0 mm 0.00 in0.0 mm
02:38 AM 39.9°F4.4°C 33.8°F1.0°C 81% 6.0 mph W9.7 kmh W 8.1 mph13.0 kmh 29.88 in1011.9 mb 0.00 in0.0 mm 0.00 in0.0 mm 0.00 in0.0 mm
02:37 AM 39.9°F4.4°C 33.8°F1.0°C 81% 5.4 mph W8.7 kmh W 8.1 mph13.0 kmh 29.88 in1011.9 mb 0.00 in0.0 mm 0.00 in0.0 mm 0.00 in0.0 mm
02:36 AM 39.9°F4.4°C 33.8°F1.0°C 81% 4.5 mph W7.2 kmh W 8.1 mph13.0 kmh 29.88 in1011.9 mb 0.00 in0.0 mm 0.00 in0.0 mm 0.00 in0.0 mm
02:35 AM 39.9°F4.4°C 33.8°F1.0°C 81% 4.0 mph W6.4 kmh W 8.5 mph13.7 kmh 29.88 in1011.9 mb 0.00 in0.0 mm 0.00 in0.0 mm 0.00 in0.0 mm
02:34 AM 39.9°F4.4°C 33.8°F1.0°C 81% 5.6 mph W9.0 kmh W 8.5 mph13.7 kmh 29.88 in1011.9 mb 0.00 in0.0 mm 0.00 in0.0 mm 0.00 in0.0 mm
02:33 AM 39.9°F4.4°C 33.8°F1.0°C 81% 5.4 mph W8.7 kmh W 8.5 mph13.7 kmh 29.88 in1011.9 mb 0.00 in0.0 mm 0.00 in0.0 mm 0.00 in0.0 mm
02:32 AM 39.9°F4.4°C 35.6°F2.0°C 82% 4.9 mph W7.9 kmh W 8.7 mph14.0 kmh 29.88 in1011.9 mb 0.00 in0.0 mm 0.00 in0.0 mm 0.00 in0.0 mm
02:31 AM 39.7°F4.3°C 35.6°F2.0°C 82% 5.8 mph W9.3 kmh W 8.7 mph14.0 kmh 29.88 in1011.9 mb 0.00 in0.0 mm 0.00 in0.0 mm 0.00 in0.0 mm
02:30 AM 39.9°F4.4°C 35.6°F2.0°C 83% 5.4 mph W8.7 kmh W 8.7 mph14.0 kmh 29.88 in1011.9 mb 0.00 in0.0 mm 0.00 in0.0 mm 0.00 in0.0 mm
02:29 AM 39.9°F4.4°C 35.6°F2.0°C 83% 5.6 mph W9.0 kmh W 8.7 mph14.0 kmh 29.88 in1011.9 mb 0.00 in0.0 mm 0.00 in0.0 mm 0.00 in0.0 mm
02:28 AM 39.9°F4.4°C 35.6°F2.0°C 83% 5.4 mph W8.7 kmh W 8.7 mph14.0 kmh 29.88 in1011.9 mb 0.00 in0.0 mm 0.00 in0.0 mm 0.00 in0.0 mm
02:27 AM 39.9°F4.4°C 35.6°F2.0°C 83% 5.4 mph W8.7 kmh W 8.7 mph14.0 kmh 29.88 in1011.9 mb 0.00 in0.0 mm 0.00 in0.0 mm 0.00 in0.0 mm
02:26 AM 39.9°F4.4°C 35.6°F2.0°C 83% 5.8 mph W9.3 kmh W 8.7 mph14.0 kmh 29.88 in1011.9 mb 0.00 in0.0 mm 0.00 in0.0 mm 0.00 in0.0 mm
02:25 AM 39.9°F4.4°C 35.6°F2.0°C 83% 5.8 mph W9.3 kmh W 8.7 mph14.0 kmh 29.88 in1011.9 mb 0.00 in0.0 mm 0.00 in0.0 mm 0.00 in0.0 mm
02:24 AM 39.9°F4.4°C 35.6°F2.0°C 84% 5.8 mph WSW9.3 kmh WSW 8.7 mph14.0 kmh 29.88 in1011.9 mb 0.00 in0.0 mm 0.00 in0.0 mm 0.00 in0.0 mm
02:23 AM 39.9°F4.4°C 35.6°F2.0°C 84% 5.8 mph WSW9.3 kmh WSW 8.7 mph14.0 kmh 29.88 in1011.9 mb 0.00 in0.0 mm 0.00 in0.0 mm 0.00 in0.0 mm
02:22 AM 39.9°F4.4°C 35.6°F2.0°C 84% 5.4 mph W8.7 kmh W 8.1 mph13.0 kmh 29.88 in1011.9 mb 0.00 in0.0 mm 0.00 in0.0 mm 0.00 in0.0 mm
02:21 AM 39.9°F4.4°C 35.6°F2.0°C 84% 5.4 mph W8.7 kmh W 8.1 mph13.0 kmh 29.88 in1011.9 mb 0.00 in0.0 mm 0.00 in0.0 mm 0.00 in0.0 mm
02:20 AM 39.9°F4.4°C 35.6°F2.0°C 84% 6.0 mph W9.7 kmh W 6.5 mph10.5 kmh 29.88 in1011.9 mb 0.00 in0.0 mm 0.00 in0.0 mm 0.00 in0.0 mm
02:19 AM 39.9°F4.4°C 35.6°F2.0°C 84% 4.3 mph WSW6.9 kmh WSW 8.1 mph13.0 kmh 29.88 in1011.9 mb 0.00 in0.0 mm 0.00 in0.0 mm 0.00 in0.0 mm
02:18 AM 39.9°F4.4°C 35.6°F2.0°C 84% 4.5 mph WSW7.2 kmh WSW 8.1 mph13.0 kmh 29.88 in1011.9 mb 0.00 in0.0 mm 0.00 in0.0 mm 0.00 in0.0 mm
02:17 AM 39.7°F4.3°C 35.6°F2.0°C 84% 4.3 mph WSW6.9 kmh WSW 8.1 mph13.0 kmh 29.88 in1011.9 mb 0.00 in0.0 mm 0.00 in0.0 mm 0.00 in0.0 mm
02:16 AM 39.7°F4.3°C 35.6°F2.0°C 84% 5.4 mph WSW8.7 kmh WSW 8.1 mph13.0 kmh 29.88 in1011.9 mb 0.00 in0.0 mm 0.00 in0.0 mm 0.00 in0.0 mm
02:15 AM 39.7°F4.3°C 35.6°F2.0°C 84% 5.4 mph WSW8.7 kmh WSW 8.1 mph13.0 kmh 29.88 in1011.9 mb 0.00 in0.0 mm 0.00 in0.0 mm 0.00 in0.0 mm
02:14 AM 39.7°F4.3°C 35.6°F2.0°C 84% 4.5 mph W7.2 kmh W 8.1 mph13.0 kmh 29.88 in1011.9 mb 0.00 in0.0 mm 0.00 in0.0 mm 0.00 in0.0 mm
02:13 AM 39.7°F4.3°C 35.6°F2.0°C 84% 5.4 mph W8.7 kmh W 8.1 mph13.0 kmh 29.88 in1011.9 mb 0.00 in0.0 mm 0.00 in0.0 mm 0.00 in0.0 mm
02:12 AM 39.7°F4.3°C 35.6°F2.0°C 84% 5.6 mph WSW9.0 kmh WSW 8.1 mph13.0 kmh 29.88 in1011.9 mb 0.00 in0.0 mm 0.00 in0.0 mm 0.00 in0.0 mm
02:11 AM 39.7°F4.3°C 35.6°F2.0°C 84% 4.5 mph WSW7.2 kmh WSW 8.1 mph13.0 kmh 29.88 in1011.9 mb 0.00 in0.0 mm 0.00 in0.0 mm 0.00 in0.0 mm
02:10 AM 39.7°F4.3°C 35.6°F2.0°C 84% 6.3 mph WSW10.1 kmh WSW 8.1 mph13.0 kmh 29.88 in1011.9 mb 0.00 in0.0 mm 0.00 in0.0 mm 0.00 in0.0 mm
02:09 AM 39.7°F4.3°C 35.6°F2.0°C 84% 6.5 mph W10.5 kmh W 8.1 mph13.0 kmh 29.88 in1011.9 mb 0.00 in0.0 mm 0.00 in0.0 mm 0.00 in0.0 mm
02:08 AM 39.7°F4.3°C 35.6°F2.0°C 84% 6.0 mph WSW9.7 kmh WSW 7.8 mph12.6 kmh 29.88 in1011.9 mb 0.00 in0.0 mm 0.00 in0.0 mm 0.00 in0.0 mm
02:07 AM 39.7°F4.3°C 35.6°F2.0°C 84% 6.0 mph WSW9.7 kmh WSW 8.1 mph13.0 kmh 29.88 in1011.9 mb 0.00 in0.0 mm 0.00 in0.0 mm 0.00 in0.0 mm
02:06 AM 39.7°F4.3°C 35.6°F2.0°C 84% 6.7 mph WSW10.8 kmh WSW 8.1 mph13.0 kmh 29.88 in1011.9 mb 0.00 in0.0 mm 0.00 in0.0 mm 0.00 in0.0 mm
02:05 AM 39.7°F4.3°C 35.6°F2.0°C 84% 4.5 mph WSW7.2 kmh WSW 8.1 mph13.0 kmh 29.88 in1011.9 mb 0.00 in0.0 mm 0.00 in0.0 mm 0.00 in0.0 mm
02:04 AM 39.7°F4.3°C 35.6°F2.0°C 84% 4.9 mph W7.9 kmh W 8.1 mph13.0 kmh 29.88 in1011.9 mb 0.00 in0.0 mm 0.00 in0.0 mm 0.00 in0.0 mm
02:03 AM 39.7°F4.3°C 35.6°F2.0°C 84% 4.9 mph W7.9 kmh W 8.1 mph13.0 kmh 29.88 in1011.9 mb 0.00 in0.0 mm 0.00 in0.0 mm 0.00 in0.0 mm
02:02 AM 39.7°F4.3°C 35.6°F2.0°C 84% 4.5 mph W7.2 kmh W 8.1 mph13.0 kmh 29.88 in1011.9 mb 0.00 in0.0 mm 0.00 in0.0 mm 0.00 in0.0 mm
02:01 AM 39.7°F4.3°C 35.6°F2.0°C 84% 5.4 mph W8.7 kmh W 8.7 mph14.0 kmh 29.85 in1010.8 mb 0.00 in0.0 mm 0.00 in0.0 mm 0.00 in0.0 mm
02:00 AM 39.7°F4.3°C 35.6°F2.0°C 84% 5.6 mph W9.0 kmh W 8.7 mph14.0 kmh 29.85 in1010.8 mb 0.00 in0.0 mm 0.00 in0.0 mm 0.00 in0.0 mm
01:59 AM 39.7°F4.3°C 35.6°F2.0°C 84% 5.6 mph W9.0 kmh W 8.7 mph14.0 kmh 29.85 in1010.8 mb 0.00 in0.0 mm 0.00 in0.0 mm 0.00 in0.0 mm
01:58 AM 39.7°F4.3°C 35.6°F2.0°C 84% 6.5 mph W10.5 kmh W 8.7 mph14.0 kmh 29.85 in1010.8 mb 0.00 in0.0 mm 0.00 in0.0 mm 0.00 in0.0 mm
01:57 AM 39.7°F4.3°C 35.6°F2.0°C 84% 4.9 mph W7.9 kmh W 8.7 mph14.0 kmh 29.85 in1010.8 mb 0.00 in0.0 mm 0.00 in0.0 mm 0.00 in0.0 mm
01:56 AM 39.7°F4.3°C 35.6°F2.0°C 84% 4.0 mph W6.4 kmh W 8.7 mph14.0 kmh 29.85 in1010.8 mb 0.00 in0.0 mm 0.00 in0.0 mm 0.00 in0.0 mm
01:55 AM 39.7°F4.3°C 35.6°F2.0°C 84% 5.6 mph W9.0 kmh W 8.7 mph14.0 kmh 29.85 in1010.8 mb 0.00 in0.0 mm 0.00 in0.0 mm 0.00 in0.0 mm
01:54 AM 39.7°F4.3°C 35.6°F2.0°C 84% 6.0 mph W9.7 kmh W 8.7 mph14.0 kmh 29.85 in1010.8 mb 0.00 in0.0 mm 0.00 in0.0 mm 0.00 in0.0 mm
01:53 AM 39.7°F4.3°C 35.6°F2.0°C 84% 4.3 mph W6.9 kmh W 8.7 mph14.0 kmh 29.85 in1010.8 mb 0.00 in0.0 mm 0.00 in0.0 mm 0.00 in0.0 mm
01:52 AM 39.7°F4.3°C 35.6°F2.0°C 84% 6.7 mph W10.8 kmh W 10.7 mph17.2 kmh 29.85 in1010.8 mb 0.00 in0.0 mm 0.00 in0.0 mm 0.00 in0.0 mm
01:51 AM 39.7°F4.3°C 35.6°F2.0°C 84% 5.8 mph W9.3 kmh W 10.7 mph17.2 kmh 29.85 in1010.8 mb 0.00 in0.0 mm 0.00 in0.0 mm 0.00 in0.0 mm
01:50 AM 39.7°F4.3°C 35.6°F2.0°C 84% 5.4 mph W8.7 kmh W 10.7 mph17.2 kmh 29.85 in1010.8 mb 0.00 in0.0 mm 0.00 in0.0 mm 0.00 in0.0 mm
01:49 AM 39.7°F4.3°C 35.6°F2.0°C 84% 4.5 mph W7.2 kmh W 10.7 mph17.2 kmh 29.85 in1010.8 mb 0.00 in0.0 mm 0.00 in0.0 mm 0.00 in0.0 mm
01:48 AM 39.7°F4.3°C 35.6°F2.0°C 84% 5.4 mph W8.7 kmh W 10.7 mph17.2 kmh 29.85 in1010.8 mb 0.00 in0.0 mm 0.00 in0.0 mm 0.00 in0.0 mm
01:47 AM 39.7°F4.3°C 35.6°F2.0°C 84% 4.0 mph W6.4 kmh W 10.7 mph17.2 kmh 29.85 in1010.8 mb 0.00 in0.0 mm 0.00 in0.0 mm 0.00 in0.0 mm
01:46 AM 39.7°F4.3°C 35.6°F2.0°C 84% 6.5 mph W10.5 kmh W 10.7 mph17.2 kmh 29.88 in1011.9 mb 0.00 in0.0 mm 0.00 in0.0 mm 0.00 in0.0 mm
01:45 AM 39.7°F4.3°C 35.6°F2.0°C 84% 4.9 mph W7.9 kmh W 10.7 mph17.2 kmh 29.88 in1011.9 mb 0.00 in0.0 mm 0.00 in0.0 mm 0.00 in0.0 mm
01:44 AM 39.7°F4.3°C 35.6°F2.0°C 84% 6.5 mph W10.5 kmh W 10.7 mph17.2 kmh 29.88 in1011.9 mb 0.00 in0.0 mm 0.00 in0.0 mm 0.00 in0.0 mm
01:43 AM 39.7°F4.3°C 35.6°F2.0°C 84% 6.7 mph W10.8 kmh W 10.7 mph17.2 kmh 29.88 in1011.9 mb 0.00 in0.0 mm 0.00 in0.0 mm 0.00 in0.0 mm
01:42 AM 39.7°F4.3°C 35.6°F2.0°C 84% 5.6 mph W9.0 kmh W 10.3 mph16.6 kmh 29.88 in1011.9 mb 0.00 in0.0 mm 0.00 in0.0 mm 0.00 in0.0 mm
01:41 AM 39.7°F4.3°C 35.6°F2.0°C 84% 7.2 mph W11.6 kmh W 10.3 mph16.6 kmh 29.88 in1011.9 mb 0.00 in0.0 mm 0.00 in0.0 mm 0.00 in0.0 mm
01:40 AM 39.7°F4.3°C 35.6°F2.0°C 84% 5.6 mph W9.0 kmh W 9.6 mph15.4 kmh 29.88 in1011.9 mb 0.00 in0.0 mm 0.00 in0.0 mm 0.00 in0.0 mm
01:39 AM 39.7°F4.3°C 35.6°F2.0°C 84% 5.4 mph W8.7 kmh W 9.6 mph15.4 kmh 29.88 in1011.9 mb 0.00 in0.0 mm 0.00 in0.0 mm 0.00 in0.0 mm
01:38 AM 39.7°F4.3°C 35.6°F2.0°C 84% 4.9 mph W7.9 kmh W 9.6 mph15.4 kmh 29.88 in1011.9 mb 0.00 in0.0 mm 0.00 in0.0 mm 0.00 in0.0 mm
01:37 AM 39.7°F4.3°C 35.6°F2.0°C 84% 7.4 mph W11.9 kmh W 9.6 mph15.4 kmh 29.88 in1011.9 mb 0.00 in0.0 mm 0.00 in0.0 mm 0.00 in0.0 mm
01:36 AM 39.7°F4.3°C 35.6°F2.0°C 84% 6.9 mph W11.1 kmh W 8.7 mph14.0 kmh 29.88 in1011.9 mb 0.00 in0.0 mm 0.00 in0.0 mm 0.00 in0.0 mm
01:35 AM 39.7°F4.3°C 35.6°F2.0°C 84% 4.0 mph W6.4 kmh W 8.7 mph14.0 kmh 29.88 in1011.9 mb 0.00 in0.0 mm 0.00 in0.0 mm 0.00 in0.0 mm
01:34 AM 39.7°F4.3°C 35.6°F2.0°C 84% 5.8 mph WSW9.3 kmh WSW 8.7 mph14.0 kmh 29.88 in1011.9 mb 0.00 in0.0 mm 0.00 in0.0 mm 0.00 in0.0 mm
01:33 AM 39.7°F4.3°C 35.6°F2.0°C 84% 5.8 mph WSW9.3 kmh WSW 8.7 mph14.0 kmh 29.88 in1011.9 mb 0.00 in0.0 mm 0.00 in0.0 mm 0.00 in0.0 mm
01:32 AM 39.9°F4.4°C 35.6°F2.0°C 84% 6.0 mph W9.7 kmh W 10.5 mph16.9 kmh 29.88 in1011.9 mb 0.00 in0.0 mm 0.00 in0.0 mm 0.00 in0.0 mm
01:31 AM 39.7°F4.3°C 35.6°F2.0°C 84% 4.7 mph WSW7.6 kmh WSW 10.5 mph16.9 kmh 29.85 in1010.8 mb 0.00 in0.0 mm 0.00 in0.0 mm 0.00 in0.0 mm
01:30 AM 39.7°F4.3°C 35.6°F2.0°C 84% 5.4 mph W8.7 kmh W 10.5 mph16.9 kmh 29.85 in1010.8 mb 0.00 in0.0 mm 0.00 in0.0 mm 0.00 in0.0 mm
01:29 AM 39.7°F4.3°C 35.6°F2.0°C 84% 7.8 mph W12.6 kmh W 10.5 mph16.9 kmh 29.85 in1010.8 mb 0.00 in0.0 mm 0.00 in0.0 mm 0.00 in0.0 mm
01:28 AM 39.9°F4.4°C 35.6°F2.0°C 84% 7.8 mph W12.6 kmh W 10.5 mph16.9 kmh 29.85 in1010.8 mb 0.00 in0.0 mm 0.00 in0.0 mm 0.00 in0.0 mm
01:27 AM 39.9°F4.4°C 35.6°F2.0°C 84% 6.5 mph W10.5 kmh W 10.5 mph16.9 kmh 29.85 in1010.8 mb 0.00 in0.0 mm 0.00 in0.0 mm 0.00 in0.0 mm
01:26 AM 39.9°F4.4°C 35.6°F2.0°C 84% 4.9 mph W7.9 kmh W 10.5 mph16.9 kmh 29.85 in1010.8 mb 0.00 in0.0 mm 0.00 in0.0 mm 0.00 in0.0 mm
01:25 AM 39.7°F4.3°C 35.6°F2.0°C 84% 5.8 mph W9.3 kmh W 10.5 mph16.9 kmh 29.85 in1010.8 mb 0.00 in0.0 mm 0.00 in0.0 mm 0.00 in0.0 mm
01:24 AM 39.9°F4.4°C 35.6°F2.0°C 84% 7.2 mph W11.6 kmh W 10.5 mph16.9 kmh 29.85 in1010.8 mb 0.00 in0.0 mm 0.00 in0.0 mm 0.00 in0.0 mm
01:23 AM 39.9°F4.4°C 35.6°F2.0°C 84% 8.9 mph W14.3 kmh W 10.5 mph16.9 kmh 29.85 in1010.8 mb 0.00 in0.0 mm 0.00 in0.0 mm 0.00 in0.0 mm
01:22 AM 39.9°F4.4°C 35.6°F2.0°C 84% 6.5 mph W10.5 kmh W 8.7 mph14.0 kmh 29.85 in1010.8 mb 0.00 in0.0 mm 0.00 in0.0 mm 0.00 in0.0 mm
01:21 AM 39.9°F4.4°C 35.6°F2.0°C 84% 5.6 mph W9.0 kmh W 9.6 mph15.4 kmh 29.85 in1010.8 mb 0.00 in0.0 mm 0.00 in0.0 mm 0.00 in0.0 mm
01:20 AM 39.9°F4.4°C 35.6°F2.0°C 83% 6.7 mph W10.8 kmh W 9.6 mph15.4 kmh 29.85 in1010.8 mb 0.00 in0.0 mm 0.00 in0.0 mm 0.00 in0.0 mm
01:19 AM 39.9°F4.4°C 35.6°F2.0°C 83% 5.8 mph W9.3 kmh W 9.6 mph15.4 kmh 29.85 in1010.8 mb 0.00 in0.0 mm 0.00 in0.0 mm 0.00 in0.0 mm
01:18 AM 39.9°F4.4°C 35.6°F2.0°C 83% 6.0 mph W9.7 kmh W 10.3 mph16.6 kmh 29.85 in1010.8 mb 0.00 in0.0 mm 0.00 in0.0 mm 0.00 in0.0 mm
01:17 AM 39.9°F4.4°C 35.6°F2.0°C 83% 4.9 mph W7.9 kmh W 10.3 mph16.6 kmh 29.85 in1010.8 mb 0.00 in0.0 mm 0.00 in0.0 mm 0.00 in0.0 mm
01:16 AM 39.9°F4.4°C 35.6°F2.0°C 83% 6.3 mph W10.1 kmh W 10.3 mph16.6 kmh 29.85 in1010.8 mb 0.00 in0.0 mm 0.00 in0.0 mm 0.00 in0.0 mm
01:15 AM 39.9°F4.4°C 35.6°F2.0°C 83% 6.7 mph W10.8 kmh W 10.3 mph16.6 kmh 29.85 in1010.8 mb 0.00 in0.0 mm 0.00 in0.0 mm 0.00 in0.0 mm
01:14 AM 39.9°F4.4°C 35.6°F2.0°C 83% 6.0 mph W9.7 kmh W 10.3 mph16.6 kmh 29.85 in1010.8 mb 0.00 in0.0 mm 0.00 in0.0 mm 0.00 in0.0 mm
01:13 AM 39.9°F4.4°C 35.6°F2.0°C 82% 6.3 mph W10.1 kmh W 10.3 mph16.6 kmh 29.85 in1010.8 mb 0.00 in0.0 mm 0.00 in0.0 mm 0.00 in0.0 mm
01:12 AM 39.9°F4.4°C 35.6°F2.0°C 82% 6.9 mph W11.1 kmh W 10.3 mph16.6 kmh 29.85 in1010.8 mb 0.00 in0.0 mm 0.00 in0.0 mm 0.00 in0.0 mm
01:11 AM 39.9°F4.4°C 35.6°F2.0°C 82% 6.5 mph W10.5 kmh W 10.3 mph16.6 kmh 29.85 in1010.8 mb 0.00 in0.0 mm 0.00 in0.0 mm 0.00 in0.0 mm
01:10 AM 39.9°F4.4°C 35.6°F2.0°C 82% 4.0 mph W6.4 kmh W 10.3 mph16.6 kmh 29.85 in1010.8 mb 0.00 in0.0 mm 0.00 in0.0 mm 0.00 in0.0 mm
01:09 AM 39.9°F4.4°C 35.6°F2.0°C 82% 8.1 mph W13.0 kmh W 10.3 mph16.6 kmh 29.85 in1010.8 mb 0.00 in0.0 mm 0.00 in0.0 mm 0.00 in0.0 mm
01:08 AM 40.1°F4.5°C 35.6°F2.0°C 82% 7.2 mph W11.6 kmh W 10.3 mph16.6 kmh 29.85 in1010.8 mb 0.00 in0.0 mm 0.00 in0.0 mm 0.00 in0.0 mm
01:07 AM 40.1°F4.5°C 35.6°F2.0°C 82% 7.2 mph W11.6 kmh W 10.3 mph16.6 kmh 29.85 in1010.8 mb 0.00 in0.0 mm 0.00 in0.0 mm 0.00 in0.0 mm
01:06 AM 40.1°F4.5°C 35.6°F2.0°C 82% 4.7 mph W7.6 kmh W 10.3 mph16.6 kmh 29.85 in1010.8 mb 0.00 in0.0 mm 0.00 in0.0 mm 0.00 in0.0 mm
01:05 AM 40.1°F4.5°C 35.6°F2.0°C 82% 6.9 mph W11.1 kmh W 10.3 mph16.6 kmh 29.85 in1010.8 mb 0.00 in0.0 mm 0.00 in0.0 mm 0.00 in0.0 mm
01:04 AM 40.1°F4.5°C 35.6°F2.0°C 82% 7.2 mph W11.6 kmh W 10.3 mph16.6 kmh 29.85 in1010.8 mb 0.00 in0.0 mm 0.00 in0.0 mm 0.00 in0.0 mm
01:03 AM 40.1°F4.5°C 35.6°F2.0°C 81% 7.2 mph W11.6 kmh W 13.4 mph21.6 kmh 29.85 in1010.8 mb 0.00 in0.0 mm 0.00 in0.0 mm 0.00 in0.0 mm
01:02 AM 40.1°F4.5°C 35.6°F2.0°C 81% 6.7 mph W10.8 kmh W 13.4 mph21.6 kmh 29.85 in1010.8 mb 0.00 in0.0 mm 0.00 in0.0 mm 0.00 in0.0 mm
01:01 AM 40.1°F4.5°C 35.6°F2.0°C 81% 5.6 mph W9.0 kmh W 13.4 mph21.6 kmh 29.85 in1010.8 mb 0.00 in0.0 mm 0.00 in0.0 mm 0.00 in0.0 mm
01:00 AM 40.3°F4.6°C 35.6°F2.0°C 81% 7.4 mph W11.9 kmh W 13.4 mph21.6 kmh 29.85 in1010.8 mb 0.00 in0.0 mm 0.00 in0.0 mm 0.00 in0.0 mm
12:59 AM 40.3°F4.6°C 35.6°F2.0°C 81% 6.0 mph W9.7 kmh W 13.4 mph21.6 kmh 29.85 in1010.8 mb 0.00 in0.0 mm 0.00 in0.0 mm 0.00 in0.0 mm
12:58 AM 40.3°F4.6°C 35.6°F2.0°C 80% 5.8 mph W9.3 kmh W 13.4 mph21.6 kmh 29.85 in1010.8 mb 0.00 in0.0 mm 0.00 in0.0 mm 0.00 in0.0 mm
12:57 AM 40.3°F4.6°C 35.6°F2.0°C 80% 5.4 mph W8.7 kmh W 13.4 mph21.6 kmh 29.85 in1010.8 mb 0.00 in0.0 mm 0.00 in0.0 mm 0.00 in0.0 mm
12:56 AM 40.3°F4.6°C 35.6°F2.0°C 80% 7.8 mph W12.6 kmh W 13.4 mph21.6 kmh 29.85 in1010.8 mb 0.00 in0.0 mm 0.00 in0.0 mm 0.00 in0.0 mm
12:55 AM 40.3°F4.6°C 35.6°F2.0°C 80% 8.5 mph W13.7 kmh W 13.4 mph21.6 kmh 29.85 in1010.8 mb 0.00 in0.0 mm 0.00 in0.0 mm 0.00 in0.0 mm
12:54 AM 40.3°F4.6°C 35.6°F2.0°C 80% 9.2 mph W14.8 kmh W 13.4 mph21.6 kmh 29.85 in1010.8 mb 0.00 in0.0 mm 0.00 in0.0 mm 0.00 in0.0 mm
12:53 AM 40.3°F4.6°C 35.6°F2.0°C 80% 7.8 mph W12.6 kmh W 13.4 mph21.6 kmh 29.85 in1010.8 mb 0.00 in0.0 mm 0.00 in0.0 mm 0.00 in0.0 mm
12:52 AM 40.3°F4.6°C 35.6°F2.0°C 80% 8.7 mph W14.0 kmh W 10.3 mph16.6 kmh 29.85 in1010.8 mb 0.00 in0.0 mm 0.00 in0.0 mm 0.00 in0.0 mm
12:51 AM 40.3°F4.6°C 35.6°F2.0°C 80% 5.8 mph W9.3 kmh W 9.6 mph15.4 kmh 29.85 in1010.8 mb 0.00 in0.0 mm 0.00 in0.0 mm 0.00 in0.0 mm
12:50 AM 40.3°F4.6°C 35.6°F2.0°C 80% 6.9 mph W11.1 kmh W 9.6 mph15.4 kmh 29.85 in1010.8 mb 0.00 in0.0 mm 0.00 in0.0 mm 0.00 in0.0 mm
12:49 AM 40.3°F4.6°C 35.6°F2.0°C 80% 6.9 mph WNW11.1 kmh WNW 9.2 mph14.8 kmh 29.85 in1010.8 mb 0.00 in0.0 mm 0.00 in0.0 mm 0.00 in0.0 mm
12:48 AM 40.5°F4.7°C 35.6°F2.0°C 80% 6.9 mph WNW11.1 kmh WNW 8.7 mph14.0 kmh 29.85 in1010.8 mb 0.00 in0.0 mm 0.00 in0.0 mm 0.00 in0.0 mm
12:47 AM 40.5°F4.7°C 35.6°F2.0°C 80% 4.9 mph WNW7.9 kmh WNW 8.1 mph13.0 kmh 29.85 in1010.8 mb 0.00 in0.0 mm 0.00 in0.0 mm 0.00 in0.0 mm
12:46 AM 40.5°F4.7°C 35.6°F2.0°C 80% 4.5 mph WNW7.2 kmh WNW 8.1 mph13.0 kmh 29.82 in1009.8 mb 0.00 in0.0 mm 0.00 in0.0 mm 0.00 in0.0 mm
12:45 AM 40.5°F4.7°C 35.6°F2.0°C 80% 4.9 mph WNW7.9 kmh WNW 9.4 mph15.1 kmh 29.82 in1009.8 mb 0.00 in0.0 mm 0.00 in0.0 mm 0.00 in0.0 mm
12:44 AM 40.5°F4.7°C 35.6°F2.0°C 80% 4.3 mph WNW6.9 kmh WNW 11.0 mph17.7 kmh 29.82 in1009.8 mb 0.00 in0.0 mm 0.00 in0.0 mm 0.00 in0.0 mm
12:43 AM 40.5°F4.7°C 35.6°F2.0°C 80% 4.9 mph W7.9 kmh W 11.0 mph17.7 kmh 29.82 in1009.8 mb 0.00 in0.0 mm 0.00 in0.0 mm 0.00 in0.0 mm
12:42 AM 40.5°F4.7°C 35.6°F2.0°C 80% 6.0 mph W9.7 kmh W 11.0 mph17.7 kmh 29.82 in1009.8 mb 0.00 in0.0 mm 0.00 in0.0 mm 0.00 in0.0 mm
12:41 AM 40.5°F4.7°C 35.6°F2.0°C 80% 4.7 mph W7.6 kmh W 11.0 mph17.7 kmh 29.82 in1009.8 mb 0.00 in0.0 mm 0.00 in0.0 mm 0.00 in0.0 mm
12:40 AM 40.5°F4.7°C 33.8°F1.0°C 79% 5.6 mph W9.0 kmh W 11.0 mph17.7 kmh 29.82 in1009.8 mb 0.00 in0.0 mm 0.00 in0.0 mm 0.00 in0.0 mm
12:39 AM 40.5°F4.7°C 33.8°F1.0°C 79% 3.8 mph W6.1 kmh W 11.0 mph17.7 kmh 29.82 in1009.8 mb 0.00 in0.0 mm 0.00 in0.0 mm 0.00 in0.0 mm
12:38 AM 40.5°F4.7°C 33.8°F1.0°C 79% 5.6 mph W9.0 kmh W 11.0 mph17.7 kmh 29.82 in1009.8 mb 0.00 in0.0 mm 0.00 in0.0 mm 0.00 in0.0 mm
12:37 AM 40.5°F4.7°C 33.8°F1.0°C 79% 5.6 mph W9.0 kmh W 11.0 mph17.7 kmh 29.82 in1009.8 mb 0.00 in0.0 mm 0.00 in0.0 mm 0.00 in0.0 mm
12:36 AM 40.5°F4.7°C 33.8°F1.0°C 79% 6.9 mph W11.1 kmh W 11.0 mph17.7 kmh 29.82 in1009.8 mb 0.00 in0.0 mm 0.00 in0.0 mm 0.00 in0.0 mm
12:35 AM 40.5°F4.7°C 33.8°F1.0°C 79% 7.6 mph W12.2 kmh W 11.0 mph17.7 kmh 29.82 in1009.8 mb 0.00 in0.0 mm 0.00 in0.0 mm 0.00 in0.0 mm
12:34 AM 40.5°F4.7°C 33.8°F1.0°C 79% 9.2 mph W14.8 kmh W 10.7 mph17.2 kmh 29.82 in1009.8 mb 0.00 in0.0 mm 0.00 in0.0 mm 0.00 in0.0 mm
12:33 AM 40.6°F4.8°C 33.8°F1.0°C 79% 6.5 mph W10.5 kmh W 10.7 mph17.2 kmh 29.82 in1009.8 mb 0.00 in0.0 mm 0.00 in0.0 mm 0.00 in0.0 mm
12:32 AM 40.5°F4.7°C 35.6°F2.0°C 80% 7.8 mph W12.6 kmh W 10.1 mph16.3 kmh 29.82 in1009.8 mb 0.00 in0.0 mm 0.00 in0.0 mm 0.00 in0.0 mm
12:31 AM 40.6°F4.8°C 35.6°F2.0°C 80% 5.8 mph W9.3 kmh W 14.8 mph23.8 kmh 29.82 in1009.8 mb 0.00 in0.0 mm 0.00 in0.0 mm 0.00 in0.0 mm
12:30 AM 40.6°F4.8°C 35.6°F2.0°C 80% 4.0 mph W6.4 kmh W 14.8 mph23.8 kmh 29.82 in1009.8 mb 0.00 in0.0 mm 0.00 in0.0 mm 0.00 in0.0 mm
12:29 AM 40.6°F4.8°C 35.6°F2.0°C 80% 4.0 mph W6.4 kmh W 14.8 mph23.8 kmh 29.82 in1009.8 mb 0.00 in0.0 mm 0.00 in0.0 mm 0.00 in0.0 mm
12:28 AM 40.6°F4.8°C 35.6°F2.0°C 80% 5.6 mph W9.0 kmh W 14.8 mph23.8 kmh 29.82 in1009.8 mb 0.00 in0.0 mm 0.00 in0.0 mm 0.00 in0.0 mm
12:27 AM 40.6°F4.8°C 35.6°F2.0°C 80% 3.8 mph W6.1 kmh W 14.8 mph23.8 kmh 29.82 in1009.8 mb 0.00 in0.0 mm 0.00 in0.0 mm 0.00 in0.0 mm
12:26 AM 40.6°F4.8°C 33.8°F1.0°C 79% 4.0 mph W6.4 kmh W 14.8 mph23.8 kmh 29.82 in1009.8 mb 0.00 in0.0 mm 0.00 in0.0 mm 0.00 in0.0 mm
12:25 AM 40.6°F4.8°C 33.8°F1.0°C 79% 5.6 mph W9.0 kmh W 14.8 mph23.8 kmh 29.82 in1009.8 mb 0.00 in0.0 mm 0.00 in0.0 mm 0.00 in0.0 mm
12:24 AM 40.6°F4.8°C 33.8°F1.0°C 79% 4.9 mph W7.9 kmh W 14.8 mph23.8 kmh 29.82 in1009.8 mb 0.00 in0.0 mm 0.00 in0.0 mm 0.00 in0.0 mm
12:23 AM 40.6°F4.8°C 33.8°F1.0°C 79% 6.7 mph W10.8 kmh W 14.8 mph23.8 kmh 29.82 in1009.8 mb 0.00 in0.0 mm 0.00 in0.0 mm 0.00 in0.0 mm
12:22 AM 40.5°F4.7°C 33.8°F1.0°C 79% 9.4 mph W15.1 kmh W 14.8 mph23.8 kmh 29.82 in1009.8 mb 0.00 in0.0 mm 0.00 in0.0 mm 0.00 in0.0 mm
12:21 AM 40.5°F4.7°C 33.8°F1.0°C 79% 7.6 mph W12.2 kmh W 13.2 mph21.2 kmh 29.82 in1009.8 mb 0.00 in0.0 mm 0.00 in0.0 mm 0.00 in0.0 mm
12:20 AM 40.5°F4.7°C 33.8°F1.0°C 79% 6.0 mph WNW9.7 kmh WNW 13.2 mph21.2 kmh 29.82 in1009.8 mb 0.00 in0.0 mm 0.00 in0.0 mm 0.00 in0.0 mm
12:19 AM 40.5°F4.7°C 33.8°F1.0°C 79% 5.8 mph WNW9.3 kmh WNW 13.2 mph21.2 kmh 29.82 in1009.8 mb 0.00 in0.0 mm 0.00 in0.0 mm 0.00 in0.0 mm
12:18 AM 40.5°F4.7°C 33.8°F1.0°C 79% 6.9 mph WNW11.1 kmh WNW 13.2 mph21.2 kmh 29.82 in1009.8 mb 0.00 in0.0 mm 0.00 in0.0 mm 0.00 in0.0 mm
12:17 AM 40.5°F4.7°C 33.8°F1.0°C 79% 8.5 mph NW13.7 kmh NW 13.2 mph21.2 kmh 29.82 in1009.8 mb 0.00 in0.0 mm 0.00 in0.0 mm 0.00 in0.0 mm
12:16 AM 40.5°F4.7°C 35.6°F2.0°C 80% 5.4 mph NW8.7 kmh NW 8.1 mph13.0 kmh 29.82 in1009.8 mb 0.00 in0.0 mm 0.00 in0.0 mm 0.00 in0.0 mm
12:15 AM 40.5°F4.7°C 35.6°F2.0°C 80% 3.1 mph NW5.0 kmh NW 8.7 mph14.0 kmh 29.82 in1009.8 mb 0.00 in0.0 mm 0.00 in0.0 mm 0.00 in0.0 mm
12:14 AM 40.5°F4.7°C 35.6°F2.0°C 80% 6.3 mph NW10.1 kmh NW 8.7 mph14.0 kmh 29.82 in1009.8 mb 0.00 in0.0 mm 0.00 in0.0 mm 0.00 in0.0 mm
12:13 AM 40.5°F4.7°C 35.6°F2.0°C 80% 4.7 mph NW7.6 kmh NW 8.7 mph14.0 kmh 29.82 in1009.8 mb 0.00 in0.0 mm 0.00 in0.0 mm 0.00 in0.0 mm
12:12 AM 40.5°F4.7°C 33.8°F1.0°C 79% 4.3 mph WNW6.9 kmh WNW 8.7 mph14.0 kmh 29.82 in1009.8 mb 0.00 in0.0 mm 0.00 in0.0 mm 0.00 in0.0 mm
12:11 AM 40.6°F4.8°C 33.8°F1.0°C 79% 3.8 mph WNW6.1 kmh WNW 8.7 mph14.0 kmh 29.82 in1009.8 mb 0.00 in0.0 mm 0.00 in0.0 mm 0.00 in0.0 mm
12:10 AM 40.6°F4.8°C 33.8°F1.0°C 79% 4.3 mph WNW6.9 kmh WNW 8.7 mph14.0 kmh 29.82 in1009.8 mb 0.00 in0.0 mm 0.00 in0.0 mm 0.00 in0.0 mm
12:09 AM 40.6°F4.8°C 33.8°F1.0°C 79% 3.1 mph WNW5.0 kmh WNW 8.7 mph14.0 kmh 29.82 in1009.8 mb 0.00 in0.0 mm 0.00 in0.0 mm 0.00 in0.0 mm
12:08 AM 40.6°F4.8°C 33.8°F1.0°C 79% 4.5 mph WNW7.2 kmh WNW 10.7 mph17.2 kmh 29.82 in1009.8 mb 0.00 in0.0 mm 0.00 in0.0 mm 0.00 in0.0 mm
12:07 AM 40.6°F4.8°C 33.8°F1.0°C 79% 6.9 mph WNW11.1 kmh WNW 12.3 mph19.8 kmh 29.82 in1009.8 mb 0.00 in0.0 mm 0.00 in0.0 mm 0.00 in0.0 mm
12:06 AM 40.6°F4.8°C 33.8°F1.0°C 79% 4.7 mph W7.6 kmh W 12.3 mph19.8 kmh 29.82 in1009.8 mb 0.00 in0.0 mm 0.00 in0.0 mm 0.00 in0.0 mm
12:05 AM 40.6°F4.8°C 33.8°F1.0°C 79% 4.0 mph W6.4 kmh W 12.3 mph19.8 kmh 29.82 in1009.8 mb 0.00 in0.0 mm 0.00 in0.0 mm 0.00 in0.0 mm
12:04 AM 40.6°F4.8°C 33.8°F1.0°C 79% 5.4 mph W8.7 kmh W 12.3 mph19.8 kmh 29.82 in1009.8 mb 0.00 in0.0 mm 0.00 in0.0 mm 0.00 in0.0 mm
12:03 AM 40.6°F4.8°C 33.8°F1.0°C 78% 6.0 mph W9.7 kmh W 12.3 mph19.8 kmh 29.82 in1009.8 mb 0.00 in0.0 mm 0.00 in0.0 mm 0.00 in0.0 mm
12:02 AM 40.6°F4.8°C 33.8°F1.0°C 78% 4.0 mph WNW6.4 kmh WNW 12.5 mph20.1 kmh 29.82 in1009.8 mb 0.00 in0.0 mm 0.00 in0.0 mm 0.00 in0.0 mm
12:01 AM 40.8°F4.9°C 33.8°F1.0°C 78% 5.8 mph WNW9.3 kmh WNW 12.5 mph20.1 kmh 29.79 in1008.8 mb 0.00 in0.0 mm 0.00 in0.0 mm 0.00 in0.0 mm
12:00 AM 40.8°F4.9°C 33.8°F1.0°C 78% 5.8 mph W9.3 kmh W 17.2 mph27.7 kmh 29.79 in1008.8 mb 0.00 in0.0 mm 0.00 in0.0 mm 0.00 in0.0 mm